<?xml version="1.0" encoding="UTF-8" standalone="no" ?>
<gpx xmlns="http://www.topografix.com/GPX/1/1" xmlns:xsi="http://www.w3.org/2001/XMLSchema-instance" xsi:schemaLocation="http://www.topografix.com/GPX/1/1 http://www.topografix.com/GPX/1/1/gpx.xsd" version="1.1" creator="VisuGPX - https://www.visugpx.com">
  <metadata>
    <name>payolle - Castet Sarradis</name>
    <desc><![CDATA[Une sortie raquettes à neige sans danger d'avalanches ni difficultés techniques sous réserve de la forte pente qui mène au Castet Sarradis]]></desc>
  </metadata>
  <trk>
    <name><![CDATA[payolle-Castet Sarradis 06 MARS 2018 09:08]]></name>
    <trkseg>
      <trkpt lat="42.94268" lon="0.28452">
        <ele>1029.23</ele>
        <time>2018-03-06T08:20:50Z</time>
      </trkpt>
      <trkpt lat="42.94261" lon="0.2845">
        <ele>1029.23</ele>
        <time>2018-03-06T08:21:04Z</time>
      </trkpt>
      <trkpt lat="42.94258" lon="0.28453">
        <ele>1126.32</ele>
        <time>2018-03-06T08:21:13Z</time>
      </trkpt>
      <trkpt lat="42.94257" lon="0.28452">
        <ele>1096.04</ele>
        <time>2018-03-06T08:21:16Z</time>
      </trkpt>
      <trkpt lat="42.94257" lon="0.28451">
        <ele>1096.04</ele>
        <time>2018-03-06T08:21:17Z</time>
      </trkpt>
      <trkpt lat="42.94255" lon="0.2845">
        <ele>1099.89</ele>
        <time>2018-03-06T08:21:29Z</time>
      </trkpt>
      <trkpt lat="42.94255" lon="0.2845">
        <ele>1095.56</ele>
        <time>2018-03-06T08:21:30Z</time>
      </trkpt>
      <trkpt lat="42.9425" lon="0.28454">
        <ele>1096.04</ele>
        <time>2018-03-06T08:21:43Z</time>
      </trkpt>
      <trkpt lat="42.94248" lon="0.28455">
        <ele>1096.04</ele>
        <time>2018-03-06T08:21:56Z</time>
      </trkpt>
      <trkpt lat="42.94246" lon="0.28458">
        <ele>1096.04</ele>
        <time>2018-03-06T08:22:02Z</time>
      </trkpt>
      <trkpt lat="42.94238" lon="0.28457">
        <ele>1096.04</ele>
        <time>2018-03-06T08:22:20Z</time>
      </trkpt>
      <trkpt lat="42.94237" lon="0.28453">
        <ele>1095.56</ele>
        <time>2018-03-06T08:22:42Z</time>
      </trkpt>
      <trkpt lat="42.94237" lon="0.28446">
        <ele>1095.56</ele>
        <time>2018-03-06T08:22:56Z</time>
      </trkpt>
      <trkpt lat="42.9423" lon="0.28435">
        <ele>1094.6</ele>
        <time>2018-03-06T08:23:12Z</time>
      </trkpt>
      <trkpt lat="42.94229" lon="0.28432">
        <ele>1094.6</ele>
        <time>2018-03-06T08:23:29Z</time>
      </trkpt>
      <trkpt lat="42.94224" lon="0.28417">
        <ele>1094.6</ele>
        <time>2018-03-06T08:23:45Z</time>
      </trkpt>
      <trkpt lat="42.94218" lon="0.28405">
        <ele>1095.08</ele>
        <time>2018-03-06T08:24:00Z</time>
      </trkpt>
      <trkpt lat="42.9421" lon="0.28392">
        <ele>1094.6</ele>
        <time>2018-03-06T08:24:14Z</time>
      </trkpt>
      <trkpt lat="42.94201" lon="0.28379">
        <ele>1094.6</ele>
        <time>2018-03-06T08:24:31Z</time>
      </trkpt>
      <trkpt lat="42.94197" lon="0.28373">
        <ele>1094.6</ele>
        <time>2018-03-06T08:24:45Z</time>
      </trkpt>
      <trkpt lat="42.94186" lon="0.28364">
        <ele>1095.56</ele>
        <time>2018-03-06T08:24:59Z</time>
      </trkpt>
      <trkpt lat="42.94178" lon="0.28359">
        <ele>1097</ele>
        <time>2018-03-06T08:25:12Z</time>
      </trkpt>
      <trkpt lat="42.94175" lon="0.28347">
        <ele>1099.89</ele>
        <time>2018-03-06T08:25:27Z</time>
      </trkpt>
      <trkpt lat="42.94172" lon="0.28336">
        <ele>1102.29</ele>
        <time>2018-03-06T08:25:40Z</time>
      </trkpt>
      <trkpt lat="42.94169" lon="0.28321">
        <ele>1103.73</ele>
        <time>2018-03-06T08:25:55Z</time>
      </trkpt>
      <trkpt lat="42.94165" lon="0.28307">
        <ele>1105.65</ele>
        <time>2018-03-06T08:26:10Z</time>
      </trkpt>
      <trkpt lat="42.94159" lon="0.28296">
        <ele>1107.58</ele>
        <time>2018-03-06T08:26:25Z</time>
      </trkpt>
      <trkpt lat="42.94156" lon="0.28284">
        <ele>1108.54</ele>
        <time>2018-03-06T08:26:40Z</time>
      </trkpt>
      <trkpt lat="42.94151" lon="0.28271">
        <ele>1109.5</ele>
        <time>2018-03-06T08:26:55Z</time>
      </trkpt>
      <trkpt lat="42.94147" lon="0.28255">
        <ele>1110.46</ele>
        <time>2018-03-06T08:27:11Z</time>
      </trkpt>
      <trkpt lat="42.94147" lon="0.28253">
        <ele>1110.46</ele>
        <time>2018-03-06T08:27:31Z</time>
      </trkpt>
      <trkpt lat="42.94145" lon="0.28246">
        <ele>1110.46</ele>
        <time>2018-03-06T08:27:43Z</time>
      </trkpt>
      <trkpt lat="42.94145" lon="0.28233">
        <ele>1109.98</ele>
        <time>2018-03-06T08:27:55Z</time>
      </trkpt>
      <trkpt lat="42.94145" lon="0.2823">
        <ele>1109.98</ele>
        <time>2018-03-06T08:28:07Z</time>
      </trkpt>
      <trkpt lat="42.94144" lon="0.28214">
        <ele>1109.98</ele>
        <time>2018-03-06T08:28:21Z</time>
      </trkpt>
      <trkpt lat="42.94143" lon="0.28196">
        <ele>1109.5</ele>
        <time>2018-03-06T08:28:35Z</time>
      </trkpt>
      <trkpt lat="42.94143" lon="0.2818">
        <ele>1109.5</ele>
        <time>2018-03-06T08:28:48Z</time>
      </trkpt>
      <trkpt lat="42.94142" lon="0.28171">
        <ele>1109.5</ele>
        <time>2018-03-06T08:28:56Z</time>
      </trkpt>
      <trkpt lat="42.94141" lon="0.28167">
        <ele>1109.5</ele>
        <time>2018-03-06T08:29:00Z</time>
      </trkpt>
      <trkpt lat="42.94136" lon="0.2815">
        <ele>1109.02</ele>
        <time>2018-03-06T08:29:15Z</time>
      </trkpt>
      <trkpt lat="42.94133" lon="0.28139">
        <ele>1109.02</ele>
        <time>2018-03-06T08:29:29Z</time>
      </trkpt>
      <trkpt lat="42.94133" lon="0.28137">
        <ele>1108.54</ele>
        <time>2018-03-06T08:29:42Z</time>
      </trkpt>
      <trkpt lat="42.94127" lon="0.28128">
        <ele>1105.65</ele>
        <time>2018-03-06T08:29:56Z</time>
      </trkpt>
      <trkpt lat="42.94122" lon="0.28117">
        <ele>1102.29</ele>
        <time>2018-03-06T08:30:09Z</time>
      </trkpt>
      <trkpt lat="42.94118" lon="0.28116">
        <ele>1102.77</ele>
        <time>2018-03-06T08:30:16Z</time>
      </trkpt>
      <trkpt lat="42.94109" lon="0.28117">
        <ele>1102.77</ele>
        <time>2018-03-06T08:30:31Z</time>
      </trkpt>
      <trkpt lat="42.94107" lon="0.2812">
        <ele>1102.77</ele>
        <time>2018-03-06T08:30:34Z</time>
      </trkpt>
      <trkpt lat="42.94103" lon="0.28104">
        <ele>1103.73</ele>
        <time>2018-03-06T08:30:48Z</time>
      </trkpt>
      <trkpt lat="42.94101" lon="0.28093">
        <ele>1105.65</ele>
        <time>2018-03-06T08:31:00Z</time>
      </trkpt>
      <trkpt lat="42.94099" lon="0.28083">
        <ele>1108.06</ele>
        <time>2018-03-06T08:31:14Z</time>
      </trkpt>
      <trkpt lat="42.94102" lon="0.28073">
        <ele>1109.02</ele>
        <time>2018-03-06T08:31:28Z</time>
      </trkpt>
      <trkpt lat="42.94102" lon="0.28072">
        <ele>1109.02</ele>
        <time>2018-03-06T08:31:29Z</time>
      </trkpt>
      <trkpt lat="42.94106" lon="0.28054">
        <ele>1109.02</ele>
        <time>2018-03-06T08:31:45Z</time>
      </trkpt>
      <trkpt lat="42.94109" lon="0.28041">
        <ele>1109.02</ele>
        <time>2018-03-06T08:31:58Z</time>
      </trkpt>
      <trkpt lat="42.9411" lon="0.28025">
        <ele>1109.02</ele>
        <time>2018-03-06T08:32:13Z</time>
      </trkpt>
      <trkpt lat="42.94113" lon="0.28009">
        <ele>1109.02</ele>
        <time>2018-03-06T08:32:27Z</time>
      </trkpt>
      <trkpt lat="42.94114" lon="0.27996">
        <ele>1109.02</ele>
        <time>2018-03-06T08:32:39Z</time>
      </trkpt>
      <trkpt lat="42.94116" lon="0.27984">
        <ele>1109.02</ele>
        <time>2018-03-06T08:32:52Z</time>
      </trkpt>
      <trkpt lat="42.94118" lon="0.27966">
        <ele>1109.02</ele>
        <time>2018-03-06T08:33:09Z</time>
      </trkpt>
      <trkpt lat="42.94119" lon="0.27951">
        <ele>1108.54</ele>
        <time>2018-03-06T08:33:24Z</time>
      </trkpt>
      <trkpt lat="42.9412" lon="0.27937">
        <ele>1108.54</ele>
        <time>2018-03-06T08:33:37Z</time>
      </trkpt>
      <trkpt lat="42.9412" lon="0.2792">
        <ele>1108.06</ele>
        <time>2018-03-06T08:33:52Z</time>
      </trkpt>
      <trkpt lat="42.94118" lon="0.27902">
        <ele>1107.58</ele>
        <time>2018-03-06T08:34:07Z</time>
      </trkpt>
      <trkpt lat="42.94118" lon="0.27892">
        <ele>1107.58</ele>
        <time>2018-03-06T08:34:15Z</time>
      </trkpt>
      <trkpt lat="42.94118" lon="0.2788">
        <ele>1107.58</ele>
        <time>2018-03-06T08:34:25Z</time>
      </trkpt>
      <trkpt lat="42.94117" lon="0.27861">
        <ele>1107.1</ele>
        <time>2018-03-06T08:34:40Z</time>
      </trkpt>
      <trkpt lat="42.94117" lon="0.27844">
        <ele>1106.61</ele>
        <time>2018-03-06T08:34:54Z</time>
      </trkpt>
      <trkpt lat="42.94117" lon="0.27825">
        <ele>1107.1</ele>
        <time>2018-03-06T08:35:08Z</time>
      </trkpt>
      <trkpt lat="42.9412" lon="0.27816">
        <ele>1107.1</ele>
        <time>2018-03-06T08:35:16Z</time>
      </trkpt>
      <trkpt lat="42.94112" lon="0.27794">
        <ele>1107.58</ele>
        <time>2018-03-06T08:35:33Z</time>
      </trkpt>
      <trkpt lat="42.94111" lon="0.2779">
        <ele>1107.1</ele>
        <time>2018-03-06T08:35:36Z</time>
      </trkpt>
      <trkpt lat="42.94108" lon="0.27767">
        <ele>1107.58</ele>
        <time>2018-03-06T08:35:52Z</time>
      </trkpt>
      <trkpt lat="42.94104" lon="0.27745">
        <ele>1108.54</ele>
        <time>2018-03-06T08:36:08Z</time>
      </trkpt>
      <trkpt lat="42.941" lon="0.27723">
        <ele>1109.02</ele>
        <time>2018-03-06T08:36:23Z</time>
      </trkpt>
      <trkpt lat="42.94098" lon="0.27702">
        <ele>1109.5</ele>
        <time>2018-03-06T08:36:38Z</time>
      </trkpt>
      <trkpt lat="42.94096" lon="0.27682">
        <ele>1110.46</ele>
        <time>2018-03-06T08:36:52Z</time>
      </trkpt>
      <trkpt lat="42.94092" lon="0.27663">
        <ele>1110.94</ele>
        <time>2018-03-06T08:37:05Z</time>
      </trkpt>
      <trkpt lat="42.94089" lon="0.27644">
        <ele>1110.46</ele>
        <time>2018-03-06T08:37:20Z</time>
      </trkpt>
      <trkpt lat="42.94088" lon="0.27624">
        <ele>1111.9</ele>
        <time>2018-03-06T08:37:36Z</time>
      </trkpt>
      <trkpt lat="42.94088" lon="0.27622">
        <ele>1112.38</ele>
        <time>2018-03-06T08:37:37Z</time>
      </trkpt>
      <trkpt lat="42.94085" lon="0.27602">
        <ele>1112.86</ele>
        <time>2018-03-06T08:37:53Z</time>
      </trkpt>
      <trkpt lat="42.94084" lon="0.27591">
        <ele>1113.34</ele>
        <time>2018-03-06T08:38:01Z</time>
      </trkpt>
      <trkpt lat="42.94081" lon="0.27571">
        <ele>1114.31</ele>
        <time>2018-03-06T08:38:17Z</time>
      </trkpt>
      <trkpt lat="42.94081" lon="0.27562">
        <ele>1114.79</ele>
        <time>2018-03-06T08:38:24Z</time>
      </trkpt>
      <trkpt lat="42.9408" lon="0.27557">
        <ele>1115.27</ele>
        <time>2018-03-06T08:38:27Z</time>
      </trkpt>
      <trkpt lat="42.94079" lon="0.27544">
        <ele>1116.23</ele>
        <time>2018-03-06T08:38:39Z</time>
      </trkpt>
      <trkpt lat="42.94078" lon="0.27526">
        <ele>1117.19</ele>
        <time>2018-03-06T08:38:54Z</time>
      </trkpt>
      <trkpt lat="42.94076" lon="0.27505">
        <ele>1118.15</ele>
        <time>2018-03-06T08:39:09Z</time>
      </trkpt>
      <trkpt lat="42.94074" lon="0.27487">
        <ele>1118.63</ele>
        <time>2018-03-06T08:39:23Z</time>
      </trkpt>
      <trkpt lat="42.94071" lon="0.27468">
        <ele>1119.59</ele>
        <time>2018-03-06T08:39:36Z</time>
      </trkpt>
      <trkpt lat="42.94071" lon="0.27448">
        <ele>1120.55</ele>
        <time>2018-03-06T08:39:51Z</time>
      </trkpt>
      <trkpt lat="42.94071" lon="0.27437">
        <ele>1121.52</ele>
        <time>2018-03-06T08:40:00Z</time>
      </trkpt>
      <trkpt lat="42.94073" lon="0.2742">
        <ele>1122</ele>
        <time>2018-03-06T08:40:12Z</time>
      </trkpt>
      <trkpt lat="42.94075" lon="0.27397">
        <ele>1122.48</ele>
        <time>2018-03-06T08:40:28Z</time>
      </trkpt>
      <trkpt lat="42.94077" lon="0.27384">
        <ele>1122.96</ele>
        <time>2018-03-06T08:40:38Z</time>
      </trkpt>
      <trkpt lat="42.9408" lon="0.27363">
        <ele>1123.92</ele>
        <time>2018-03-06T08:40:54Z</time>
      </trkpt>
      <trkpt lat="42.94078" lon="0.27343">
        <ele>1125.84</ele>
        <time>2018-03-06T08:41:11Z</time>
      </trkpt>
      <trkpt lat="42.94077" lon="0.27327">
        <ele>1127.76</ele>
        <time>2018-03-06T08:41:25Z</time>
      </trkpt>
      <trkpt lat="42.94078" lon="0.27322">
        <ele>1129.21</ele>
        <time>2018-03-06T08:41:32Z</time>
      </trkpt>
      <trkpt lat="42.94084" lon="0.27309">
        <ele>1131.13</ele>
        <time>2018-03-06T08:41:46Z</time>
      </trkpt>
      <trkpt lat="42.94088" lon="0.27298">
        <ele>1133.53</ele>
        <time>2018-03-06T08:42:00Z</time>
      </trkpt>
      <trkpt lat="42.94088" lon="0.27289">
        <ele>1135.45</ele>
        <time>2018-03-06T08:42:14Z</time>
      </trkpt>
      <trkpt lat="42.94077" lon="0.27281">
        <ele>1137.38</ele>
        <time>2018-03-06T08:42:30Z</time>
      </trkpt>
      <trkpt lat="42.94068" lon="0.27274">
        <ele>1139.3</ele>
        <time>2018-03-06T08:42:44Z</time>
      </trkpt>
      <trkpt lat="42.94062" lon="0.27277">
        <ele>1141.22</ele>
        <time>2018-03-06T08:42:57Z</time>
      </trkpt>
      <trkpt lat="42.94052" lon="0.27271">
        <ele>1143.63</ele>
        <time>2018-03-06T08:43:13Z</time>
      </trkpt>
      <trkpt lat="42.94045" lon="0.27263">
        <ele>1145.55</ele>
        <time>2018-03-06T08:43:26Z</time>
      </trkpt>
      <trkpt lat="42.94037" lon="0.27255">
        <ele>1147.47</ele>
        <time>2018-03-06T08:43:40Z</time>
      </trkpt>
      <trkpt lat="42.94028" lon="0.27246">
        <ele>1149.39</ele>
        <time>2018-03-06T08:43:55Z</time>
      </trkpt>
      <trkpt lat="42.94023" lon="0.27239">
        <ele>1150.84</ele>
        <time>2018-03-06T08:44:10Z</time>
      </trkpt>
      <trkpt lat="42.94015" lon="0.27232">
        <ele>1152.76</ele>
        <time>2018-03-06T08:44:24Z</time>
      </trkpt>
      <trkpt lat="42.94009" lon="0.27225">
        <ele>1153.72</ele>
        <time>2018-03-06T08:44:36Z</time>
      </trkpt>
      <trkpt lat="42.94006" lon="0.27222">
        <ele>1154.2</ele>
        <time>2018-03-06T08:44:41Z</time>
      </trkpt>
      <trkpt lat="42.93995" lon="0.27206">
        <ele>1154.2</ele>
        <time>2018-03-06T08:44:57Z</time>
      </trkpt>
      <trkpt lat="42.93984" lon="0.27194">
        <ele>1155.16</ele>
        <time>2018-03-06T08:45:12Z</time>
      </trkpt>
      <trkpt lat="42.93982" lon="0.27193">
        <ele>1155.16</ele>
        <time>2018-03-06T08:45:14Z</time>
      </trkpt>
      <trkpt lat="42.93974" lon="0.27183">
        <ele>1157.56</ele>
        <time>2018-03-06T08:45:27Z</time>
      </trkpt>
      <trkpt lat="42.93967" lon="0.27174">
        <ele>1159.97</ele>
        <time>2018-03-06T08:45:41Z</time>
      </trkpt>
      <trkpt lat="42.93961" lon="0.2717">
        <ele>1160.45</ele>
        <time>2018-03-06T08:45:50Z</time>
      </trkpt>
      <trkpt lat="42.93958" lon="0.27167">
        <ele>1160.93</ele>
        <time>2018-03-06T08:45:56Z</time>
      </trkpt>
      <trkpt lat="42.93954" lon="0.27168">
        <ele>1160.45</ele>
        <time>2018-03-06T08:46:09Z</time>
      </trkpt>
      <trkpt lat="42.93953" lon="0.27167">
        <ele>1159.49</ele>
        <time>2018-03-06T08:46:24Z</time>
      </trkpt>
      <trkpt lat="42.93954" lon="0.27166">
        <ele>1159.49</ele>
        <time>2018-03-06T08:46:41Z</time>
      </trkpt>
      <trkpt lat="42.93954" lon="0.27166">
        <ele>1159.49</ele>
        <time>2018-03-06T08:47:16Z</time>
      </trkpt>
      <trkpt lat="42.93956" lon="0.27163">
        <ele>1159.49</ele>
        <time>2018-03-06T08:47:45Z</time>
      </trkpt>
      <trkpt lat="42.93955" lon="0.27163">
        <ele>1159.49</ele>
        <time>2018-03-06T08:48:05Z</time>
      </trkpt>
      <trkpt lat="42.93954" lon="0.27163">
        <ele>1159.49</ele>
        <time>2018-03-06T08:48:20Z</time>
      </trkpt>
      <trkpt lat="42.93957" lon="0.27165">
        <ele>1159.49</ele>
        <time>2018-03-06T08:48:50Z</time>
      </trkpt>
      <trkpt lat="42.93957" lon="0.27168">
        <ele>1160.45</ele>
        <time>2018-03-06T08:49:02Z</time>
      </trkpt>
      <trkpt lat="42.93951" lon="0.27163">
        <ele>1159.97</ele>
        <time>2018-03-06T08:49:14Z</time>
      </trkpt>
      <trkpt lat="42.93942" lon="0.27162">
        <ele>1159.49</ele>
        <time>2018-03-06T08:49:30Z</time>
      </trkpt>
      <trkpt lat="42.93934" lon="0.2716">
        <ele>1159.49</ele>
        <time>2018-03-06T08:49:53Z</time>
      </trkpt>
      <trkpt lat="42.93921" lon="0.27159">
        <ele>1160.45</ele>
        <time>2018-03-06T08:50:08Z</time>
      </trkpt>
      <trkpt lat="42.93908" lon="0.27156">
        <ele>1161.89</ele>
        <time>2018-03-06T08:50:22Z</time>
      </trkpt>
      <trkpt lat="42.93895" lon="0.27148">
        <ele>1163.81</ele>
        <time>2018-03-06T08:50:38Z</time>
      </trkpt>
      <trkpt lat="42.93881" lon="0.27142">
        <ele>1165.26</ele>
        <time>2018-03-06T08:50:53Z</time>
      </trkpt>
      <trkpt lat="42.93869" lon="0.27135">
        <ele>1166.7</ele>
        <time>2018-03-06T08:51:06Z</time>
      </trkpt>
      <trkpt lat="42.93853" lon="0.27129">
        <ele>1168.62</ele>
        <time>2018-03-06T08:51:23Z</time>
      </trkpt>
      <trkpt lat="42.9385" lon="0.27125">
        <ele>1169.1</ele>
        <time>2018-03-06T08:51:27Z</time>
      </trkpt>
      <trkpt lat="42.93833" lon="0.27112">
        <ele>1169.58</ele>
        <time>2018-03-06T08:51:45Z</time>
      </trkpt>
      <trkpt lat="42.93819" lon="0.27094">
        <ele>1170.06</ele>
        <time>2018-03-06T08:52:01Z</time>
      </trkpt>
      <trkpt lat="42.93806" lon="0.27078">
        <ele>1171.02</ele>
        <time>2018-03-06T08:52:18Z</time>
      </trkpt>
      <trkpt lat="42.93796" lon="0.27064">
        <ele>1171.5</ele>
        <time>2018-03-06T08:52:31Z</time>
      </trkpt>
      <trkpt lat="42.93785" lon="0.27046">
        <ele>1171.5</ele>
        <time>2018-03-06T08:52:47Z</time>
      </trkpt>
      <trkpt lat="42.93779" lon="0.27032">
        <ele>1172.47</ele>
        <time>2018-03-06T08:52:59Z</time>
      </trkpt>
      <trkpt lat="42.93776" lon="0.27026">
        <ele>1171.5</ele>
        <time>2018-03-06T08:53:04Z</time>
      </trkpt>
      <trkpt lat="42.9377" lon="0.27014">
        <ele>1170.54</ele>
        <time>2018-03-06T08:53:18Z</time>
      </trkpt>
      <trkpt lat="42.93769" lon="0.27012">
        <ele>1170.06</ele>
        <time>2018-03-06T08:53:20Z</time>
      </trkpt>
      <trkpt lat="42.93763" lon="0.26996">
        <ele>1168.62</ele>
        <time>2018-03-06T08:53:33Z</time>
      </trkpt>
      <trkpt lat="42.93761" lon="0.26991">
        <ele>1168.14</ele>
        <time>2018-03-06T08:53:37Z</time>
      </trkpt>
      <trkpt lat="42.93757" lon="0.26973">
        <ele>1168.14</ele>
        <time>2018-03-06T08:53:52Z</time>
      </trkpt>
      <trkpt lat="42.93747" lon="0.26956">
        <ele>1169.1</ele>
        <time>2018-03-06T08:54:09Z</time>
      </trkpt>
      <trkpt lat="42.93742" lon="0.26944">
        <ele>1170.06</ele>
        <time>2018-03-06T08:54:21Z</time>
      </trkpt>
      <trkpt lat="42.93733" lon="0.26925">
        <ele>1171.02</ele>
        <time>2018-03-06T08:54:38Z</time>
      </trkpt>
      <trkpt lat="42.93726" lon="0.26905">
        <ele>1171.98</ele>
        <time>2018-03-06T08:54:54Z</time>
      </trkpt>
      <trkpt lat="42.9372" lon="0.26882">
        <ele>1172.47</ele>
        <time>2018-03-06T08:55:10Z</time>
      </trkpt>
      <trkpt lat="42.93718" lon="0.26861">
        <ele>1174.39</ele>
        <time>2018-03-06T08:55:25Z</time>
      </trkpt>
      <trkpt lat="42.93713" lon="0.26843">
        <ele>1174.87</ele>
        <time>2018-03-06T08:55:40Z</time>
      </trkpt>
      <trkpt lat="42.93712" lon="0.26825">
        <ele>1175.35</ele>
        <time>2018-03-06T08:55:54Z</time>
      </trkpt>
      <trkpt lat="42.93708" lon="0.26809">
        <ele>1176.31</ele>
        <time>2018-03-06T08:56:08Z</time>
      </trkpt>
      <trkpt lat="42.93707" lon="0.26807">
        <ele>1176.31</ele>
        <time>2018-03-06T08:56:10Z</time>
      </trkpt>
      <trkpt lat="42.93711" lon="0.26787">
        <ele>1177.27</ele>
        <time>2018-03-06T08:56:25Z</time>
      </trkpt>
      <trkpt lat="42.93714" lon="0.26772">
        <ele>1178.23</ele>
        <time>2018-03-06T08:56:37Z</time>
      </trkpt>
      <trkpt lat="42.93719" lon="0.26753">
        <ele>1179.19</ele>
        <time>2018-03-06T08:56:51Z</time>
      </trkpt>
      <trkpt lat="42.93722" lon="0.26735">
        <ele>1180.16</ele>
        <time>2018-03-06T08:57:04Z</time>
      </trkpt>
      <trkpt lat="42.93727" lon="0.26718">
        <ele>1181.12</ele>
        <time>2018-03-06T08:57:17Z</time>
      </trkpt>
      <trkpt lat="42.93733" lon="0.26698">
        <ele>1183.04</ele>
        <time>2018-03-06T08:57:33Z</time>
      </trkpt>
      <trkpt lat="42.9374" lon="0.26684">
        <ele>1184.48</ele>
        <time>2018-03-06T08:57:46Z</time>
      </trkpt>
      <trkpt lat="42.93746" lon="0.26668">
        <ele>1186.4</ele>
        <time>2018-03-06T08:58:01Z</time>
      </trkpt>
      <trkpt lat="42.93755" lon="0.26654">
        <ele>1188.81</ele>
        <time>2018-03-06T08:58:17Z</time>
      </trkpt>
      <trkpt lat="42.93766" lon="0.26647">
        <ele>1191.21</ele>
        <time>2018-03-06T08:58:32Z</time>
      </trkpt>
      <trkpt lat="42.93776" lon="0.2664">
        <ele>1193.13</ele>
        <time>2018-03-06T08:58:44Z</time>
      </trkpt>
      <trkpt lat="42.93779" lon="0.26637">
        <ele>1193.13</ele>
        <time>2018-03-06T08:58:48Z</time>
      </trkpt>
      <trkpt lat="42.93786" lon="0.26632">
        <ele>1194.58</ele>
        <time>2018-03-06T08:59:01Z</time>
      </trkpt>
      <trkpt lat="42.93795" lon="0.26622">
        <ele>1196.5</ele>
        <time>2018-03-06T08:59:14Z</time>
      </trkpt>
      <trkpt lat="42.93799" lon="0.2661">
        <ele>1198.9</ele>
        <time>2018-03-06T08:59:27Z</time>
      </trkpt>
      <trkpt lat="42.93799" lon="0.26607">
        <ele>1198.9</ele>
        <time>2018-03-06T08:59:30Z</time>
      </trkpt>
      <trkpt lat="42.93802" lon="0.26599">
        <ele>1199.86</ele>
        <time>2018-03-06T08:59:39Z</time>
      </trkpt>
      <trkpt lat="42.93803" lon="0.26597">
        <ele>1200.34</ele>
        <time>2018-03-06T08:59:41Z</time>
      </trkpt>
      <trkpt lat="42.93806" lon="0.26586">
        <ele>1201.3</ele>
        <time>2018-03-06T08:59:54Z</time>
      </trkpt>
      <trkpt lat="42.93808" lon="0.26573">
        <ele>1202.75</ele>
        <time>2018-03-06T09:00:06Z</time>
      </trkpt>
      <trkpt lat="42.93809" lon="0.26556">
        <ele>1203.71</ele>
        <time>2018-03-06T09:00:20Z</time>
      </trkpt>
      <trkpt lat="42.93811" lon="0.26538">
        <ele>1204.67</ele>
        <time>2018-03-06T09:00:34Z</time>
      </trkpt>
      <trkpt lat="42.93811" lon="0.26528">
        <ele>1205.63</ele>
        <time>2018-03-06T09:00:42Z</time>
      </trkpt>
      <trkpt lat="42.93813" lon="0.26513">
        <ele>1206.11</ele>
        <time>2018-03-06T09:00:53Z</time>
      </trkpt>
      <trkpt lat="42.93812" lon="0.265">
        <ele>1207.55</ele>
        <time>2018-03-06T09:01:04Z</time>
      </trkpt>
      <trkpt lat="42.93815" lon="0.26489">
        <ele>1209</ele>
        <time>2018-03-06T09:01:15Z</time>
      </trkpt>
      <trkpt lat="42.93817" lon="0.26486">
        <ele>1209.48</ele>
        <time>2018-03-06T09:01:22Z</time>
      </trkpt>
      <trkpt lat="42.93821" lon="0.26471">
        <ele>1209.96</ele>
        <time>2018-03-06T09:01:34Z</time>
      </trkpt>
      <trkpt lat="42.93823" lon="0.26454">
        <ele>1210.92</ele>
        <time>2018-03-06T09:01:47Z</time>
      </trkpt>
      <trkpt lat="42.93825" lon="0.26438">
        <ele>1211.88</ele>
        <time>2018-03-06T09:01:59Z</time>
      </trkpt>
      <trkpt lat="42.93826" lon="0.26429">
        <ele>1212.84</ele>
        <time>2018-03-06T09:02:06Z</time>
      </trkpt>
      <trkpt lat="42.93827" lon="0.26416">
        <ele>1213.32</ele>
        <time>2018-03-06T09:02:17Z</time>
      </trkpt>
      <trkpt lat="42.93824" lon="0.26397">
        <ele>1214.76</ele>
        <time>2018-03-06T09:02:33Z</time>
      </trkpt>
      <trkpt lat="42.93823" lon="0.2638">
        <ele>1215.72</ele>
        <time>2018-03-06T09:02:45Z</time>
      </trkpt>
      <trkpt lat="42.93825" lon="0.26365">
        <ele>1217.17</ele>
        <time>2018-03-06T09:02:59Z</time>
      </trkpt>
      <trkpt lat="42.93825" lon="0.26348">
        <ele>1219.09</ele>
        <time>2018-03-06T09:03:13Z</time>
      </trkpt>
      <trkpt lat="42.93823" lon="0.26329">
        <ele>1221.01</ele>
        <time>2018-03-06T09:03:29Z</time>
      </trkpt>
      <trkpt lat="42.93816" lon="0.2631">
        <ele>1221.49</ele>
        <time>2018-03-06T09:03:41Z</time>
      </trkpt>
      <trkpt lat="42.93817" lon="0.26294">
        <ele>1223.42</ele>
        <time>2018-03-06T09:03:53Z</time>
      </trkpt>
      <trkpt lat="42.93819" lon="0.26285">
        <ele>1223.9</ele>
        <time>2018-03-06T09:04:01Z</time>
      </trkpt>
      <trkpt lat="42.9382" lon="0.26279">
        <ele>1224.38</ele>
        <time>2018-03-06T09:04:06Z</time>
      </trkpt>
      <trkpt lat="42.93823" lon="0.26271">
        <ele>1225.34</ele>
        <time>2018-03-06T09:04:21Z</time>
      </trkpt>
      <trkpt lat="42.93823" lon="0.26273">
        <ele>1225.82</ele>
        <time>2018-03-06T09:04:26Z</time>
      </trkpt>
      <trkpt lat="42.93824" lon="0.26262">
        <ele>1224.86</ele>
        <time>2018-03-06T09:04:36Z</time>
      </trkpt>
      <trkpt lat="42.93828" lon="0.26252">
        <ele>1225.34</ele>
        <time>2018-03-06T09:04:48Z</time>
      </trkpt>
      <trkpt lat="42.9383" lon="0.26248">
        <ele>1226.3</ele>
        <time>2018-03-06T09:04:52Z</time>
      </trkpt>
      <trkpt lat="42.93832" lon="0.26231">
        <ele>1228.7</ele>
        <time>2018-03-06T09:05:07Z</time>
      </trkpt>
      <trkpt lat="42.93836" lon="0.26224">
        <ele>1229.66</ele>
        <time>2018-03-06T09:05:12Z</time>
      </trkpt>
      <trkpt lat="42.93846" lon="0.26213">
        <ele>1231.59</ele>
        <time>2018-03-06T09:05:26Z</time>
      </trkpt>
      <trkpt lat="42.93851" lon="0.26203">
        <ele>1232.55</ele>
        <time>2018-03-06T09:05:36Z</time>
      </trkpt>
      <trkpt lat="42.93859" lon="0.26195">
        <ele>1234.47</ele>
        <time>2018-03-06T09:05:49Z</time>
      </trkpt>
      <trkpt lat="42.93865" lon="0.26179">
        <ele>1235.91</ele>
        <time>2018-03-06T09:06:03Z</time>
      </trkpt>
      <trkpt lat="42.93872" lon="0.26165">
        <ele>1236.87</ele>
        <time>2018-03-06T09:06:16Z</time>
      </trkpt>
      <trkpt lat="42.93879" lon="0.26153">
        <ele>1238.8</ele>
        <time>2018-03-06T09:06:29Z</time>
      </trkpt>
      <trkpt lat="42.93886" lon="0.26139">
        <ele>1240.24</ele>
        <time>2018-03-06T09:06:43Z</time>
      </trkpt>
      <trkpt lat="42.93886" lon="0.26124">
        <ele>1242.16</ele>
        <time>2018-03-06T09:06:59Z</time>
      </trkpt>
      <trkpt lat="42.93885" lon="0.26125">
        <ele>1241.68</ele>
        <time>2018-03-06T09:07:11Z</time>
      </trkpt>
      <trkpt lat="42.93884" lon="0.26129">
        <ele>1241.2</ele>
        <time>2018-03-06T09:07:46Z</time>
      </trkpt>
      <trkpt lat="42.93884" lon="0.2613">
        <ele>1241.68</ele>
        <time>2018-03-06T09:08:20Z</time>
      </trkpt>
      <trkpt lat="42.93883" lon="0.26124">
        <ele>1242.16</ele>
        <time>2018-03-06T09:08:51Z</time>
      </trkpt>
      <trkpt lat="42.93883" lon="0.26125">
        <ele>1242.16</ele>
        <time>2018-03-06T09:09:26Z</time>
      </trkpt>
      <trkpt lat="42.93883" lon="0.26121">
        <ele>1242.16</ele>
        <time>2018-03-06T09:10:05Z</time>
      </trkpt>
      <trkpt lat="42.93884" lon="0.26122">
        <ele>1241.68</ele>
        <time>2018-03-06T09:10:27Z</time>
      </trkpt>
      <trkpt lat="42.93885" lon="0.26124">
        <ele>1241.68</ele>
        <time>2018-03-06T09:10:44Z</time>
      </trkpt>
      <trkpt lat="42.93884" lon="0.26126">
        <ele>1243.6</ele>
        <time>2018-03-06T09:11:07Z</time>
      </trkpt>
      <trkpt lat="42.93884" lon="0.26126">
        <ele>1242.16</ele>
        <time>2018-03-06T09:11:08Z</time>
      </trkpt>
      <trkpt lat="42.93887" lon="0.26125">
        <ele>1242.16</ele>
        <time>2018-03-06T09:11:20Z</time>
      </trkpt>
      <trkpt lat="42.93887" lon="0.26123">
        <ele>1241.68</ele>
        <time>2018-03-06T09:11:34Z</time>
      </trkpt>
      <trkpt lat="42.93891" lon="0.26119">
        <ele>1241.68</ele>
        <time>2018-03-06T09:11:52Z</time>
      </trkpt>
      <trkpt lat="42.9389" lon="0.26114">
        <ele>1241.68</ele>
        <time>2018-03-06T09:12:11Z</time>
      </trkpt>
      <trkpt lat="42.9389" lon="0.26114">
        <ele>1241.2</ele>
        <time>2018-03-06T09:12:30Z</time>
      </trkpt>
      <trkpt lat="42.93891" lon="0.26111">
        <ele>1244.08</ele>
        <time>2018-03-06T09:12:47Z</time>
      </trkpt>
      <trkpt lat="42.9389" lon="0.26111">
        <ele>1241.2</ele>
        <time>2018-03-06T09:12:48Z</time>
      </trkpt>
      <trkpt lat="42.93891" lon="0.26101">
        <ele>1240.72</ele>
        <time>2018-03-06T09:13:02Z</time>
      </trkpt>
      <trkpt lat="42.93892" lon="0.2608">
        <ele>1240.24</ele>
        <time>2018-03-06T09:13:18Z</time>
      </trkpt>
      <trkpt lat="42.93891" lon="0.26064">
        <ele>1239.76</ele>
        <time>2018-03-06T09:13:30Z</time>
      </trkpt>
      <trkpt lat="42.9389" lon="0.26043">
        <ele>1239.76</ele>
        <time>2018-03-06T09:13:45Z</time>
      </trkpt>
      <trkpt lat="42.93892" lon="0.26026">
        <ele>1240.72</ele>
        <time>2018-03-06T09:13:57Z</time>
      </trkpt>
      <trkpt lat="42.93893" lon="0.26011">
        <ele>1241.68</ele>
        <time>2018-03-06T09:14:10Z</time>
      </trkpt>
      <trkpt lat="42.93894" lon="0.25997">
        <ele>1242.64</ele>
        <time>2018-03-06T09:14:21Z</time>
      </trkpt>
      <trkpt lat="42.93892" lon="0.25989">
        <ele>1242.64</ele>
        <time>2018-03-06T09:14:28Z</time>
      </trkpt>
      <trkpt lat="42.93892" lon="0.25987">
        <ele>1242.16</ele>
        <time>2018-03-06T09:14:30Z</time>
      </trkpt>
      <trkpt lat="42.93888" lon="0.25972">
        <ele>1243.12</ele>
        <time>2018-03-06T09:14:43Z</time>
      </trkpt>
      <trkpt lat="42.93887" lon="0.25967">
        <ele>1241.68</ele>
        <time>2018-03-06T09:14:46Z</time>
      </trkpt>
      <trkpt lat="42.93887" lon="0.25965">
        <ele>1242.16</ele>
        <time>2018-03-06T09:14:48Z</time>
      </trkpt>
      <trkpt lat="42.93878" lon="0.25935">
        <ele>1241.68</ele>
        <time>2018-03-06T09:15:10Z</time>
      </trkpt>
      <trkpt lat="42.93873" lon="0.25914">
        <ele>1241.68</ele>
        <time>2018-03-06T09:15:29Z</time>
      </trkpt>
      <trkpt lat="42.9386" lon="0.25888">
        <ele>1241.68</ele>
        <time>2018-03-06T09:15:51Z</time>
      </trkpt>
      <trkpt lat="42.93855" lon="0.25867">
        <ele>1242.16</ele>
        <time>2018-03-06T09:16:06Z</time>
      </trkpt>
      <trkpt lat="42.93856" lon="0.25846">
        <ele>1241.68</ele>
        <time>2018-03-06T09:16:21Z</time>
      </trkpt>
      <trkpt lat="42.93858" lon="0.25824">
        <ele>1240.72</ele>
        <time>2018-03-06T09:16:36Z</time>
      </trkpt>
      <trkpt lat="42.93861" lon="0.25804">
        <ele>1240.24</ele>
        <time>2018-03-06T09:16:50Z</time>
      </trkpt>
      <trkpt lat="42.93865" lon="0.25789">
        <ele>1240.24</ele>
        <time>2018-03-06T09:17:02Z</time>
      </trkpt>
      <trkpt lat="42.93866" lon="0.25785">
        <ele>1241.2</ele>
        <time>2018-03-06T09:17:14Z</time>
      </trkpt>
      <trkpt lat="42.93867" lon="0.25763">
        <ele>1241.2</ele>
        <time>2018-03-06T09:17:29Z</time>
      </trkpt>
      <trkpt lat="42.9387" lon="0.25743">
        <ele>1241.68</ele>
        <time>2018-03-06T09:17:43Z</time>
      </trkpt>
      <trkpt lat="42.93876" lon="0.25727">
        <ele>1242.16</ele>
        <time>2018-03-06T09:17:56Z</time>
      </trkpt>
      <trkpt lat="42.93878" lon="0.25728">
        <ele>1242.64</ele>
        <time>2018-03-06T09:17:58Z</time>
      </trkpt>
      <trkpt lat="42.93893" lon="0.25732">
        <ele>1243.12</ele>
        <time>2018-03-06T09:18:13Z</time>
      </trkpt>
      <trkpt lat="42.93907" lon="0.25739">
        <ele>1244.08</ele>
        <time>2018-03-06T09:18:27Z</time>
      </trkpt>
      <trkpt lat="42.93919" lon="0.25748">
        <ele>1245.53</ele>
        <time>2018-03-06T09:18:41Z</time>
      </trkpt>
      <trkpt lat="42.93929" lon="0.25752">
        <ele>1246.01</ele>
        <time>2018-03-06T09:18:54Z</time>
      </trkpt>
      <trkpt lat="42.93938" lon="0.25752">
        <ele>1246.97</ele>
        <time>2018-03-06T09:19:07Z</time>
      </trkpt>
      <trkpt lat="42.93944" lon="0.2575">
        <ele>1247.45</ele>
        <time>2018-03-06T09:19:13Z</time>
      </trkpt>
      <trkpt lat="42.93947" lon="0.2575">
        <ele>1247.93</ele>
        <time>2018-03-06T09:19:17Z</time>
      </trkpt>
      <trkpt lat="42.93953" lon="0.25757">
        <ele>1248.41</ele>
        <time>2018-03-06T09:19:24Z</time>
      </trkpt>
      <trkpt lat="42.93967" lon="0.25763">
        <ele>1249.85</ele>
        <time>2018-03-06T09:19:39Z</time>
      </trkpt>
      <trkpt lat="42.93978" lon="0.25764">
        <ele>1251.29</ele>
        <time>2018-03-06T09:19:54Z</time>
      </trkpt>
      <trkpt lat="42.93985" lon="0.25769">
        <ele>1251.29</ele>
        <time>2018-03-06T09:20:01Z</time>
      </trkpt>
      <trkpt lat="42.93989" lon="0.25769">
        <ele>1251.77</ele>
        <time>2018-03-06T09:20:06Z</time>
      </trkpt>
      <trkpt lat="42.94001" lon="0.25774">
        <ele>1253.22</ele>
        <time>2018-03-06T09:20:19Z</time>
      </trkpt>
      <trkpt lat="42.94" lon="0.25779">
        <ele>1253.22</ele>
        <time>2018-03-06T09:20:33Z</time>
      </trkpt>
      <trkpt lat="42.94005" lon="0.25778">
        <ele>1253.7</ele>
        <time>2018-03-06T09:20:47Z</time>
      </trkpt>
      <trkpt lat="42.94017" lon="0.25779">
        <ele>1254.66</ele>
        <time>2018-03-06T09:21:02Z</time>
      </trkpt>
      <trkpt lat="42.94021" lon="0.25777">
        <ele>1255.14</ele>
        <time>2018-03-06T09:21:07Z</time>
      </trkpt>
      <trkpt lat="42.94034" lon="0.25776">
        <ele>1255.14</ele>
        <time>2018-03-06T09:21:21Z</time>
      </trkpt>
      <trkpt lat="42.94039" lon="0.25767">
        <ele>1256.58</ele>
        <time>2018-03-06T09:21:31Z</time>
      </trkpt>
      <trkpt lat="42.94042" lon="0.25756">
        <ele>1258.5</ele>
        <time>2018-03-06T09:21:44Z</time>
      </trkpt>
      <trkpt lat="42.94048" lon="0.25747">
        <ele>1260.43</ele>
        <time>2018-03-06T09:21:56Z</time>
      </trkpt>
      <trkpt lat="42.94052" lon="0.25734">
        <ele>1262.83</ele>
        <time>2018-03-06T09:22:13Z</time>
      </trkpt>
      <trkpt lat="42.94059" lon="0.25725">
        <ele>1264.75</ele>
        <time>2018-03-06T09:22:28Z</time>
      </trkpt>
      <trkpt lat="42.94065" lon="0.25713">
        <ele>1265.71</ele>
        <time>2018-03-06T09:22:41Z</time>
      </trkpt>
      <trkpt lat="42.94072" lon="0.25702">
        <ele>1266.67</ele>
        <time>2018-03-06T09:22:54Z</time>
      </trkpt>
      <trkpt lat="42.94081" lon="0.25694">
        <ele>1268.12</ele>
        <time>2018-03-06T09:23:08Z</time>
      </trkpt>
      <trkpt lat="42.94088" lon="0.25685">
        <ele>1270.04</ele>
        <time>2018-03-06T09:23:21Z</time>
      </trkpt>
      <trkpt lat="42.94098" lon="0.2568">
        <ele>1271.48</ele>
        <time>2018-03-06T09:23:35Z</time>
      </trkpt>
      <trkpt lat="42.94105" lon="0.25675">
        <ele>1272.44</ele>
        <time>2018-03-06T09:23:46Z</time>
      </trkpt>
      <trkpt lat="42.94107" lon="0.25672">
        <ele>1272.44</ele>
        <time>2018-03-06T09:23:50Z</time>
      </trkpt>
      <trkpt lat="42.94109" lon="0.25669">
        <ele>1272.92</ele>
        <time>2018-03-06T09:23:53Z</time>
      </trkpt>
      <trkpt lat="42.94119" lon="0.25663">
        <ele>1273.88</ele>
        <time>2018-03-06T09:24:06Z</time>
      </trkpt>
      <trkpt lat="42.94128" lon="0.2566">
        <ele>1275.81</ele>
        <time>2018-03-06T09:24:20Z</time>
      </trkpt>
      <trkpt lat="42.94129" lon="0.25659">
        <ele>1275.81</ele>
        <time>2018-03-06T09:24:21Z</time>
      </trkpt>
      <trkpt lat="42.94135" lon="0.25651">
        <ele>1278.21</ele>
        <time>2018-03-06T09:24:34Z</time>
      </trkpt>
      <trkpt lat="42.94142" lon="0.25647">
        <ele>1280.61</ele>
        <time>2018-03-06T09:24:47Z</time>
      </trkpt>
      <trkpt lat="42.94148" lon="0.25639">
        <ele>1282.54</ele>
        <time>2018-03-06T09:25:01Z</time>
      </trkpt>
      <trkpt lat="42.94151" lon="0.25627">
        <ele>1283.98</ele>
        <time>2018-03-06T09:25:15Z</time>
      </trkpt>
      <trkpt lat="42.94151" lon="0.25624">
        <ele>1283.98</ele>
        <time>2018-03-06T09:25:17Z</time>
      </trkpt>
      <trkpt lat="42.94149" lon="0.25621">
        <ele>1283.98</ele>
        <time>2018-03-06T09:25:29Z</time>
      </trkpt>
      <trkpt lat="42.94148" lon="0.25621">
        <ele>1283.5</ele>
        <time>2018-03-06T09:25:40Z</time>
      </trkpt>
      <trkpt lat="42.9415" lon="0.25622">
        <ele>1283.02</ele>
        <time>2018-03-06T09:26:13Z</time>
      </trkpt>
      <trkpt lat="42.9415" lon="0.25621">
        <ele>1282.06</ele>
        <time>2018-03-06T09:27:01Z</time>
      </trkpt>
      <trkpt lat="42.9415" lon="0.25621">
        <ele>1284.94</ele>
        <time>2018-03-06T09:27:14Z</time>
      </trkpt>
      <trkpt lat="42.9415" lon="0.25622">
        <ele>1282.54</ele>
        <time>2018-03-06T09:27:18Z</time>
      </trkpt>
      <trkpt lat="42.94149" lon="0.25623">
        <ele>1283.02</ele>
        <time>2018-03-06T09:27:34Z</time>
      </trkpt>
      <trkpt lat="42.94149" lon="0.25622">
        <ele>1282.54</ele>
        <time>2018-03-06T09:27:55Z</time>
      </trkpt>
      <trkpt lat="42.9415" lon="0.25618">
        <ele>1282.06</ele>
        <time>2018-03-06T09:28:12Z</time>
      </trkpt>
      <trkpt lat="42.9415" lon="0.2562">
        <ele>1279.17</ele>
        <time>2018-03-06T09:28:23Z</time>
      </trkpt>
      <trkpt lat="42.9415" lon="0.2562">
        <ele>1285.42</ele>
        <time>2018-03-06T09:28:25Z</time>
      </trkpt>
      <trkpt lat="42.94151" lon="0.25621">
        <ele>1283.02</ele>
        <time>2018-03-06T09:28:26Z</time>
      </trkpt>
      <trkpt lat="42.94152" lon="0.25621">
        <ele>1282.54</ele>
        <time>2018-03-06T09:28:41Z</time>
      </trkpt>
      <trkpt lat="42.94151" lon="0.2561">
        <ele>1283.5</ele>
        <time>2018-03-06T09:28:54Z</time>
      </trkpt>
      <trkpt lat="42.94151" lon="0.25606">
        <ele>1284.46</ele>
        <time>2018-03-06T09:28:58Z</time>
      </trkpt>
      <trkpt lat="42.94149" lon="0.25598">
        <ele>1285.42</ele>
        <time>2018-03-06T09:29:11Z</time>
      </trkpt>
      <trkpt lat="42.94147" lon="0.25589">
        <ele>1286.38</ele>
        <time>2018-03-06T09:29:24Z</time>
      </trkpt>
      <trkpt lat="42.94145" lon="0.25577">
        <ele>1287.82</ele>
        <time>2018-03-06T09:29:38Z</time>
      </trkpt>
      <trkpt lat="42.94142" lon="0.25565">
        <ele>1290.23</ele>
        <time>2018-03-06T09:29:52Z</time>
      </trkpt>
      <trkpt lat="42.94141" lon="0.25553">
        <ele>1291.67</ele>
        <time>2018-03-06T09:30:07Z</time>
      </trkpt>
      <trkpt lat="42.94136" lon="0.25539">
        <ele>1293.11</ele>
        <time>2018-03-06T09:30:22Z</time>
      </trkpt>
      <trkpt lat="42.94133" lon="0.25527">
        <ele>1295.03</ele>
        <time>2018-03-06T09:30:35Z</time>
      </trkpt>
      <trkpt lat="42.94129" lon="0.25513">
        <ele>1296.48</ele>
        <time>2018-03-06T09:30:51Z</time>
      </trkpt>
      <trkpt lat="42.94126" lon="0.25506">
        <ele>1297.92</ele>
        <time>2018-03-06T09:31:04Z</time>
      </trkpt>
      <trkpt lat="42.94119" lon="0.25494">
        <ele>1298.88</ele>
        <time>2018-03-06T09:31:19Z</time>
      </trkpt>
      <trkpt lat="42.94115" lon="0.25482">
        <ele>1300.8</ele>
        <time>2018-03-06T09:31:32Z</time>
      </trkpt>
      <trkpt lat="42.94107" lon="0.25472">
        <ele>1302.24</ele>
        <time>2018-03-06T09:31:45Z</time>
      </trkpt>
      <trkpt lat="42.94098" lon="0.2546">
        <ele>1303.69</ele>
        <time>2018-03-06T09:31:59Z</time>
      </trkpt>
      <trkpt lat="42.94092" lon="0.25447">
        <ele>1304.65</ele>
        <time>2018-03-06T09:32:12Z</time>
      </trkpt>
      <trkpt lat="42.94085" lon="0.25437">
        <ele>1307.05</ele>
        <time>2018-03-06T09:32:27Z</time>
      </trkpt>
      <trkpt lat="42.9408" lon="0.25424">
        <ele>1309.45</ele>
        <time>2018-03-06T09:32:40Z</time>
      </trkpt>
      <trkpt lat="42.94074" lon="0.25419">
        <ele>1309.93</ele>
        <time>2018-03-06T09:32:53Z</time>
      </trkpt>
      <trkpt lat="42.94067" lon="0.25409">
        <ele>1311.38</ele>
        <time>2018-03-06T09:33:09Z</time>
      </trkpt>
      <trkpt lat="42.9406" lon="0.254">
        <ele>1312.82</ele>
        <time>2018-03-06T09:33:21Z</time>
      </trkpt>
      <trkpt lat="42.94055" lon="0.25389">
        <ele>1314.74</ele>
        <time>2018-03-06T09:33:34Z</time>
      </trkpt>
      <trkpt lat="42.94053" lon="0.25382">
        <ele>1316.18</ele>
        <time>2018-03-06T09:33:48Z</time>
      </trkpt>
      <trkpt lat="42.94051" lon="0.25373">
        <ele>1318.1</ele>
        <time>2018-03-06T09:34:02Z</time>
      </trkpt>
      <trkpt lat="42.94048" lon="0.25366">
        <ele>1318.1</ele>
        <time>2018-03-06T09:34:19Z</time>
      </trkpt>
      <trkpt lat="42.94047" lon="0.25364">
        <ele>1318.59</ele>
        <time>2018-03-06T09:34:22Z</time>
      </trkpt>
      <trkpt lat="42.94039" lon="0.25352">
        <ele>1317.14</ele>
        <time>2018-03-06T09:34:37Z</time>
      </trkpt>
      <trkpt lat="42.94034" lon="0.25342">
        <ele>1316.18</ele>
        <time>2018-03-06T09:34:51Z</time>
      </trkpt>
      <trkpt lat="42.94027" lon="0.25327">
        <ele>1315.7</ele>
        <time>2018-03-06T09:35:06Z</time>
      </trkpt>
      <trkpt lat="42.94021" lon="0.25313">
        <ele>1315.7</ele>
        <time>2018-03-06T09:35:21Z</time>
      </trkpt>
      <trkpt lat="42.94021" lon="0.25312">
        <ele>1316.18</ele>
        <time>2018-03-06T09:35:22Z</time>
      </trkpt>
      <trkpt lat="42.94016" lon="0.25307">
        <ele>1316.18</ele>
        <time>2018-03-06T09:35:30Z</time>
      </trkpt>
      <trkpt lat="42.94009" lon="0.25294">
        <ele>1319.07</ele>
        <time>2018-03-06T09:35:45Z</time>
      </trkpt>
      <trkpt lat="42.94004" lon="0.25282">
        <ele>1321.95</ele>
        <time>2018-03-06T09:35:58Z</time>
      </trkpt>
      <trkpt lat="42.93999" lon="0.25272">
        <ele>1323.87</ele>
        <time>2018-03-06T09:36:11Z</time>
      </trkpt>
      <trkpt lat="42.93996" lon="0.25261">
        <ele>1325.31</ele>
        <time>2018-03-06T09:36:25Z</time>
      </trkpt>
      <trkpt lat="42.93993" lon="0.2525">
        <ele>1327.24</ele>
        <time>2018-03-06T09:36:39Z</time>
      </trkpt>
      <trkpt lat="42.9399" lon="0.25237">
        <ele>1329.16</ele>
        <time>2018-03-06T09:36:54Z</time>
      </trkpt>
      <trkpt lat="42.93984" lon="0.25226">
        <ele>1330.12</ele>
        <time>2018-03-06T09:37:07Z</time>
      </trkpt>
      <trkpt lat="42.93977" lon="0.25213">
        <ele>1331.08</ele>
        <time>2018-03-06T09:37:21Z</time>
      </trkpt>
      <trkpt lat="42.93974" lon="0.25206">
        <ele>1331.08</ele>
        <time>2018-03-06T09:37:32Z</time>
      </trkpt>
      <trkpt lat="42.93973" lon="0.25203">
        <ele>1331.56</ele>
        <time>2018-03-06T09:37:45Z</time>
      </trkpt>
      <trkpt lat="42.93974" lon="0.25204">
        <ele>1331.08</ele>
        <time>2018-03-06T09:38:09Z</time>
      </trkpt>
      <trkpt lat="42.93973" lon="0.25203">
        <ele>1331.08</ele>
        <time>2018-03-06T09:38:24Z</time>
      </trkpt>
      <trkpt lat="42.93967" lon="0.25195">
        <ele>1331.08</ele>
        <time>2018-03-06T09:38:33Z</time>
      </trkpt>
      <trkpt lat="42.93958" lon="0.25193">
        <ele>1331.56</ele>
        <time>2018-03-06T09:38:44Z</time>
      </trkpt>
      <trkpt lat="42.93948" lon="0.25185">
        <ele>1333.01</ele>
        <time>2018-03-06T09:38:58Z</time>
      </trkpt>
      <trkpt lat="42.93939" lon="0.25175">
        <ele>1334.93</ele>
        <time>2018-03-06T09:39:13Z</time>
      </trkpt>
      <trkpt lat="42.93932" lon="0.25164">
        <ele>1336.37</ele>
        <time>2018-03-06T09:39:25Z</time>
      </trkpt>
      <trkpt lat="42.93926" lon="0.25154">
        <ele>1336.85</ele>
        <time>2018-03-06T09:39:38Z</time>
      </trkpt>
      <trkpt lat="42.93917" lon="0.25143">
        <ele>1337.33</ele>
        <time>2018-03-06T09:39:53Z</time>
      </trkpt>
      <trkpt lat="42.93906" lon="0.25136">
        <ele>1337.33</ele>
        <time>2018-03-06T09:40:06Z</time>
      </trkpt>
      <trkpt lat="42.93895" lon="0.25132">
        <ele>1336.85</ele>
        <time>2018-03-06T09:40:18Z</time>
      </trkpt>
      <trkpt lat="42.93892" lon="0.25125">
        <ele>1337.33</ele>
        <time>2018-03-06T09:40:25Z</time>
      </trkpt>
      <trkpt lat="42.93885" lon="0.25121">
        <ele>1337.81</ele>
        <time>2018-03-06T09:40:33Z</time>
      </trkpt>
      <trkpt lat="42.93881" lon="0.2511">
        <ele>1338.29</ele>
        <time>2018-03-06T09:40:42Z</time>
      </trkpt>
      <trkpt lat="42.93871" lon="0.25101">
        <ele>1339.73</ele>
        <time>2018-03-06T09:40:56Z</time>
      </trkpt>
      <trkpt lat="42.93863" lon="0.25092">
        <ele>1339.73</ele>
        <time>2018-03-06T09:41:08Z</time>
      </trkpt>
      <trkpt lat="42.93859" lon="0.2509">
        <ele>1340.22</ele>
        <time>2018-03-06T09:41:12Z</time>
      </trkpt>
      <trkpt lat="42.93848" lon="0.25089">
        <ele>1340.7</ele>
        <time>2018-03-06T09:41:27Z</time>
      </trkpt>
      <trkpt lat="42.93846" lon="0.25087">
        <ele>1341.18</ele>
        <time>2018-03-06T09:41:30Z</time>
      </trkpt>
      <trkpt lat="42.93841" lon="0.25081">
        <ele>1340.7</ele>
        <time>2018-03-06T09:41:45Z</time>
      </trkpt>
      <trkpt lat="42.93841" lon="0.25082">
        <ele>1340.7</ele>
        <time>2018-03-06T09:42:10Z</time>
      </trkpt>
      <trkpt lat="42.9384" lon="0.2508">
        <ele>1340.7</ele>
        <time>2018-03-06T09:42:21Z</time>
      </trkpt>
      <trkpt lat="42.9384" lon="0.25078">
        <ele>1342.14</ele>
        <time>2018-03-06T09:42:23Z</time>
      </trkpt>
      <trkpt lat="42.93841" lon="0.25074">
        <ele>1340.7</ele>
        <time>2018-03-06T09:42:25Z</time>
      </trkpt>
      <trkpt lat="42.93838" lon="0.25073">
        <ele>1339.73</ele>
        <time>2018-03-06T09:42:29Z</time>
      </trkpt>
      <trkpt lat="42.93833" lon="0.25067">
        <ele>1340.7</ele>
        <time>2018-03-06T09:42:38Z</time>
      </trkpt>
      <trkpt lat="42.93823" lon="0.25057">
        <ele>1342.62</ele>
        <time>2018-03-06T09:42:52Z</time>
      </trkpt>
      <trkpt lat="42.93816" lon="0.2505">
        <ele>1345.02</ele>
        <time>2018-03-06T09:43:06Z</time>
      </trkpt>
      <trkpt lat="42.93808" lon="0.25043">
        <ele>1347.43</ele>
        <time>2018-03-06T09:43:21Z</time>
      </trkpt>
      <trkpt lat="42.93801" lon="0.25033">
        <ele>1349.83</ele>
        <time>2018-03-06T09:43:37Z</time>
      </trkpt>
      <trkpt lat="42.93794" lon="0.25026">
        <ele>1351.75</ele>
        <time>2018-03-06T09:43:51Z</time>
      </trkpt>
      <trkpt lat="42.9379" lon="0.25026">
        <ele>1353.19</ele>
        <time>2018-03-06T09:44:04Z</time>
      </trkpt>
      <trkpt lat="42.93791" lon="0.25024">
        <ele>1352.71</ele>
        <time>2018-03-06T09:44:19Z</time>
      </trkpt>
      <trkpt lat="42.93791" lon="0.25024">
        <ele>1352.71</ele>
        <time>2018-03-06T09:44:53Z</time>
      </trkpt>
      <trkpt lat="42.93789" lon="0.25022">
        <ele>1353.19</ele>
        <time>2018-03-06T09:45:13Z</time>
      </trkpt>
      <trkpt lat="42.93791" lon="0.25024">
        <ele>1352.23</ele>
        <time>2018-03-06T09:45:31Z</time>
      </trkpt>
      <trkpt lat="42.93791" lon="0.25023">
        <ele>1352.71</ele>
        <time>2018-03-06T09:45:55Z</time>
      </trkpt>
      <trkpt lat="42.93788" lon="0.25025">
        <ele>1353.67</ele>
        <time>2018-03-06T09:46:04Z</time>
      </trkpt>
      <trkpt lat="42.93787" lon="0.25021">
        <ele>1353.67</ele>
        <time>2018-03-06T09:46:20Z</time>
      </trkpt>
      <trkpt lat="42.93782" lon="0.25017">
        <ele>1354.63</ele>
        <time>2018-03-06T09:46:34Z</time>
      </trkpt>
      <trkpt lat="42.93781" lon="0.25016">
        <ele>1354.63</ele>
        <time>2018-03-06T09:46:54Z</time>
      </trkpt>
      <trkpt lat="42.93779" lon="0.25014">
        <ele>1354.63</ele>
        <time>2018-03-06T09:47:12Z</time>
      </trkpt>
      <trkpt lat="42.93778" lon="0.25012">
        <ele>1354.63</ele>
        <time>2018-03-06T09:47:36Z</time>
      </trkpt>
      <trkpt lat="42.93771" lon="0.25004">
        <ele>1356.08</ele>
        <time>2018-03-06T09:47:49Z</time>
      </trkpt>
      <trkpt lat="42.93761" lon="0.24989">
        <ele>1357.04</ele>
        <time>2018-03-06T09:48:06Z</time>
      </trkpt>
      <trkpt lat="42.9375" lon="0.24978">
        <ele>1358.96</ele>
        <time>2018-03-06T09:48:21Z</time>
      </trkpt>
      <trkpt lat="42.9374" lon="0.24974">
        <ele>1359.92</ele>
        <time>2018-03-06T09:48:35Z</time>
      </trkpt>
      <trkpt lat="42.9373" lon="0.2497">
        <ele>1362.33</ele>
        <time>2018-03-06T09:48:50Z</time>
      </trkpt>
      <trkpt lat="42.9372" lon="0.24963">
        <ele>1364.25</ele>
        <time>2018-03-06T09:49:06Z</time>
      </trkpt>
      <trkpt lat="42.93707" lon="0.24956">
        <ele>1365.69</ele>
        <time>2018-03-06T09:49:23Z</time>
      </trkpt>
      <trkpt lat="42.93704" lon="0.24957">
        <ele>1366.17</ele>
        <time>2018-03-06T09:49:36Z</time>
      </trkpt>
      <trkpt lat="42.937" lon="0.24954">
        <ele>1367.13</ele>
        <time>2018-03-06T09:49:42Z</time>
      </trkpt>
      <trkpt lat="42.93687" lon="0.24946">
        <ele>1368.09</ele>
        <time>2018-03-06T09:49:58Z</time>
      </trkpt>
      <trkpt lat="42.9368" lon="0.24945">
        <ele>1369.05</ele>
        <time>2018-03-06T09:50:13Z</time>
      </trkpt>
      <trkpt lat="42.93671" lon="0.24939">
        <ele>1370.5</ele>
        <time>2018-03-06T09:50:26Z</time>
      </trkpt>
      <trkpt lat="42.93661" lon="0.24932">
        <ele>1371.94</ele>
        <time>2018-03-06T09:50:40Z</time>
      </trkpt>
      <trkpt lat="42.93651" lon="0.24927">
        <ele>1372.9</ele>
        <time>2018-03-06T09:50:54Z</time>
      </trkpt>
      <trkpt lat="42.93643" lon="0.24925">
        <ele>1373.38</ele>
        <time>2018-03-06T09:51:08Z</time>
      </trkpt>
      <trkpt lat="42.93633" lon="0.24912">
        <ele>1373.86</ele>
        <time>2018-03-06T09:51:24Z</time>
      </trkpt>
      <trkpt lat="42.93626" lon="0.24907">
        <ele>1374.34</ele>
        <time>2018-03-06T09:51:35Z</time>
      </trkpt>
      <trkpt lat="42.93615" lon="0.24899">
        <ele>1375.78</ele>
        <time>2018-03-06T09:51:49Z</time>
      </trkpt>
      <trkpt lat="42.93603" lon="0.24889">
        <ele>1377.71</ele>
        <time>2018-03-06T09:52:06Z</time>
      </trkpt>
      <trkpt lat="42.93597" lon="0.24886">
        <ele>1378.67</ele>
        <time>2018-03-06T09:52:13Z</time>
      </trkpt>
      <trkpt lat="42.93587" lon="0.24878">
        <ele>1380.59</ele>
        <time>2018-03-06T09:52:27Z</time>
      </trkpt>
      <trkpt lat="42.93576" lon="0.24871">
        <ele>1381.55</ele>
        <time>2018-03-06T09:52:42Z</time>
      </trkpt>
      <trkpt lat="42.93564" lon="0.24863">
        <ele>1382.99</ele>
        <time>2018-03-06T09:52:57Z</time>
      </trkpt>
      <trkpt lat="42.93554" lon="0.24851">
        <ele>1383.96</ele>
        <time>2018-03-06T09:53:14Z</time>
      </trkpt>
      <trkpt lat="42.93543" lon="0.24845">
        <ele>1384.92</ele>
        <time>2018-03-06T09:53:30Z</time>
      </trkpt>
      <trkpt lat="42.93534" lon="0.24841">
        <ele>1386.36</ele>
        <time>2018-03-06T09:53:45Z</time>
      </trkpt>
      <trkpt lat="42.93524" lon="0.24841">
        <ele>1387.8</ele>
        <time>2018-03-06T09:53:59Z</time>
      </trkpt>
      <trkpt lat="42.93516" lon="0.24841">
        <ele>1388.76</ele>
        <time>2018-03-06T09:54:12Z</time>
      </trkpt>
      <trkpt lat="42.93509" lon="0.24834">
        <ele>1390.2</ele>
        <time>2018-03-06T09:54:26Z</time>
      </trkpt>
      <trkpt lat="42.93507" lon="0.24827">
        <ele>1391.17</ele>
        <time>2018-03-06T09:54:39Z</time>
      </trkpt>
      <trkpt lat="42.93503" lon="0.24817">
        <ele>1391.65</ele>
        <time>2018-03-06T09:54:52Z</time>
      </trkpt>
      <trkpt lat="42.93496" lon="0.24806">
        <ele>1393.57</ele>
        <time>2018-03-06T09:55:06Z</time>
      </trkpt>
      <trkpt lat="42.93494" lon="0.24802">
        <ele>1393.57</ele>
        <time>2018-03-06T09:55:10Z</time>
      </trkpt>
      <trkpt lat="42.93487" lon="0.24795">
        <ele>1395.01</ele>
        <time>2018-03-06T09:55:22Z</time>
      </trkpt>
      <trkpt lat="42.93478" lon="0.24791">
        <ele>1396.93</ele>
        <time>2018-03-06T09:55:36Z</time>
      </trkpt>
      <trkpt lat="42.93468" lon="0.24783">
        <ele>1398.37</ele>
        <time>2018-03-06T09:55:51Z</time>
      </trkpt>
      <trkpt lat="42.93464" lon="0.24771">
        <ele>1399.34</ele>
        <time>2018-03-06T09:56:04Z</time>
      </trkpt>
      <trkpt lat="42.93458" lon="0.24759">
        <ele>1400.3</ele>
        <time>2018-03-06T09:56:17Z</time>
      </trkpt>
      <trkpt lat="42.93449" lon="0.2475">
        <ele>1401.26</ele>
        <time>2018-03-06T09:56:31Z</time>
      </trkpt>
      <trkpt lat="42.93448" lon="0.24749">
        <ele>1401.26</ele>
        <time>2018-03-06T09:56:33Z</time>
      </trkpt>
      <trkpt lat="42.93435" lon="0.24738">
        <ele>1402.7</ele>
        <time>2018-03-06T09:56:51Z</time>
      </trkpt>
      <trkpt lat="42.93426" lon="0.24732">
        <ele>1405.1</ele>
        <time>2018-03-06T09:57:07Z</time>
      </trkpt>
      <trkpt lat="42.9342" lon="0.24731">
        <ele>1405.1</ele>
        <time>2018-03-06T09:57:19Z</time>
      </trkpt>
      <trkpt lat="42.93412" lon="0.24718">
        <ele>1407.99</ele>
        <time>2018-03-06T09:57:37Z</time>
      </trkpt>
      <trkpt lat="42.93405" lon="0.24713">
        <ele>1409.43</ele>
        <time>2018-03-06T09:57:50Z</time>
      </trkpt>
      <trkpt lat="42.93396" lon="0.2471">
        <ele>1411.35</ele>
        <time>2018-03-06T09:58:03Z</time>
      </trkpt>
      <trkpt lat="42.93391" lon="0.24701">
        <ele>1412.31</ele>
        <time>2018-03-06T09:58:16Z</time>
      </trkpt>
      <trkpt lat="42.93382" lon="0.24697">
        <ele>1413.76</ele>
        <time>2018-03-06T09:58:32Z</time>
      </trkpt>
      <trkpt lat="42.93373" lon="0.24688">
        <ele>1415.68</ele>
        <time>2018-03-06T09:58:48Z</time>
      </trkpt>
      <trkpt lat="42.93365" lon="0.24682">
        <ele>1417.6</ele>
        <time>2018-03-06T09:59:03Z</time>
      </trkpt>
      <trkpt lat="42.93358" lon="0.24675">
        <ele>1419.52</ele>
        <time>2018-03-06T09:59:17Z</time>
      </trkpt>
      <trkpt lat="42.93351" lon="0.24663">
        <ele>1420.97</ele>
        <time>2018-03-06T09:59:34Z</time>
      </trkpt>
      <trkpt lat="42.93345" lon="0.24653">
        <ele>1423.37</ele>
        <time>2018-03-06T09:59:49Z</time>
      </trkpt>
      <trkpt lat="42.93339" lon="0.24642">
        <ele>1424.81</ele>
        <time>2018-03-06T10:00:04Z</time>
      </trkpt>
      <trkpt lat="42.93334" lon="0.24633">
        <ele>1425.77</ele>
        <time>2018-03-06T10:00:17Z</time>
      </trkpt>
      <trkpt lat="42.93327" lon="0.24621">
        <ele>1427.21</ele>
        <time>2018-03-06T10:00:31Z</time>
      </trkpt>
      <trkpt lat="42.93318" lon="0.2461">
        <ele>1428.66</ele>
        <time>2018-03-06T10:00:46Z</time>
      </trkpt>
      <trkpt lat="42.93311" lon="0.24597">
        <ele>1430.1</ele>
        <time>2018-03-06T10:01:02Z</time>
      </trkpt>
      <trkpt lat="42.93312" lon="0.24597">
        <ele>1430.58</ele>
        <time>2018-03-06T10:01:16Z</time>
      </trkpt>
      <trkpt lat="42.93308" lon="0.24594">
        <ele>1430.58</ele>
        <time>2018-03-06T10:01:44Z</time>
      </trkpt>
      <trkpt lat="42.93305" lon="0.24589">
        <ele>1431.06</ele>
        <time>2018-03-06T10:01:59Z</time>
      </trkpt>
      <trkpt lat="42.93299" lon="0.24582">
        <ele>1431.54</ele>
        <time>2018-03-06T10:02:11Z</time>
      </trkpt>
      <trkpt lat="42.93295" lon="0.24575">
        <ele>1432.5</ele>
        <time>2018-03-06T10:02:24Z</time>
      </trkpt>
      <trkpt lat="42.93287" lon="0.24565">
        <ele>1433.46</ele>
        <time>2018-03-06T10:02:38Z</time>
      </trkpt>
      <trkpt lat="42.93281" lon="0.24555">
        <ele>1433.94</ele>
        <time>2018-03-06T10:02:53Z</time>
      </trkpt>
      <trkpt lat="42.93274" lon="0.24546">
        <ele>1433.94</ele>
        <time>2018-03-06T10:03:07Z</time>
      </trkpt>
      <trkpt lat="42.93266" lon="0.24535">
        <ele>1435.39</ele>
        <time>2018-03-06T10:03:20Z</time>
      </trkpt>
      <trkpt lat="42.93264" lon="0.24531">
        <ele>1435.87</ele>
        <time>2018-03-06T10:03:24Z</time>
      </trkpt>
      <trkpt lat="42.93261" lon="0.24519">
        <ele>1436.83</ele>
        <time>2018-03-06T10:03:40Z</time>
      </trkpt>
      <trkpt lat="42.93261" lon="0.24511">
        <ele>1436.35</ele>
        <time>2018-03-06T10:03:54Z</time>
      </trkpt>
      <trkpt lat="42.9326" lon="0.24511">
        <ele>1436.35</ele>
        <time>2018-03-06T10:04:18Z</time>
      </trkpt>
      <trkpt lat="42.93251" lon="0.24512">
        <ele>1437.31</ele>
        <time>2018-03-06T10:04:32Z</time>
      </trkpt>
      <trkpt lat="42.93245" lon="0.2451">
        <ele>1438.27</ele>
        <time>2018-03-06T10:04:39Z</time>
      </trkpt>
      <trkpt lat="42.93238" lon="0.24511">
        <ele>1439.71</ele>
        <time>2018-03-06T10:04:55Z</time>
      </trkpt>
      <trkpt lat="42.93236" lon="0.24509">
        <ele>1439.23</ele>
        <time>2018-03-06T10:05:09Z</time>
      </trkpt>
      <trkpt lat="42.93234" lon="0.24508">
        <ele>1439.23</ele>
        <time>2018-03-06T10:05:11Z</time>
      </trkpt>
      <trkpt lat="42.93225" lon="0.24497">
        <ele>1440.19</ele>
        <time>2018-03-06T10:05:25Z</time>
      </trkpt>
      <trkpt lat="42.9322" lon="0.24492">
        <ele>1442.6</ele>
        <time>2018-03-06T10:05:38Z</time>
      </trkpt>
      <trkpt lat="42.93211" lon="0.24484">
        <ele>1442.6</ele>
        <time>2018-03-06T10:05:52Z</time>
      </trkpt>
      <trkpt lat="42.932" lon="0.24472">
        <ele>1443.08</ele>
        <time>2018-03-06T10:06:08Z</time>
      </trkpt>
      <trkpt lat="42.93191" lon="0.2446">
        <ele>1444.04</ele>
        <time>2018-03-06T10:06:23Z</time>
      </trkpt>
      <trkpt lat="42.93182" lon="0.24449">
        <ele>1444.52</ele>
        <time>2018-03-06T10:06:39Z</time>
      </trkpt>
      <trkpt lat="42.93175" lon="0.24439">
        <ele>1445.48</ele>
        <time>2018-03-06T10:06:50Z</time>
      </trkpt>
      <trkpt lat="42.93166" lon="0.24427">
        <ele>1445.48</ele>
        <time>2018-03-06T10:07:05Z</time>
      </trkpt>
      <trkpt lat="42.9316" lon="0.24418">
        <ele>1445.96</ele>
        <time>2018-03-06T10:07:16Z</time>
      </trkpt>
      <trkpt lat="42.93152" lon="0.24406">
        <ele>1446.44</ele>
        <time>2018-03-06T10:07:29Z</time>
      </trkpt>
      <trkpt lat="42.9315" lon="0.24405">
        <ele>1446.92</ele>
        <time>2018-03-06T10:07:31Z</time>
      </trkpt>
      <trkpt lat="42.9314" lon="0.24395">
        <ele>1447.4</ele>
        <time>2018-03-06T10:07:46Z</time>
      </trkpt>
      <trkpt lat="42.93137" lon="0.24387">
        <ele>1447.4</ele>
        <time>2018-03-06T10:07:58Z</time>
      </trkpt>
      <trkpt lat="42.93126" lon="0.24377">
        <ele>1448.36</ele>
        <time>2018-03-06T10:08:13Z</time>
      </trkpt>
      <trkpt lat="42.93119" lon="0.2437">
        <ele>1448.84</ele>
        <time>2018-03-06T10:08:27Z</time>
      </trkpt>
      <trkpt lat="42.93112" lon="0.24365">
        <ele>1449.32</ele>
        <time>2018-03-06T10:08:47Z</time>
      </trkpt>
      <trkpt lat="42.931" lon="0.24356">
        <ele>1449.81</ele>
        <time>2018-03-06T10:09:01Z</time>
      </trkpt>
      <trkpt lat="42.93091" lon="0.24347">
        <ele>1450.77</ele>
        <time>2018-03-06T10:09:14Z</time>
      </trkpt>
      <trkpt lat="42.93081" lon="0.24339">
        <ele>1451.25</ele>
        <time>2018-03-06T10:09:27Z</time>
      </trkpt>
      <trkpt lat="42.9307" lon="0.24328">
        <ele>1452.21</ele>
        <time>2018-03-06T10:09:41Z</time>
      </trkpt>
      <trkpt lat="42.93058" lon="0.24318">
        <ele>1452.69</ele>
        <time>2018-03-06T10:09:56Z</time>
      </trkpt>
      <trkpt lat="42.9305" lon="0.24312">
        <ele>1452.69</ele>
        <time>2018-03-06T10:10:11Z</time>
      </trkpt>
      <trkpt lat="42.93047" lon="0.2431">
        <ele>1452.69</ele>
        <time>2018-03-06T10:10:14Z</time>
      </trkpt>
      <trkpt lat="42.93043" lon="0.24311">
        <ele>1452.69</ele>
        <time>2018-03-06T10:10:28Z</time>
      </trkpt>
      <trkpt lat="42.93043" lon="0.2431">
        <ele>1452.69</ele>
        <time>2018-03-06T10:11:02Z</time>
      </trkpt>
      <trkpt lat="42.93045" lon="0.24312">
        <ele>1453.17</ele>
        <time>2018-03-06T10:11:36Z</time>
      </trkpt>
      <trkpt lat="42.93041" lon="0.24307">
        <ele>1452.69</ele>
        <time>2018-03-06T10:11:55Z</time>
      </trkpt>
      <trkpt lat="42.93039" lon="0.24303">
        <ele>1452.69</ele>
        <time>2018-03-06T10:11:59Z</time>
      </trkpt>
      <trkpt lat="42.93028" lon="0.24288">
        <ele>1452.21</ele>
        <time>2018-03-06T10:12:14Z</time>
      </trkpt>
      <trkpt lat="42.93023" lon="0.24285">
        <ele>1452.21</ele>
        <time>2018-03-06T10:12:27Z</time>
      </trkpt>
      <trkpt lat="42.93024" lon="0.24286">
        <ele>1452.21</ele>
        <time>2018-03-06T10:12:46Z</time>
      </trkpt>
      <trkpt lat="42.93022" lon="0.24287">
        <ele>1452.21</ele>
        <time>2018-03-06T10:13:11Z</time>
      </trkpt>
      <trkpt lat="42.93015" lon="0.24279">
        <ele>1451.25</ele>
        <time>2018-03-06T10:13:30Z</time>
      </trkpt>
      <trkpt lat="42.93004" lon="0.24265">
        <ele>1450.29</ele>
        <time>2018-03-06T10:13:45Z</time>
      </trkpt>
      <trkpt lat="42.92993" lon="0.24253">
        <ele>1449.81</ele>
        <time>2018-03-06T10:13:59Z</time>
      </trkpt>
      <trkpt lat="42.92983" lon="0.24244">
        <ele>1450.29</ele>
        <time>2018-03-06T10:14:13Z</time>
      </trkpt>
      <trkpt lat="42.9298" lon="0.24242">
        <ele>1450.77</ele>
        <time>2018-03-06T10:14:32Z</time>
      </trkpt>
      <trkpt lat="42.92969" lon="0.24238">
        <ele>1451.73</ele>
        <time>2018-03-06T10:14:44Z</time>
      </trkpt>
      <trkpt lat="42.92959" lon="0.24229">
        <ele>1453.17</ele>
        <time>2018-03-06T10:14:59Z</time>
      </trkpt>
      <trkpt lat="42.92956" lon="0.2423">
        <ele>1453.17</ele>
        <time>2018-03-06T10:15:03Z</time>
      </trkpt>
      <trkpt lat="42.92946" lon="0.24225">
        <ele>1454.13</ele>
        <time>2018-03-06T10:15:16Z</time>
      </trkpt>
      <trkpt lat="42.92935" lon="0.24219">
        <ele>1454.61</ele>
        <time>2018-03-06T10:15:31Z</time>
      </trkpt>
      <trkpt lat="42.92924" lon="0.24214">
        <ele>1456.05</ele>
        <time>2018-03-06T10:15:45Z</time>
      </trkpt>
      <trkpt lat="42.92914" lon="0.24209">
        <ele>1457.02</ele>
        <time>2018-03-06T10:15:58Z</time>
      </trkpt>
      <trkpt lat="42.92901" lon="0.24201">
        <ele>1458.46</ele>
        <time>2018-03-06T10:16:16Z</time>
      </trkpt>
      <trkpt lat="42.92889" lon="0.24191">
        <ele>1458.94</ele>
        <time>2018-03-06T10:16:33Z</time>
      </trkpt>
      <trkpt lat="42.9288" lon="0.24185">
        <ele>1460.38</ele>
        <time>2018-03-06T10:16:48Z</time>
      </trkpt>
      <trkpt lat="42.92871" lon="0.24179">
        <ele>1462.3</ele>
        <time>2018-03-06T10:17:03Z</time>
      </trkpt>
      <trkpt lat="42.92861" lon="0.24175">
        <ele>1463.74</ele>
        <time>2018-03-06T10:17:16Z</time>
      </trkpt>
      <trkpt lat="42.92852" lon="0.24168">
        <ele>1465.67</ele>
        <time>2018-03-06T10:17:32Z</time>
      </trkpt>
      <trkpt lat="42.92839" lon="0.24165">
        <ele>1467.59</ele>
        <time>2018-03-06T10:17:49Z</time>
      </trkpt>
      <trkpt lat="42.9283" lon="0.24161">
        <ele>1469.03</ele>
        <time>2018-03-06T10:18:02Z</time>
      </trkpt>
      <trkpt lat="42.92819" lon="0.24157">
        <ele>1469.99</ele>
        <time>2018-03-06T10:18:17Z</time>
      </trkpt>
      <trkpt lat="42.92812" lon="0.24149">
        <ele>1471.44</ele>
        <time>2018-03-06T10:18:29Z</time>
      </trkpt>
      <trkpt lat="42.92805" lon="0.24141">
        <ele>1473.36</ele>
        <time>2018-03-06T10:18:44Z</time>
      </trkpt>
      <trkpt lat="42.92797" lon="0.24134">
        <ele>1474.32</ele>
        <time>2018-03-06T10:18:57Z</time>
      </trkpt>
      <trkpt lat="42.92791" lon="0.24125">
        <ele>1476.24</ele>
        <time>2018-03-06T10:19:12Z</time>
      </trkpt>
      <trkpt lat="42.92787" lon="0.24114">
        <ele>1478.65</ele>
        <time>2018-03-06T10:19:26Z</time>
      </trkpt>
      <trkpt lat="42.9278" lon="0.2411">
        <ele>1481.53</ele>
        <time>2018-03-06T10:19:41Z</time>
      </trkpt>
      <trkpt lat="42.92782" lon="0.24112">
        <ele>1482.01</ele>
        <time>2018-03-06T10:19:56Z</time>
      </trkpt>
      <trkpt lat="42.92782" lon="0.24114">
        <ele>1481.53</ele>
        <time>2018-03-06T10:20:14Z</time>
      </trkpt>
      <trkpt lat="42.92778" lon="0.24111">
        <ele>1481.53</ele>
        <time>2018-03-06T10:20:29Z</time>
      </trkpt>
      <trkpt lat="42.92769" lon="0.24105">
        <ele>1482.49</ele>
        <time>2018-03-06T10:20:45Z</time>
      </trkpt>
      <trkpt lat="42.9276" lon="0.241">
        <ele>1483.93</ele>
        <time>2018-03-06T10:20:59Z</time>
      </trkpt>
      <trkpt lat="42.92748" lon="0.24096">
        <ele>1486.82</ele>
        <time>2018-03-06T10:21:15Z</time>
      </trkpt>
      <trkpt lat="42.92737" lon="0.24094">
        <ele>1489.22</ele>
        <time>2018-03-06T10:21:29Z</time>
      </trkpt>
      <trkpt lat="42.92735" lon="0.24093">
        <ele>1489.22</ele>
        <time>2018-03-06T10:21:32Z</time>
      </trkpt>
      <trkpt lat="42.92724" lon="0.24089">
        <ele>1490.18</ele>
        <time>2018-03-06T10:21:48Z</time>
      </trkpt>
      <trkpt lat="42.92715" lon="0.24088">
        <ele>1491.62</ele>
        <time>2018-03-06T10:22:03Z</time>
      </trkpt>
      <trkpt lat="42.92704" lon="0.24086">
        <ele>1493.55</ele>
        <time>2018-03-06T10:22:19Z</time>
      </trkpt>
      <trkpt lat="42.92694" lon="0.24083">
        <ele>1494.99</ele>
        <time>2018-03-06T10:22:35Z</time>
      </trkpt>
      <trkpt lat="42.92684" lon="0.24081">
        <ele>1496.43</ele>
        <time>2018-03-06T10:22:50Z</time>
      </trkpt>
      <trkpt lat="42.92673" lon="0.24077">
        <ele>1497.39</ele>
        <time>2018-03-06T10:23:05Z</time>
      </trkpt>
      <trkpt lat="42.92673" lon="0.24078">
        <ele>1497.87</ele>
        <time>2018-03-06T10:23:20Z</time>
      </trkpt>
      <trkpt lat="42.92667" lon="0.24078">
        <ele>1498.35</ele>
        <time>2018-03-06T10:23:38Z</time>
      </trkpt>
      <trkpt lat="42.92659" lon="0.24074">
        <ele>1499.31</ele>
        <time>2018-03-06T10:23:48Z</time>
      </trkpt>
      <trkpt lat="42.92648" lon="0.2407">
        <ele>1501.24</ele>
        <time>2018-03-06T10:24:04Z</time>
      </trkpt>
      <trkpt lat="42.92638" lon="0.24067">
        <ele>1502.68</ele>
        <time>2018-03-06T10:24:18Z</time>
      </trkpt>
      <trkpt lat="42.92628" lon="0.24065">
        <ele>1503.64</ele>
        <time>2018-03-06T10:24:33Z</time>
      </trkpt>
      <trkpt lat="42.92619" lon="0.24063">
        <ele>1504.6</ele>
        <time>2018-03-06T10:24:48Z</time>
      </trkpt>
      <trkpt lat="42.92607" lon="0.24063">
        <ele>1507</ele>
        <time>2018-03-06T10:25:05Z</time>
      </trkpt>
      <trkpt lat="42.92598" lon="0.24063">
        <ele>1507.97</ele>
        <time>2018-03-06T10:25:19Z</time>
      </trkpt>
      <trkpt lat="42.92589" lon="0.24062">
        <ele>1509.89</ele>
        <time>2018-03-06T10:25:33Z</time>
      </trkpt>
      <trkpt lat="42.9258" lon="0.24059">
        <ele>1511.81</ele>
        <time>2018-03-06T10:25:49Z</time>
      </trkpt>
      <trkpt lat="42.92571" lon="0.24057">
        <ele>1513.73</ele>
        <time>2018-03-06T10:26:03Z</time>
      </trkpt>
      <trkpt lat="42.92563" lon="0.24058">
        <ele>1514.21</ele>
        <time>2018-03-06T10:26:16Z</time>
      </trkpt>
      <trkpt lat="42.92552" lon="0.24056">
        <ele>1515.66</ele>
        <time>2018-03-06T10:26:32Z</time>
      </trkpt>
      <trkpt lat="42.92542" lon="0.24054">
        <ele>1516.62</ele>
        <time>2018-03-06T10:26:46Z</time>
      </trkpt>
      <trkpt lat="42.92532" lon="0.24049">
        <ele>1518.54</ele>
        <time>2018-03-06T10:27:01Z</time>
      </trkpt>
      <trkpt lat="42.92524" lon="0.24047">
        <ele>1519.02</ele>
        <time>2018-03-06T10:27:14Z</time>
      </trkpt>
      <trkpt lat="42.92514" lon="0.24045">
        <ele>1520.46</ele>
        <time>2018-03-06T10:27:29Z</time>
      </trkpt>
      <trkpt lat="42.92504" lon="0.24044">
        <ele>1521.9</ele>
        <time>2018-03-06T10:27:43Z</time>
      </trkpt>
      <trkpt lat="42.92493" lon="0.24042">
        <ele>1522.87</ele>
        <time>2018-03-06T10:27:57Z</time>
      </trkpt>
      <trkpt lat="42.9249" lon="0.24041">
        <ele>1522.87</ele>
        <time>2018-03-06T10:28:00Z</time>
      </trkpt>
      <trkpt lat="42.9248" lon="0.24036">
        <ele>1524.79</ele>
        <time>2018-03-06T10:28:16Z</time>
      </trkpt>
      <trkpt lat="42.92469" lon="0.24031">
        <ele>1525.27</ele>
        <time>2018-03-06T10:28:30Z</time>
      </trkpt>
      <trkpt lat="42.9246" lon="0.24031">
        <ele>1526.71</ele>
        <time>2018-03-06T10:28:43Z</time>
      </trkpt>
      <trkpt lat="42.9245" lon="0.24029">
        <ele>1527.67</ele>
        <time>2018-03-06T10:28:58Z</time>
      </trkpt>
      <trkpt lat="42.92439" lon="0.2403">
        <ele>1529.11</ele>
        <time>2018-03-06T10:29:11Z</time>
      </trkpt>
      <trkpt lat="42.92428" lon="0.24031">
        <ele>1530.56</ele>
        <time>2018-03-06T10:29:25Z</time>
      </trkpt>
      <trkpt lat="42.92419" lon="0.2403">
        <ele>1532</ele>
        <time>2018-03-06T10:29:38Z</time>
      </trkpt>
      <trkpt lat="42.92409" lon="0.24032">
        <ele>1533.44</ele>
        <time>2018-03-06T10:29:51Z</time>
      </trkpt>
      <trkpt lat="42.92401" lon="0.24032">
        <ele>1534.88</ele>
        <time>2018-03-06T10:30:05Z</time>
      </trkpt>
      <trkpt lat="42.92392" lon="0.24033">
        <ele>1536.8</ele>
        <time>2018-03-06T10:30:19Z</time>
      </trkpt>
      <trkpt lat="42.92382" lon="0.24035">
        <ele>1538.73</ele>
        <time>2018-03-06T10:30:35Z</time>
      </trkpt>
      <trkpt lat="42.92371" lon="0.24041">
        <ele>1540.17</ele>
        <time>2018-03-06T10:30:52Z</time>
      </trkpt>
      <trkpt lat="42.9236" lon="0.24039">
        <ele>1542.57</ele>
        <time>2018-03-06T10:31:09Z</time>
      </trkpt>
      <trkpt lat="42.92352" lon="0.2404">
        <ele>1544.5</ele>
        <time>2018-03-06T10:31:23Z</time>
      </trkpt>
      <trkpt lat="42.9235" lon="0.24039">
        <ele>1545.46</ele>
        <time>2018-03-06T10:31:37Z</time>
      </trkpt>
      <trkpt lat="42.92342" lon="0.24038">
        <ele>1546.9</ele>
        <time>2018-03-06T10:31:50Z</time>
      </trkpt>
      <trkpt lat="42.92333" lon="0.24041">
        <ele>1548.34</ele>
        <time>2018-03-06T10:32:04Z</time>
      </trkpt>
      <trkpt lat="42.92325" lon="0.24042">
        <ele>1550.26</ele>
        <time>2018-03-06T10:32:17Z</time>
      </trkpt>
      <trkpt lat="42.92316" lon="0.24043">
        <ele>1551.71</ele>
        <time>2018-03-06T10:32:31Z</time>
      </trkpt>
      <trkpt lat="42.92316" lon="0.24043">
        <ele>1551.71</ele>
        <time>2018-03-06T10:32:32Z</time>
      </trkpt>
      <trkpt lat="42.92307" lon="0.24045">
        <ele>1554.11</ele>
        <time>2018-03-06T10:32:46Z</time>
      </trkpt>
      <trkpt lat="42.92298" lon="0.24045">
        <ele>1555.55</ele>
        <time>2018-03-06T10:33:00Z</time>
      </trkpt>
      <trkpt lat="42.92287" lon="0.24048">
        <ele>1557.95</ele>
        <time>2018-03-06T10:33:16Z</time>
      </trkpt>
      <trkpt lat="42.92278" lon="0.24051">
        <ele>1559.4</ele>
        <time>2018-03-06T10:33:30Z</time>
      </trkpt>
      <trkpt lat="42.9227" lon="0.24054">
        <ele>1560.84</ele>
        <time>2018-03-06T10:33:45Z</time>
      </trkpt>
      <trkpt lat="42.92263" lon="0.24058">
        <ele>1562.28</ele>
        <time>2018-03-06T10:33:57Z</time>
      </trkpt>
      <trkpt lat="42.92251" lon="0.2406">
        <ele>1563.72</ele>
        <time>2018-03-06T10:34:13Z</time>
      </trkpt>
      <trkpt lat="42.92242" lon="0.24057">
        <ele>1565.16</ele>
        <time>2018-03-06T10:34:27Z</time>
      </trkpt>
      <trkpt lat="42.92231" lon="0.24054">
        <ele>1566.61</ele>
        <time>2018-03-06T10:34:44Z</time>
      </trkpt>
      <trkpt lat="42.92223" lon="0.24052">
        <ele>1568.05</ele>
        <time>2018-03-06T10:34:58Z</time>
      </trkpt>
      <trkpt lat="42.92212" lon="0.2405">
        <ele>1569.97</ele>
        <time>2018-03-06T10:35:13Z</time>
      </trkpt>
      <trkpt lat="42.92211" lon="0.24048">
        <ele>1570.45</ele>
        <time>2018-03-06T10:35:28Z</time>
      </trkpt>
      <trkpt lat="42.92213" lon="0.24045">
        <ele>1569.49</ele>
        <time>2018-03-06T10:35:43Z</time>
      </trkpt>
      <trkpt lat="42.92213" lon="0.24045">
        <ele>1569.49</ele>
        <time>2018-03-06T10:36:14Z</time>
      </trkpt>
      <trkpt lat="42.92213" lon="0.24044">
        <ele>1569.49</ele>
        <time>2018-03-06T10:37:01Z</time>
      </trkpt>
      <trkpt lat="42.92212" lon="0.24046">
        <ele>1570.45</ele>
        <time>2018-03-06T10:37:37Z</time>
      </trkpt>
      <trkpt lat="42.92207" lon="0.24043">
        <ele>1570.93</ele>
        <time>2018-03-06T10:37:53Z</time>
      </trkpt>
      <trkpt lat="42.92196" lon="0.24036">
        <ele>1573.33</ele>
        <time>2018-03-06T10:38:11Z</time>
      </trkpt>
      <trkpt lat="42.92186" lon="0.24034">
        <ele>1574.78</ele>
        <time>2018-03-06T10:38:24Z</time>
      </trkpt>
      <trkpt lat="42.92177" lon="0.24029">
        <ele>1576.7</ele>
        <time>2018-03-06T10:38:39Z</time>
      </trkpt>
      <trkpt lat="42.92167" lon="0.24027">
        <ele>1579.1</ele>
        <time>2018-03-06T10:38:56Z</time>
      </trkpt>
      <trkpt lat="42.9216" lon="0.24023">
        <ele>1581.03</ele>
        <time>2018-03-06T10:39:10Z</time>
      </trkpt>
      <trkpt lat="42.92151" lon="0.2402">
        <ele>1582.95</ele>
        <time>2018-03-06T10:39:26Z</time>
      </trkpt>
      <trkpt lat="42.92142" lon="0.24018">
        <ele>1584.39</ele>
        <time>2018-03-06T10:39:40Z</time>
      </trkpt>
      <trkpt lat="42.92135" lon="0.24016">
        <ele>1586.31</ele>
        <time>2018-03-06T10:39:54Z</time>
      </trkpt>
      <trkpt lat="42.92126" lon="0.24012">
        <ele>1588.24</ele>
        <time>2018-03-06T10:40:09Z</time>
      </trkpt>
      <trkpt lat="42.92119" lon="0.24008">
        <ele>1590.16</ele>
        <time>2018-03-06T10:40:23Z</time>
      </trkpt>
      <trkpt lat="42.92111" lon="0.24004">
        <ele>1591.6</ele>
        <time>2018-03-06T10:40:38Z</time>
      </trkpt>
      <trkpt lat="42.92101" lon="0.24001">
        <ele>1594</ele>
        <time>2018-03-06T10:40:54Z</time>
      </trkpt>
      <trkpt lat="42.92094" lon="0.23996">
        <ele>1595.93</ele>
        <time>2018-03-06T10:41:09Z</time>
      </trkpt>
      <trkpt lat="42.92085" lon="0.23995">
        <ele>1597.85</ele>
        <time>2018-03-06T10:41:24Z</time>
      </trkpt>
      <trkpt lat="42.92078" lon="0.23991">
        <ele>1600.25</ele>
        <time>2018-03-06T10:41:40Z</time>
      </trkpt>
      <trkpt lat="42.92072" lon="0.2399">
        <ele>1602.17</ele>
        <time>2018-03-06T10:41:53Z</time>
      </trkpt>
      <trkpt lat="42.92064" lon="0.23985">
        <ele>1604.58</ele>
        <time>2018-03-06T10:42:08Z</time>
      </trkpt>
      <trkpt lat="42.92056" lon="0.23983">
        <ele>1606.98</ele>
        <time>2018-03-06T10:42:25Z</time>
      </trkpt>
      <trkpt lat="42.92049" lon="0.2398">
        <ele>1609.38</ele>
        <time>2018-03-06T10:42:40Z</time>
      </trkpt>
      <trkpt lat="42.92044" lon="0.23978">
        <ele>1612.27</ele>
        <time>2018-03-06T10:42:56Z</time>
      </trkpt>
      <trkpt lat="42.92036" lon="0.23974">
        <ele>1614.67</ele>
        <time>2018-03-06T10:43:12Z</time>
      </trkpt>
      <trkpt lat="42.92027" lon="0.2397">
        <ele>1616.59</ele>
        <time>2018-03-06T10:43:29Z</time>
      </trkpt>
      <trkpt lat="42.9202" lon="0.23967">
        <ele>1618.52</ele>
        <time>2018-03-06T10:43:45Z</time>
      </trkpt>
      <trkpt lat="42.92013" lon="0.23963">
        <ele>1620.92</ele>
        <time>2018-03-06T10:43:58Z</time>
      </trkpt>
      <trkpt lat="42.92006" lon="0.2396">
        <ele>1622.36</ele>
        <time>2018-03-06T10:44:12Z</time>
      </trkpt>
      <trkpt lat="42.91999" lon="0.23956">
        <ele>1624.77</ele>
        <time>2018-03-06T10:44:29Z</time>
      </trkpt>
      <trkpt lat="42.91992" lon="0.23955">
        <ele>1626.69</ele>
        <time>2018-03-06T10:44:43Z</time>
      </trkpt>
      <trkpt lat="42.91987" lon="0.23953">
        <ele>1628.13</ele>
        <time>2018-03-06T10:44:58Z</time>
      </trkpt>
      <trkpt lat="42.91985" lon="0.23951">
        <ele>1629.09</ele>
        <time>2018-03-06T10:45:15Z</time>
      </trkpt>
      <trkpt lat="42.91983" lon="0.2395">
        <ele>1630.05</ele>
        <time>2018-03-06T10:45:35Z</time>
      </trkpt>
      <trkpt lat="42.91983" lon="0.23951">
        <ele>1629.57</ele>
        <time>2018-03-06T10:46:04Z</time>
      </trkpt>
      <trkpt lat="42.91983" lon="0.23953">
        <ele>1629.57</ele>
        <time>2018-03-06T10:46:24Z</time>
      </trkpt>
      <trkpt lat="42.91982" lon="0.23952">
        <ele>1629.57</ele>
        <time>2018-03-06T10:46:45Z</time>
      </trkpt>
      <trkpt lat="42.91976" lon="0.23954">
        <ele>1631.49</ele>
        <time>2018-03-06T10:46:59Z</time>
      </trkpt>
      <trkpt lat="42.91977" lon="0.23954">
        <ele>1630.05</ele>
        <time>2018-03-06T10:47:10Z</time>
      </trkpt>
      <trkpt lat="42.91976" lon="0.23956">
        <ele>1630.05</ele>
        <time>2018-03-06T10:47:50Z</time>
      </trkpt>
      <trkpt lat="42.91977" lon="0.23956">
        <ele>1630.53</ele>
        <time>2018-03-06T10:48:22Z</time>
      </trkpt>
      <trkpt lat="42.9197" lon="0.23956">
        <ele>1632.46</ele>
        <time>2018-03-06T10:48:40Z</time>
      </trkpt>
      <trkpt lat="42.9196" lon="0.23959">
        <ele>1634.86</ele>
        <time>2018-03-06T10:48:54Z</time>
      </trkpt>
      <trkpt lat="42.91952" lon="0.23955">
        <ele>1637.26</ele>
        <time>2018-03-06T10:49:10Z</time>
      </trkpt>
      <trkpt lat="42.91945" lon="0.23954">
        <ele>1639.67</ele>
        <time>2018-03-06T10:49:25Z</time>
      </trkpt>
      <trkpt lat="42.9194" lon="0.2395">
        <ele>1641.59</ele>
        <time>2018-03-06T10:49:37Z</time>
      </trkpt>
      <trkpt lat="42.91932" lon="0.23949">
        <ele>1643.51</ele>
        <time>2018-03-06T10:49:51Z</time>
      </trkpt>
      <trkpt lat="42.91926" lon="0.23947">
        <ele>1645.43</ele>
        <time>2018-03-06T10:50:04Z</time>
      </trkpt>
      <trkpt lat="42.91919" lon="0.23945">
        <ele>1647.84</ele>
        <time>2018-03-06T10:50:21Z</time>
      </trkpt>
      <trkpt lat="42.91913" lon="0.23943">
        <ele>1650.24</ele>
        <time>2018-03-06T10:50:36Z</time>
      </trkpt>
      <trkpt lat="42.91907" lon="0.23941">
        <ele>1652.16</ele>
        <time>2018-03-06T10:50:51Z</time>
      </trkpt>
      <trkpt lat="42.919" lon="0.23938">
        <ele>1654.09</ele>
        <time>2018-03-06T10:51:09Z</time>
      </trkpt>
      <trkpt lat="42.91894" lon="0.23937">
        <ele>1656.97</ele>
        <time>2018-03-06T10:51:27Z</time>
      </trkpt>
      <trkpt lat="42.9189" lon="0.23937">
        <ele>1658.41</ele>
        <time>2018-03-06T10:51:41Z</time>
      </trkpt>
      <trkpt lat="42.91886" lon="0.23935">
        <ele>1659.85</ele>
        <time>2018-03-06T10:51:56Z</time>
      </trkpt>
      <trkpt lat="42.91881" lon="0.23933">
        <ele>1662.26</ele>
        <time>2018-03-06T10:52:11Z</time>
      </trkpt>
      <trkpt lat="42.91875" lon="0.23933">
        <ele>1664.66</ele>
        <time>2018-03-06T10:52:28Z</time>
      </trkpt>
      <trkpt lat="42.91869" lon="0.23932">
        <ele>1667.06</ele>
        <time>2018-03-06T10:52:46Z</time>
      </trkpt>
      <trkpt lat="42.91862" lon="0.2393">
        <ele>1670.43</ele>
        <time>2018-03-06T10:53:07Z</time>
      </trkpt>
      <trkpt lat="42.91856" lon="0.23928">
        <ele>1671.87</ele>
        <time>2018-03-06T10:53:22Z</time>
      </trkpt>
      <trkpt lat="42.9185" lon="0.23926">
        <ele>1674.75</ele>
        <time>2018-03-06T10:53:40Z</time>
      </trkpt>
      <trkpt lat="42.91847" lon="0.23923">
        <ele>1676.2</ele>
        <time>2018-03-06T10:53:53Z</time>
      </trkpt>
      <trkpt lat="42.91848" lon="0.23924">
        <ele>1674.75</ele>
        <time>2018-03-06T10:53:57Z</time>
      </trkpt>
      <trkpt lat="42.91848" lon="0.23927">
        <ele>1674.27</ele>
        <time>2018-03-06T10:54:27Z</time>
      </trkpt>
      <trkpt lat="42.91848" lon="0.23928">
        <ele>1674.27</ele>
        <time>2018-03-06T10:55:00Z</time>
      </trkpt>
      <trkpt lat="42.91849" lon="0.23928">
        <ele>1673.79</ele>
        <time>2018-03-06T10:55:47Z</time>
      </trkpt>
      <trkpt lat="42.91848" lon="0.23928">
        <ele>1673.79</ele>
        <time>2018-03-06T10:56:24Z</time>
      </trkpt>
      <trkpt lat="42.91847" lon="0.23928">
        <ele>1675.23</ele>
        <time>2018-03-06T10:56:47Z</time>
      </trkpt>
      <trkpt lat="42.91842" lon="0.23924">
        <ele>1676.2</ele>
        <time>2018-03-06T10:57:00Z</time>
      </trkpt>
      <trkpt lat="42.91834" lon="0.23922">
        <ele>1679.56</ele>
        <time>2018-03-06T10:57:17Z</time>
      </trkpt>
      <trkpt lat="42.91827" lon="0.23919">
        <ele>1681.96</ele>
        <time>2018-03-06T10:57:32Z</time>
      </trkpt>
      <trkpt lat="42.91818" lon="0.23917">
        <ele>1684.85</ele>
        <time>2018-03-06T10:57:49Z</time>
      </trkpt>
      <trkpt lat="42.91811" lon="0.23919">
        <ele>1686.77</ele>
        <time>2018-03-06T10:58:05Z</time>
      </trkpt>
      <trkpt lat="42.91804" lon="0.23915">
        <ele>1689.17</ele>
        <time>2018-03-06T10:58:21Z</time>
      </trkpt>
      <trkpt lat="42.91795" lon="0.23913">
        <ele>1691.58</ele>
        <time>2018-03-06T10:58:39Z</time>
      </trkpt>
      <trkpt lat="42.91789" lon="0.23912">
        <ele>1693.98</ele>
        <time>2018-03-06T10:58:52Z</time>
      </trkpt>
      <trkpt lat="42.91782" lon="0.23909">
        <ele>1696.38</ele>
        <time>2018-03-06T10:59:08Z</time>
      </trkpt>
      <trkpt lat="42.91775" lon="0.23908">
        <ele>1698.79</ele>
        <time>2018-03-06T10:59:23Z</time>
      </trkpt>
      <trkpt lat="42.91771" lon="0.23905">
        <ele>1700.71</ele>
        <time>2018-03-06T10:59:36Z</time>
      </trkpt>
      <trkpt lat="42.91765" lon="0.23903">
        <ele>1702.63</ele>
        <time>2018-03-06T10:59:51Z</time>
      </trkpt>
      <trkpt lat="42.91758" lon="0.23901">
        <ele>1705.52</ele>
        <time>2018-03-06T11:00:06Z</time>
      </trkpt>
      <trkpt lat="42.91752" lon="0.23899">
        <ele>1707.92</ele>
        <time>2018-03-06T11:00:20Z</time>
      </trkpt>
      <trkpt lat="42.91744" lon="0.23901">
        <ele>1709.84</ele>
        <time>2018-03-06T11:00:34Z</time>
      </trkpt>
      <trkpt lat="42.91737" lon="0.239">
        <ele>1711.76</ele>
        <time>2018-03-06T11:00:49Z</time>
      </trkpt>
      <trkpt lat="42.9173" lon="0.23899">
        <ele>1713.69</ele>
        <time>2018-03-06T11:01:02Z</time>
      </trkpt>
      <trkpt lat="42.91724" lon="0.23895">
        <ele>1716.09</ele>
        <time>2018-03-06T11:01:18Z</time>
      </trkpt>
      <trkpt lat="42.91719" lon="0.23893">
        <ele>1718.49</ele>
        <time>2018-03-06T11:01:32Z</time>
      </trkpt>
      <trkpt lat="42.91714" lon="0.2389">
        <ele>1720.9</ele>
        <time>2018-03-06T11:01:46Z</time>
      </trkpt>
      <trkpt lat="42.91709" lon="0.23886">
        <ele>1723.78</ele>
        <time>2018-03-06T11:02:03Z</time>
      </trkpt>
      <trkpt lat="42.91705" lon="0.23883">
        <ele>1725.7</ele>
        <time>2018-03-06T11:02:16Z</time>
      </trkpt>
      <trkpt lat="42.91702" lon="0.23879">
        <ele>1727.63</ele>
        <time>2018-03-06T11:02:31Z</time>
      </trkpt>
      <trkpt lat="42.91699" lon="0.23875">
        <ele>1730.03</ele>
        <time>2018-03-06T11:02:43Z</time>
      </trkpt>
      <trkpt lat="42.91696" lon="0.23871">
        <ele>1732.43</ele>
        <time>2018-03-06T11:02:58Z</time>
      </trkpt>
      <trkpt lat="42.91692" lon="0.23867">
        <ele>1734.36</ele>
        <time>2018-03-06T11:03:12Z</time>
      </trkpt>
      <trkpt lat="42.9169" lon="0.23862">
        <ele>1736.76</ele>
        <time>2018-03-06T11:03:27Z</time>
      </trkpt>
      <trkpt lat="42.91687" lon="0.23858">
        <ele>1738.2</ele>
        <time>2018-03-06T11:03:40Z</time>
      </trkpt>
      <trkpt lat="42.91683" lon="0.23855">
        <ele>1740.6</ele>
        <time>2018-03-06T11:03:53Z</time>
      </trkpt>
      <trkpt lat="42.91679" lon="0.2385">
        <ele>1742.53</ele>
        <time>2018-03-06T11:04:06Z</time>
      </trkpt>
      <trkpt lat="42.91676" lon="0.23847">
        <ele>1744.45</ele>
        <time>2018-03-06T11:04:20Z</time>
      </trkpt>
      <trkpt lat="42.91673" lon="0.23845">
        <ele>1746.37</ele>
        <time>2018-03-06T11:04:32Z</time>
      </trkpt>
      <trkpt lat="42.91669" lon="0.23841">
        <ele>1748.29</ele>
        <time>2018-03-06T11:04:47Z</time>
      </trkpt>
      <trkpt lat="42.91665" lon="0.23834">
        <ele>1750.22</ele>
        <time>2018-03-06T11:05:02Z</time>
      </trkpt>
      <trkpt lat="42.91662" lon="0.23831">
        <ele>1751.66</ele>
        <time>2018-03-06T11:05:15Z</time>
      </trkpt>
      <trkpt lat="42.91658" lon="0.23825">
        <ele>1753.58</ele>
        <time>2018-03-06T11:05:29Z</time>
      </trkpt>
      <trkpt lat="42.91659" lon="0.23825">
        <ele>1754.06</ele>
        <time>2018-03-06T11:05:46Z</time>
      </trkpt>
      <trkpt lat="42.91657" lon="0.23822">
        <ele>1754.06</ele>
        <time>2018-03-06T11:06:08Z</time>
      </trkpt>
      <trkpt lat="42.9165" lon="0.23818">
        <ele>1756.95</ele>
        <time>2018-03-06T11:06:22Z</time>
      </trkpt>
      <trkpt lat="42.91641" lon="0.23811">
        <ele>1759.35</ele>
        <time>2018-03-06T11:06:38Z</time>
      </trkpt>
      <trkpt lat="42.91634" lon="0.23805">
        <ele>1761.75</ele>
        <time>2018-03-06T11:06:53Z</time>
      </trkpt>
      <trkpt lat="42.91629" lon="0.23799">
        <ele>1763.68</ele>
        <time>2018-03-06T11:07:08Z</time>
      </trkpt>
      <trkpt lat="42.91621" lon="0.23795">
        <ele>1766.08</ele>
        <time>2018-03-06T11:07:25Z</time>
      </trkpt>
      <trkpt lat="42.91616" lon="0.2379">
        <ele>1767.52</ele>
        <time>2018-03-06T11:07:37Z</time>
      </trkpt>
      <trkpt lat="42.91608" lon="0.23788">
        <ele>1770.41</ele>
        <time>2018-03-06T11:07:52Z</time>
      </trkpt>
      <trkpt lat="42.91604" lon="0.23783">
        <ele>1771.85</ele>
        <time>2018-03-06T11:08:04Z</time>
      </trkpt>
      <trkpt lat="42.91601" lon="0.23777">
        <ele>1774.25</ele>
        <time>2018-03-06T11:08:19Z</time>
      </trkpt>
      <trkpt lat="42.91599" lon="0.23773">
        <ele>1775.21</ele>
        <time>2018-03-06T11:08:31Z</time>
      </trkpt>
      <trkpt lat="42.91594" lon="0.2377">
        <ele>1777.13</ele>
        <time>2018-03-06T11:08:45Z</time>
      </trkpt>
      <trkpt lat="42.91588" lon="0.23768">
        <ele>1779.06</ele>
        <time>2018-03-06T11:09:00Z</time>
      </trkpt>
      <trkpt lat="42.91584" lon="0.23765">
        <ele>1780.5</ele>
        <time>2018-03-06T11:09:14Z</time>
      </trkpt>
      <trkpt lat="42.91577" lon="0.2376">
        <ele>1783.38</ele>
        <time>2018-03-06T11:09:30Z</time>
      </trkpt>
      <trkpt lat="42.91573" lon="0.23754">
        <ele>1785.31</ele>
        <time>2018-03-06T11:09:43Z</time>
      </trkpt>
      <trkpt lat="42.91569" lon="0.23749">
        <ele>1786.75</ele>
        <time>2018-03-06T11:09:56Z</time>
      </trkpt>
      <trkpt lat="42.91564" lon="0.2375">
        <ele>1788.67</ele>
        <time>2018-03-06T11:10:12Z</time>
      </trkpt>
      <trkpt lat="42.9156" lon="0.23761">
        <ele>1791.07</ele>
        <time>2018-03-06T11:10:29Z</time>
      </trkpt>
      <trkpt lat="42.91561" lon="0.23756">
        <ele>1791.07</ele>
        <time>2018-03-06T11:10:54Z</time>
      </trkpt>
      <trkpt lat="42.91561" lon="0.23757">
        <ele>1790.59</ele>
        <time>2018-03-06T11:10:55Z</time>
      </trkpt>
      <trkpt lat="42.91562" lon="0.23755">
        <ele>1790.11</ele>
        <time>2018-03-06T11:11:03Z</time>
      </trkpt>
      <trkpt lat="42.9156" lon="0.23758">
        <ele>1790.11</ele>
        <time>2018-03-06T11:11:26Z</time>
      </trkpt>
      <trkpt lat="42.9156" lon="0.23764">
        <ele>1788.19</ele>
        <time>2018-03-06T11:41:11Z</time>
      </trkpt>
      <trkpt lat="42.91562" lon="0.23767">
        <ele>1787.23</ele>
        <time>2018-03-06T11:41:30Z</time>
      </trkpt>
      <trkpt lat="42.91563" lon="0.23766">
        <ele>1787.23</ele>
        <time>2018-03-06T11:41:52Z</time>
      </trkpt>
      <trkpt lat="42.91564" lon="0.23767">
        <ele>1785.79</ele>
        <time>2018-03-06T11:42:07Z</time>
      </trkpt>
      <trkpt lat="42.91569" lon="0.2377">
        <ele>1784.82</ele>
        <time>2018-03-06T11:42:21Z</time>
      </trkpt>
      <trkpt lat="42.91576" lon="0.23771">
        <ele>1781.94</ele>
        <time>2018-03-06T11:42:33Z</time>
      </trkpt>
      <trkpt lat="42.91584" lon="0.23771">
        <ele>1779.06</ele>
        <time>2018-03-06T11:42:48Z</time>
      </trkpt>
      <trkpt lat="42.91588" lon="0.23772">
        <ele>1778.1</ele>
        <time>2018-03-06T11:43:02Z</time>
      </trkpt>
      <trkpt lat="42.91594" lon="0.23774">
        <ele>1775.69</ele>
        <time>2018-03-06T11:43:16Z</time>
      </trkpt>
      <trkpt lat="42.91602" lon="0.23781">
        <ele>1772.81</ele>
        <time>2018-03-06T11:43:30Z</time>
      </trkpt>
      <trkpt lat="42.91609" lon="0.23786">
        <ele>1769.92</ele>
        <time>2018-03-06T11:43:43Z</time>
      </trkpt>
      <trkpt lat="42.91617" lon="0.23794">
        <ele>1766.56</ele>
        <time>2018-03-06T11:43:55Z</time>
      </trkpt>
      <trkpt lat="42.91627" lon="0.238">
        <ele>1763.2</ele>
        <time>2018-03-06T11:44:11Z</time>
      </trkpt>
      <trkpt lat="42.91635" lon="0.23807">
        <ele>1759.83</ele>
        <time>2018-03-06T11:44:26Z</time>
      </trkpt>
      <trkpt lat="42.91639" lon="0.23811">
        <ele>1758.39</ele>
        <time>2018-03-06T11:44:42Z</time>
      </trkpt>
      <trkpt lat="42.91645" lon="0.23814">
        <ele>1756.95</ele>
        <time>2018-03-06T11:44:54Z</time>
      </trkpt>
      <trkpt lat="42.91647" lon="0.23814">
        <ele>1756.47</ele>
        <time>2018-03-06T11:44:57Z</time>
      </trkpt>
      <trkpt lat="42.91655" lon="0.2382">
        <ele>1753.1</ele>
        <time>2018-03-06T11:45:11Z</time>
      </trkpt>
      <trkpt lat="42.91656" lon="0.2382">
        <ele>1753.1</ele>
        <time>2018-03-06T11:45:26Z</time>
      </trkpt>
      <trkpt lat="42.91662" lon="0.23825">
        <ele>1750.7</ele>
        <time>2018-03-06T11:45:41Z</time>
      </trkpt>
      <trkpt lat="42.91671" lon="0.23834">
        <ele>1747.33</ele>
        <time>2018-03-06T11:45:55Z</time>
      </trkpt>
      <trkpt lat="42.91677" lon="0.23838">
        <ele>1744.93</ele>
        <time>2018-03-06T11:46:07Z</time>
      </trkpt>
      <trkpt lat="42.91683" lon="0.23843">
        <ele>1742.05</ele>
        <time>2018-03-06T11:46:19Z</time>
      </trkpt>
      <trkpt lat="42.91686" lon="0.23847">
        <ele>1740.12</ele>
        <time>2018-03-06T11:46:32Z</time>
      </trkpt>
      <trkpt lat="42.91692" lon="0.23851">
        <ele>1737.24</ele>
        <time>2018-03-06T11:46:42Z</time>
      </trkpt>
      <trkpt lat="42.91696" lon="0.23854">
        <ele>1733.88</ele>
        <time>2018-03-06T11:46:54Z</time>
      </trkpt>
      <trkpt lat="42.91697" lon="0.23855">
        <ele>1732.91</ele>
        <time>2018-03-06T11:46:56Z</time>
      </trkpt>
      <trkpt lat="42.91702" lon="0.23859">
        <ele>1730.03</ele>
        <time>2018-03-06T11:47:06Z</time>
      </trkpt>
      <trkpt lat="42.91707" lon="0.23861">
        <ele>1726.67</ele>
        <time>2018-03-06T11:47:18Z</time>
      </trkpt>
      <trkpt lat="42.91712" lon="0.23862">
        <ele>1724.74</ele>
        <time>2018-03-06T11:47:33Z</time>
      </trkpt>
      <trkpt lat="42.91717" lon="0.23864">
        <ele>1721.86</ele>
        <time>2018-03-06T11:47:45Z</time>
      </trkpt>
      <trkpt lat="42.91723" lon="0.23867">
        <ele>1718.97</ele>
        <time>2018-03-06T11:47:57Z</time>
      </trkpt>
      <trkpt lat="42.9173" lon="0.23869">
        <ele>1715.61</ele>
        <time>2018-03-06T11:48:11Z</time>
      </trkpt>
      <trkpt lat="42.91739" lon="0.23874">
        <ele>1712.25</ele>
        <time>2018-03-06T11:48:23Z</time>
      </trkpt>
      <trkpt lat="42.91746" lon="0.23877">
        <ele>1709.36</ele>
        <time>2018-03-06T11:48:37Z</time>
      </trkpt>
      <trkpt lat="42.91754" lon="0.23882">
        <ele>1706.48</ele>
        <time>2018-03-06T11:48:48Z</time>
      </trkpt>
      <trkpt lat="42.91759" lon="0.23886">
        <ele>1704.55</ele>
        <time>2018-03-06T11:49:01Z</time>
      </trkpt>
      <trkpt lat="42.91766" lon="0.23889">
        <ele>1702.15</ele>
        <time>2018-03-06T11:49:14Z</time>
      </trkpt>
      <trkpt lat="42.91776" lon="0.23895">
        <ele>1699.27</ele>
        <time>2018-03-06T11:49:25Z</time>
      </trkpt>
      <trkpt lat="42.91784" lon="0.23895">
        <ele>1695.9</ele>
        <time>2018-03-06T11:49:38Z</time>
      </trkpt>
      <trkpt lat="42.91794" lon="0.23898">
        <ele>1693.02</ele>
        <time>2018-03-06T11:49:49Z</time>
      </trkpt>
      <trkpt lat="42.91803" lon="0.239">
        <ele>1690.14</ele>
        <time>2018-03-06T11:50:00Z</time>
      </trkpt>
      <trkpt lat="42.91813" lon="0.23903">
        <ele>1687.25</ele>
        <time>2018-03-06T11:50:10Z</time>
      </trkpt>
      <trkpt lat="42.91817" lon="0.23904">
        <ele>1685.33</ele>
        <time>2018-03-06T11:50:14Z</time>
      </trkpt>
      <trkpt lat="42.91822" lon="0.23908">
        <ele>1683.41</ele>
        <time>2018-03-06T11:50:21Z</time>
      </trkpt>
      <trkpt lat="42.91833" lon="0.23913">
        <ele>1680.04</ele>
        <time>2018-03-06T11:50:33Z</time>
      </trkpt>
      <trkpt lat="42.9184" lon="0.23916">
        <ele>1677.16</ele>
        <time>2018-03-06T11:50:43Z</time>
      </trkpt>
      <trkpt lat="42.9185" lon="0.23919">
        <ele>1673.79</ele>
        <time>2018-03-06T11:50:55Z</time>
      </trkpt>
      <trkpt lat="42.91858" lon="0.23922">
        <ele>1670.91</ele>
        <time>2018-03-06T11:51:06Z</time>
      </trkpt>
      <trkpt lat="42.91865" lon="0.23924">
        <ele>1668.02</ele>
        <time>2018-03-06T11:51:15Z</time>
      </trkpt>
      <trkpt lat="42.91874" lon="0.23926">
        <ele>1664.66</ele>
        <time>2018-03-06T11:51:25Z</time>
      </trkpt>
      <trkpt lat="42.91883" lon="0.23928">
        <ele>1661.3</ele>
        <time>2018-03-06T11:51:37Z</time>
      </trkpt>
      <trkpt lat="42.91891" lon="0.2393">
        <ele>1657.93</ele>
        <time>2018-03-06T11:51:48Z</time>
      </trkpt>
      <trkpt lat="42.91898" lon="0.23932">
        <ele>1654.57</ele>
        <time>2018-03-06T11:51:58Z</time>
      </trkpt>
      <trkpt lat="42.91901" lon="0.23935">
        <ele>1653.6</ele>
        <time>2018-03-06T11:52:17Z</time>
      </trkpt>
      <trkpt lat="42.91911" lon="0.23937">
        <ele>1650.24</ele>
        <time>2018-03-06T11:52:29Z</time>
      </trkpt>
      <trkpt lat="42.9192" lon="0.2394">
        <ele>1647.36</ele>
        <time>2018-03-06T11:52:40Z</time>
      </trkpt>
      <trkpt lat="42.91929" lon="0.23943">
        <ele>1643.99</ele>
        <time>2018-03-06T11:52:51Z</time>
      </trkpt>
      <trkpt lat="42.91937" lon="0.23946">
        <ele>1641.11</ele>
        <time>2018-03-06T11:53:01Z</time>
      </trkpt>
      <trkpt lat="42.91946" lon="0.2395">
        <ele>1637.74</ele>
        <time>2018-03-06T11:53:12Z</time>
      </trkpt>
      <trkpt lat="42.91954" lon="0.23956">
        <ele>1635.82</ele>
        <time>2018-03-06T11:53:25Z</time>
      </trkpt>
      <trkpt lat="42.91963" lon="0.23959">
        <ele>1632.94</ele>
        <time>2018-03-06T11:53:39Z</time>
      </trkpt>
      <trkpt lat="42.91973" lon="0.23962">
        <ele>1630.05</ele>
        <time>2018-03-06T11:53:50Z</time>
      </trkpt>
      <trkpt lat="42.9198" lon="0.23962">
        <ele>1627.65</ele>
        <time>2018-03-06T11:53:58Z</time>
      </trkpt>
      <trkpt lat="42.91988" lon="0.23966">
        <ele>1625.25</ele>
        <time>2018-03-06T11:54:07Z</time>
      </trkpt>
      <trkpt lat="42.91996" lon="0.23969">
        <ele>1623.32</ele>
        <time>2018-03-06T11:54:22Z</time>
      </trkpt>
      <trkpt lat="42.92006" lon="0.23972">
        <ele>1620.44</ele>
        <time>2018-03-06T11:54:37Z</time>
      </trkpt>
      <trkpt lat="42.92016" lon="0.23976">
        <ele>1617.07</ele>
        <time>2018-03-06T11:54:49Z</time>
      </trkpt>
      <trkpt lat="42.92027" lon="0.23979">
        <ele>1614.19</ele>
        <time>2018-03-06T11:55:00Z</time>
      </trkpt>
      <trkpt lat="42.92038" lon="0.23983">
        <ele>1610.83</ele>
        <time>2018-03-06T11:55:11Z</time>
      </trkpt>
      <trkpt lat="42.92047" lon="0.23987">
        <ele>1607.94</ele>
        <time>2018-03-06T11:55:21Z</time>
      </trkpt>
      <trkpt lat="42.92054" lon="0.23989">
        <ele>1604.58</ele>
        <time>2018-03-06T11:55:30Z</time>
      </trkpt>
      <trkpt lat="42.9206" lon="0.23991">
        <ele>1603.14</ele>
        <time>2018-03-06T11:55:36Z</time>
      </trkpt>
      <trkpt lat="42.92062" lon="0.23991">
        <ele>1602.17</ele>
        <time>2018-03-06T11:55:38Z</time>
      </trkpt>
      <trkpt lat="42.92072" lon="0.23994">
        <ele>1598.81</ele>
        <time>2018-03-06T11:55:49Z</time>
      </trkpt>
      <trkpt lat="42.92082" lon="0.23996">
        <ele>1595.93</ele>
        <time>2018-03-06T11:55:59Z</time>
      </trkpt>
      <trkpt lat="42.92098" lon="0.24002">
        <ele>1592.56</ele>
        <time>2018-03-06T11:56:12Z</time>
      </trkpt>
      <trkpt lat="42.92112" lon="0.24004">
        <ele>1589.68</ele>
        <time>2018-03-06T11:56:23Z</time>
      </trkpt>
      <trkpt lat="42.92127" lon="0.24009">
        <ele>1586.31</ele>
        <time>2018-03-06T11:56:35Z</time>
      </trkpt>
      <trkpt lat="42.92143" lon="0.24016">
        <ele>1582.95</ele>
        <time>2018-03-06T11:56:49Z</time>
      </trkpt>
      <trkpt lat="42.92158" lon="0.24019">
        <ele>1580.06</ele>
        <time>2018-03-06T11:57:02Z</time>
      </trkpt>
      <trkpt lat="42.92171" lon="0.24016">
        <ele>1576.7</ele>
        <time>2018-03-06T11:57:13Z</time>
      </trkpt>
      <trkpt lat="42.92176" lon="0.24016">
        <ele>1575.74</ele>
        <time>2018-03-06T11:57:17Z</time>
      </trkpt>
      <trkpt lat="42.9219" lon="0.24016">
        <ele>1572.37</ele>
        <time>2018-03-06T11:57:30Z</time>
      </trkpt>
      <trkpt lat="42.92205" lon="0.24014">
        <ele>1569.01</ele>
        <time>2018-03-06T11:57:43Z</time>
      </trkpt>
      <trkpt lat="42.92219" lon="0.24016">
        <ele>1566.12</ele>
        <time>2018-03-06T11:57:56Z</time>
      </trkpt>
      <trkpt lat="42.92238" lon="0.24016">
        <ele>1562.76</ele>
        <time>2018-03-06T11:58:12Z</time>
      </trkpt>
      <trkpt lat="42.92255" lon="0.24022">
        <ele>1560.36</ele>
        <time>2018-03-06T11:58:27Z</time>
      </trkpt>
      <trkpt lat="42.92275" lon="0.24025">
        <ele>1556.99</ele>
        <time>2018-03-06T11:58:43Z</time>
      </trkpt>
      <trkpt lat="42.92293" lon="0.24026">
        <ele>1554.11</ele>
        <time>2018-03-06T11:58:58Z</time>
      </trkpt>
      <trkpt lat="42.9231" lon="0.24026">
        <ele>1550.74</ele>
        <time>2018-03-06T11:59:12Z</time>
      </trkpt>
      <trkpt lat="42.92325" lon="0.24027">
        <ele>1547.86</ele>
        <time>2018-03-06T11:59:25Z</time>
      </trkpt>
      <trkpt lat="42.92343" lon="0.24029">
        <ele>1544.5</ele>
        <time>2018-03-06T11:59:40Z</time>
      </trkpt>
      <trkpt lat="42.92361" lon="0.24029">
        <ele>1541.61</ele>
        <time>2018-03-06T11:59:55Z</time>
      </trkpt>
      <trkpt lat="42.92381" lon="0.24028">
        <ele>1538.73</ele>
        <time>2018-03-06T12:00:11Z</time>
      </trkpt>
      <trkpt lat="42.92397" lon="0.24027">
        <ele>1535.36</ele>
        <time>2018-03-06T12:00:26Z</time>
      </trkpt>
      <trkpt lat="42.92417" lon="0.24025">
        <ele>1532</ele>
        <time>2018-03-06T12:00:43Z</time>
      </trkpt>
      <trkpt lat="42.9244" lon="0.24026">
        <ele>1529.11</ele>
        <time>2018-03-06T12:01:01Z</time>
      </trkpt>
      <trkpt lat="42.92464" lon="0.24029">
        <ele>1526.23</ele>
        <time>2018-03-06T12:01:21Z</time>
      </trkpt>
      <trkpt lat="42.92483" lon="0.24032">
        <ele>1524.31</ele>
        <time>2018-03-06T12:01:37Z</time>
      </trkpt>
      <trkpt lat="42.92501" lon="0.24037">
        <ele>1522.39</ele>
        <time>2018-03-06T12:01:54Z</time>
      </trkpt>
      <trkpt lat="42.92516" lon="0.24045">
        <ele>1519.98</ele>
        <time>2018-03-06T12:02:08Z</time>
      </trkpt>
      <trkpt lat="42.92539" lon="0.24049">
        <ele>1517.1</ele>
        <time>2018-03-06T12:02:27Z</time>
      </trkpt>
      <trkpt lat="42.92549" lon="0.2405">
        <ele>1516.14</ele>
        <time>2018-03-06T12:02:39Z</time>
      </trkpt>
      <trkpt lat="42.92565" lon="0.24053">
        <ele>1513.25</ele>
        <time>2018-03-06T12:02:54Z</time>
      </trkpt>
      <trkpt lat="42.92584" lon="0.24056">
        <ele>1510.37</ele>
        <time>2018-03-06T12:03:11Z</time>
      </trkpt>
      <trkpt lat="42.92603" lon="0.24059">
        <ele>1507</ele>
        <time>2018-03-06T12:03:27Z</time>
      </trkpt>
      <trkpt lat="42.92605" lon="0.24061">
        <ele>1506.52</ele>
        <time>2018-03-06T12:03:40Z</time>
      </trkpt>
      <trkpt lat="42.92621" lon="0.24065">
        <ele>1504.12</ele>
        <time>2018-03-06T12:03:54Z</time>
      </trkpt>
      <trkpt lat="42.92643" lon="0.24072">
        <ele>1500.76</ele>
        <time>2018-03-06T12:04:13Z</time>
      </trkpt>
      <trkpt lat="42.92661" lon="0.24074">
        <ele>1498.35</ele>
        <time>2018-03-06T12:04:30Z</time>
      </trkpt>
      <trkpt lat="42.92679" lon="0.24079">
        <ele>1495.95</ele>
        <time>2018-03-06T12:04:45Z</time>
      </trkpt>
      <trkpt lat="42.92689" lon="0.24082">
        <ele>1494.51</ele>
        <time>2018-03-06T12:04:54Z</time>
      </trkpt>
      <trkpt lat="42.92711" lon="0.24087">
        <ele>1491.62</ele>
        <time>2018-03-06T12:05:13Z</time>
      </trkpt>
      <trkpt lat="42.92731" lon="0.24094">
        <ele>1488.26</ele>
        <time>2018-03-06T12:05:32Z</time>
      </trkpt>
      <trkpt lat="42.92733" lon="0.24095">
        <ele>1488.26</ele>
        <time>2018-03-06T12:05:36Z</time>
      </trkpt>
      <trkpt lat="42.92746" lon="0.24099">
        <ele>1486.34</ele>
        <time>2018-03-06T12:05:51Z</time>
      </trkpt>
      <trkpt lat="42.92747" lon="0.241">
        <ele>1485.85</ele>
        <time>2018-03-06T12:05:53Z</time>
      </trkpt>
      <trkpt lat="42.92758" lon="0.24105">
        <ele>1484.41</ele>
        <time>2018-03-06T12:06:03Z</time>
      </trkpt>
      <trkpt lat="42.92758" lon="0.24107">
        <ele>1483.93</ele>
        <time>2018-03-06T12:06:17Z</time>
      </trkpt>
      <trkpt lat="42.92756" lon="0.24105">
        <ele>1483.93</ele>
        <time>2018-03-06T12:06:24Z</time>
      </trkpt>
      <trkpt lat="42.92755" lon="0.24104">
        <ele>1482.97</ele>
        <time>2018-03-06T12:06:33Z</time>
      </trkpt>
      <trkpt lat="42.92754" lon="0.24104">
        <ele>1482.97</ele>
        <time>2018-03-06T12:07:18Z</time>
      </trkpt>
      <trkpt lat="42.92755" lon="0.24104">
        <ele>1483.45</ele>
        <time>2018-03-06T12:07:48Z</time>
      </trkpt>
      <trkpt lat="42.92756" lon="0.24103">
        <ele>1483.45</ele>
        <time>2018-03-06T12:08:26Z</time>
      </trkpt>
      <trkpt lat="42.92759" lon="0.24103">
        <ele>1483.45</ele>
        <time>2018-03-06T12:08:57Z</time>
      </trkpt>
      <trkpt lat="42.92761" lon="0.24101">
        <ele>1482.97</ele>
        <time>2018-03-06T12:09:29Z</time>
      </trkpt>
      <trkpt lat="42.9276" lon="0.24101">
        <ele>1482.97</ele>
        <time>2018-03-06T12:09:53Z</time>
      </trkpt>
      <trkpt lat="42.9276" lon="0.24101">
        <ele>1482.97</ele>
        <time>2018-03-06T12:10:20Z</time>
      </trkpt>
      <trkpt lat="42.92761" lon="0.24101">
        <ele>1483.45</ele>
        <time>2018-03-06T12:10:50Z</time>
      </trkpt>
      <trkpt lat="42.92762" lon="0.24104">
        <ele>1483.93</ele>
        <time>2018-03-06T12:11:06Z</time>
      </trkpt>
      <trkpt lat="42.92762" lon="0.24106">
        <ele>1483.93</ele>
        <time>2018-03-06T12:11:22Z</time>
      </trkpt>
      <trkpt lat="42.92771" lon="0.2411">
        <ele>1482.49</ele>
        <time>2018-03-06T12:11:35Z</time>
      </trkpt>
      <trkpt lat="42.9278" lon="0.24115">
        <ele>1481.05</ele>
        <time>2018-03-06T12:11:45Z</time>
      </trkpt>
      <trkpt lat="42.92784" lon="0.2412">
        <ele>1479.61</ele>
        <time>2018-03-06T12:11:52Z</time>
      </trkpt>
      <trkpt lat="42.92796" lon="0.24126">
        <ele>1476.72</ele>
        <time>2018-03-06T12:12:05Z</time>
      </trkpt>
      <trkpt lat="42.92809" lon="0.24138">
        <ele>1473.36</ele>
        <time>2018-03-06T12:12:19Z</time>
      </trkpt>
      <trkpt lat="42.92823" lon="0.24147">
        <ele>1470.47</ele>
        <time>2018-03-06T12:12:34Z</time>
      </trkpt>
      <trkpt lat="42.92833" lon="0.24152">
        <ele>1469.03</ele>
        <time>2018-03-06T12:12:48Z</time>
      </trkpt>
      <trkpt lat="42.92835" lon="0.24155">
        <ele>1468.55</ele>
        <time>2018-03-06T12:12:51Z</time>
      </trkpt>
      <trkpt lat="42.92847" lon="0.24161">
        <ele>1466.63</ele>
        <time>2018-03-06T12:13:04Z</time>
      </trkpt>
      <trkpt lat="42.92854" lon="0.24168">
        <ele>1465.19</ele>
        <time>2018-03-06T12:13:18Z</time>
      </trkpt>
      <trkpt lat="42.92868" lon="0.24175">
        <ele>1463.26</ele>
        <time>2018-03-06T12:13:31Z</time>
      </trkpt>
      <trkpt lat="42.92875" lon="0.24179">
        <ele>1461.82</ele>
        <time>2018-03-06T12:13:40Z</time>
      </trkpt>
      <trkpt lat="42.92886" lon="0.24191">
        <ele>1458.46</ele>
        <time>2018-03-06T12:13:54Z</time>
      </trkpt>
      <trkpt lat="42.92887" lon="0.24192">
        <ele>1458.46</ele>
        <time>2018-03-06T12:13:55Z</time>
      </trkpt>
      <trkpt lat="42.92896" lon="0.24198">
        <ele>1458.94</ele>
        <time>2018-03-06T12:14:09Z</time>
      </trkpt>
      <trkpt lat="42.92904" lon="0.24206">
        <ele>1457.98</ele>
        <time>2018-03-06T12:14:22Z</time>
      </trkpt>
      <trkpt lat="42.92911" lon="0.24208">
        <ele>1457.5</ele>
        <time>2018-03-06T12:14:28Z</time>
      </trkpt>
      <trkpt lat="42.92919" lon="0.24214">
        <ele>1456.53</ele>
        <time>2018-03-06T12:14:41Z</time>
      </trkpt>
      <trkpt lat="42.9293" lon="0.24217">
        <ele>1456.05</ele>
        <time>2018-03-06T12:14:55Z</time>
      </trkpt>
      <trkpt lat="42.92932" lon="0.24219">
        <ele>1455.57</ele>
        <time>2018-03-06T12:14:58Z</time>
      </trkpt>
      <trkpt lat="42.9294" lon="0.24223">
        <ele>1455.09</ele>
        <time>2018-03-06T12:15:07Z</time>
      </trkpt>
      <trkpt lat="42.9295" lon="0.24229">
        <ele>1454.13</ele>
        <time>2018-03-06T12:15:20Z</time>
      </trkpt>
      <trkpt lat="42.92956" lon="0.24234">
        <ele>1453.65</ele>
        <time>2018-03-06T12:15:27Z</time>
      </trkpt>
      <trkpt lat="42.92968" lon="0.24244">
        <ele>1452.21</ele>
        <time>2018-03-06T12:15:41Z</time>
      </trkpt>
      <trkpt lat="42.9297" lon="0.24244">
        <ele>1452.21</ele>
        <time>2018-03-06T12:15:43Z</time>
      </trkpt>
      <trkpt lat="42.92985" lon="0.24255">
        <ele>1451.73</ele>
        <time>2018-03-06T12:15:58Z</time>
      </trkpt>
      <trkpt lat="42.92991" lon="0.24264">
        <ele>1451.25</ele>
        <time>2018-03-06T12:16:08Z</time>
      </trkpt>
      <trkpt lat="42.93006" lon="0.24277">
        <ele>1451.73</ele>
        <time>2018-03-06T12:16:24Z</time>
      </trkpt>
      <trkpt lat="42.93009" lon="0.24279">
        <ele>1451.73</ele>
        <time>2018-03-06T12:16:27Z</time>
      </trkpt>
      <trkpt lat="42.9302" lon="0.24292">
        <ele>1452.21</ele>
        <time>2018-03-06T12:16:41Z</time>
      </trkpt>
      <trkpt lat="42.93032" lon="0.24303">
        <ele>1452.69</ele>
        <time>2018-03-06T12:16:55Z</time>
      </trkpt>
      <trkpt lat="42.93042" lon="0.2431">
        <ele>1453.17</ele>
        <time>2018-03-06T12:17:08Z</time>
      </trkpt>
      <trkpt lat="42.93045" lon="0.24311">
        <ele>1453.17</ele>
        <time>2018-03-06T12:17:11Z</time>
      </trkpt>
      <trkpt lat="42.93047" lon="0.24312">
        <ele>1453.65</ele>
        <time>2018-03-06T12:17:13Z</time>
      </trkpt>
      <trkpt lat="42.9305" lon="0.24313">
        <ele>1453.17</ele>
        <time>2018-03-06T12:17:16Z</time>
      </trkpt>
      <trkpt lat="42.93057" lon="0.24324">
        <ele>1453.17</ele>
        <time>2018-03-06T12:17:26Z</time>
      </trkpt>
      <trkpt lat="42.9306" lon="0.2433">
        <ele>1453.17</ele>
        <time>2018-03-06T12:17:31Z</time>
      </trkpt>
      <trkpt lat="42.93068" lon="0.24335">
        <ele>1453.17</ele>
        <time>2018-03-06T12:17:40Z</time>
      </trkpt>
      <trkpt lat="42.93085" lon="0.24348">
        <ele>1452.21</ele>
        <time>2018-03-06T12:17:58Z</time>
      </trkpt>
      <trkpt lat="42.93086" lon="0.24349">
        <ele>1452.21</ele>
        <time>2018-03-06T12:17:59Z</time>
      </trkpt>
      <trkpt lat="42.93089" lon="0.24356">
        <ele>1451.25</ele>
        <time>2018-03-06T12:18:13Z</time>
      </trkpt>
      <trkpt lat="42.93095" lon="0.2437">
        <ele>1450.29</ele>
        <time>2018-03-06T12:18:26Z</time>
      </trkpt>
      <trkpt lat="42.93114" lon="0.24386">
        <ele>1449.32</ele>
        <time>2018-03-06T12:18:44Z</time>
      </trkpt>
      <trkpt lat="42.93129" lon="0.24394">
        <ele>1448.36</ele>
        <time>2018-03-06T12:18:58Z</time>
      </trkpt>
      <trkpt lat="42.93139" lon="0.24401">
        <ele>1447.88</ele>
        <time>2018-03-06T12:19:12Z</time>
      </trkpt>
      <trkpt lat="42.93143" lon="0.24408">
        <ele>1447.88</ele>
        <time>2018-03-06T12:19:19Z</time>
      </trkpt>
      <trkpt lat="42.93144" lon="0.2441">
        <ele>1447.88</ele>
        <time>2018-03-06T12:19:21Z</time>
      </trkpt>
      <trkpt lat="42.9315" lon="0.24423">
        <ele>1447.88</ele>
        <time>2018-03-06T12:19:33Z</time>
      </trkpt>
      <trkpt lat="42.93158" lon="0.24429">
        <ele>1447.4</ele>
        <time>2018-03-06T12:19:43Z</time>
      </trkpt>
      <trkpt lat="42.93162" lon="0.24429">
        <ele>1447.4</ele>
        <time>2018-03-06T12:19:48Z</time>
      </trkpt>
      <trkpt lat="42.93171" lon="0.2444">
        <ele>1445.96</ele>
        <time>2018-03-06T12:20:03Z</time>
      </trkpt>
      <trkpt lat="42.93176" lon="0.24448">
        <ele>1445.96</ele>
        <time>2018-03-06T12:20:17Z</time>
      </trkpt>
      <trkpt lat="42.93184" lon="0.24459">
        <ele>1445.48</ele>
        <time>2018-03-06T12:20:29Z</time>
      </trkpt>
      <trkpt lat="42.93193" lon="0.24466">
        <ele>1444.52</ele>
        <time>2018-03-06T12:20:39Z</time>
      </trkpt>
      <trkpt lat="42.93205" lon="0.24479">
        <ele>1443.56</ele>
        <time>2018-03-06T12:20:54Z</time>
      </trkpt>
      <trkpt lat="42.93221" lon="0.2449">
        <ele>1442.6</ele>
        <time>2018-03-06T12:21:10Z</time>
      </trkpt>
      <trkpt lat="42.93225" lon="0.24497">
        <ele>1442.6</ele>
        <time>2018-03-06T12:21:16Z</time>
      </trkpt>
      <trkpt lat="42.93237" lon="0.24508">
        <ele>1440.19</ele>
        <time>2018-03-06T12:21:30Z</time>
      </trkpt>
      <trkpt lat="42.9325" lon="0.24519">
        <ele>1438.75</ele>
        <time>2018-03-06T12:21:44Z</time>
      </trkpt>
      <trkpt lat="42.93264" lon="0.24536">
        <ele>1437.31</ele>
        <time>2018-03-06T12:21:59Z</time>
      </trkpt>
      <trkpt lat="42.93275" lon="0.24553">
        <ele>1436.35</ele>
        <time>2018-03-06T12:22:13Z</time>
      </trkpt>
      <trkpt lat="42.93274" lon="0.24552">
        <ele>1435.87</ele>
        <time>2018-03-06T12:22:26Z</time>
      </trkpt>
      <trkpt lat="42.93284" lon="0.24561">
        <ele>1434.91</ele>
        <time>2018-03-06T12:22:43Z</time>
      </trkpt>
      <trkpt lat="42.93294" lon="0.24573">
        <ele>1434.42</ele>
        <time>2018-03-06T12:22:56Z</time>
      </trkpt>
      <trkpt lat="42.93303" lon="0.24588">
        <ele>1433.94</ele>
        <time>2018-03-06T12:23:11Z</time>
      </trkpt>
      <trkpt lat="42.93313" lon="0.24603">
        <ele>1431.54</ele>
        <time>2018-03-06T12:23:25Z</time>
      </trkpt>
      <trkpt lat="42.93324" lon="0.2462">
        <ele>1429.14</ele>
        <time>2018-03-06T12:23:41Z</time>
      </trkpt>
      <trkpt lat="42.93335" lon="0.24636">
        <ele>1426.73</ele>
        <time>2018-03-06T12:23:56Z</time>
      </trkpt>
      <trkpt lat="42.93351" lon="0.24653">
        <ele>1423.85</ele>
        <time>2018-03-06T12:24:14Z</time>
      </trkpt>
      <trkpt lat="42.93361" lon="0.24665">
        <ele>1420.49</ele>
        <time>2018-03-06T12:24:27Z</time>
      </trkpt>
      <trkpt lat="42.93374" lon="0.24682">
        <ele>1417.6</ele>
        <time>2018-03-06T12:24:43Z</time>
      </trkpt>
      <trkpt lat="42.93374" lon="0.24683">
        <ele>1417.12</ele>
        <time>2018-03-06T12:24:45Z</time>
      </trkpt>
      <trkpt lat="42.93385" lon="0.24695">
        <ele>1414.72</ele>
        <time>2018-03-06T12:24:59Z</time>
      </trkpt>
      <trkpt lat="42.93397" lon="0.24709">
        <ele>1412.31</ele>
        <time>2018-03-06T12:25:14Z</time>
      </trkpt>
      <trkpt lat="42.93401" lon="0.24716">
        <ele>1411.35</ele>
        <time>2018-03-06T12:25:20Z</time>
      </trkpt>
      <trkpt lat="42.93416" lon="0.2472">
        <ele>1408.95</ele>
        <time>2018-03-06T12:25:37Z</time>
      </trkpt>
      <trkpt lat="42.93417" lon="0.24722">
        <ele>1408.95</ele>
        <time>2018-03-06T12:25:39Z</time>
      </trkpt>
      <trkpt lat="42.93427" lon="0.24734">
        <ele>1406.07</ele>
        <time>2018-03-06T12:25:52Z</time>
      </trkpt>
      <trkpt lat="42.93441" lon="0.24743">
        <ele>1403.18</ele>
        <time>2018-03-06T12:26:06Z</time>
      </trkpt>
      <trkpt lat="42.93453" lon="0.24754">
        <ele>1401.74</ele>
        <time>2018-03-06T12:26:19Z</time>
      </trkpt>
      <trkpt lat="42.9346" lon="0.24763">
        <ele>1401.26</ele>
        <time>2018-03-06T12:26:28Z</time>
      </trkpt>
      <trkpt lat="42.93469" lon="0.24782">
        <ele>1399.34</ele>
        <time>2018-03-06T12:26:44Z</time>
      </trkpt>
      <trkpt lat="42.93479" lon="0.24791">
        <ele>1397.41</ele>
        <time>2018-03-06T12:26:58Z</time>
      </trkpt>
      <trkpt lat="42.93494" lon="0.24804">
        <ele>1394.53</ele>
        <time>2018-03-06T12:27:13Z</time>
      </trkpt>
      <trkpt lat="42.93507" lon="0.24829">
        <ele>1391.17</ele>
        <time>2018-03-06T12:27:29Z</time>
      </trkpt>
      <trkpt lat="42.93522" lon="0.2484">
        <ele>1388.76</ele>
        <time>2018-03-06T12:27:42Z</time>
      </trkpt>
      <trkpt lat="42.93538" lon="0.24844">
        <ele>1385.88</ele>
        <time>2018-03-06T12:27:55Z</time>
      </trkpt>
      <trkpt lat="42.93554" lon="0.2485">
        <ele>1383.96</ele>
        <time>2018-03-06T12:28:08Z</time>
      </trkpt>
      <trkpt lat="42.93562" lon="0.24861">
        <ele>1383.47</ele>
        <time>2018-03-06T12:28:23Z</time>
      </trkpt>
      <trkpt lat="42.93577" lon="0.24872">
        <ele>1382.03</ele>
        <time>2018-03-06T12:28:37Z</time>
      </trkpt>
      <trkpt lat="42.93596" lon="0.24885">
        <ele>1379.15</ele>
        <time>2018-03-06T12:28:53Z</time>
      </trkpt>
      <trkpt lat="42.93614" lon="0.24896">
        <ele>1376.26</ele>
        <time>2018-03-06T12:29:08Z</time>
      </trkpt>
      <trkpt lat="42.93634" lon="0.24913">
        <ele>1374.34</ele>
        <time>2018-03-06T12:29:25Z</time>
      </trkpt>
      <trkpt lat="42.93651" lon="0.24926">
        <ele>1372.9</ele>
        <time>2018-03-06T12:29:42Z</time>
      </trkpt>
      <trkpt lat="42.93669" lon="0.24937">
        <ele>1370.98</ele>
        <time>2018-03-06T12:29:57Z</time>
      </trkpt>
      <trkpt lat="42.93689" lon="0.24947">
        <ele>1368.57</ele>
        <time>2018-03-06T12:30:13Z</time>
      </trkpt>
      <trkpt lat="42.93705" lon="0.2496">
        <ele>1366.17</ele>
        <time>2018-03-06T12:30:28Z</time>
      </trkpt>
      <trkpt lat="42.93709" lon="0.2496">
        <ele>1365.69</ele>
        <time>2018-03-06T12:30:32Z</time>
      </trkpt>
      <trkpt lat="42.93726" lon="0.24967">
        <ele>1363.29</ele>
        <time>2018-03-06T12:30:45Z</time>
      </trkpt>
      <trkpt lat="42.93733" lon="0.24971">
        <ele>1362.33</ele>
        <time>2018-03-06T12:30:50Z</time>
      </trkpt>
      <trkpt lat="42.93738" lon="0.24977">
        <ele>1361.36</ele>
        <time>2018-03-06T12:30:56Z</time>
      </trkpt>
      <trkpt lat="42.93757" lon="0.24984">
        <ele>1358</ele>
        <time>2018-03-06T12:31:11Z</time>
      </trkpt>
      <trkpt lat="42.93772" lon="0.25003">
        <ele>1356.08</ele>
        <time>2018-03-06T12:31:27Z</time>
      </trkpt>
      <trkpt lat="42.93779" lon="0.25014">
        <ele>1354.63</ele>
        <time>2018-03-06T12:31:34Z</time>
      </trkpt>
      <trkpt lat="42.938" lon="0.25029">
        <ele>1351.75</ele>
        <time>2018-03-06T12:31:54Z</time>
      </trkpt>
      <trkpt lat="42.93802" lon="0.2503">
        <ele>1351.27</ele>
        <time>2018-03-06T12:31:56Z</time>
      </trkpt>
      <trkpt lat="42.93806" lon="0.25037">
        <ele>1350.31</ele>
        <time>2018-03-06T12:32:01Z</time>
      </trkpt>
      <trkpt lat="42.93809" lon="0.25044">
        <ele>1348.39</ele>
        <time>2018-03-06T12:32:06Z</time>
      </trkpt>
      <trkpt lat="42.93815" lon="0.2506">
        <ele>1345.02</ele>
        <time>2018-03-06T12:32:16Z</time>
      </trkpt>
      <trkpt lat="42.93826" lon="0.2507">
        <ele>1342.14</ele>
        <time>2018-03-06T12:32:27Z</time>
      </trkpt>
      <trkpt lat="42.93829" lon="0.25072">
        <ele>1341.66</ele>
        <time>2018-03-06T12:32:30Z</time>
      </trkpt>
      <trkpt lat="42.93836" lon="0.2507">
        <ele>1341.18</ele>
        <time>2018-03-06T12:32:36Z</time>
      </trkpt>
      <trkpt lat="42.93839" lon="0.25074">
        <ele>1340.22</ele>
        <time>2018-03-06T12:32:39Z</time>
      </trkpt>
      <trkpt lat="42.93842" lon="0.25077">
        <ele>1339.25</ele>
        <time>2018-03-06T12:32:41Z</time>
      </trkpt>
      <trkpt lat="42.93852" lon="0.25088">
        <ele>1340.7</ele>
        <time>2018-03-06T12:32:53Z</time>
      </trkpt>
      <trkpt lat="42.93857" lon="0.25091">
        <ele>1340.7</ele>
        <time>2018-03-06T12:32:57Z</time>
      </trkpt>
      <trkpt lat="42.93858" lon="0.25092">
        <ele>1340.7</ele>
        <time>2018-03-06T12:32:58Z</time>
      </trkpt>
      <trkpt lat="42.93858" lon="0.25094">
        <ele>1340.7</ele>
        <time>2018-03-06T12:32:59Z</time>
      </trkpt>
      <trkpt lat="42.93859" lon="0.25095">
        <ele>1341.18</ele>
        <time>2018-03-06T12:33:00Z</time>
      </trkpt>
      <trkpt lat="42.93859" lon="0.25097">
        <ele>1341.18</ele>
        <time>2018-03-06T12:33:01Z</time>
      </trkpt>
      <trkpt lat="42.9386" lon="0.25098">
        <ele>1340.7</ele>
        <time>2018-03-06T12:33:02Z</time>
      </trkpt>
      <trkpt lat="42.93861" lon="0.25099">
        <ele>1340.7</ele>
        <time>2018-03-06T12:33:03Z</time>
      </trkpt>
      <trkpt lat="42.93871" lon="0.25107">
        <ele>1340.7</ele>
        <time>2018-03-06T12:33:13Z</time>
      </trkpt>
      <trkpt lat="42.93872" lon="0.25107">
        <ele>1340.22</ele>
        <time>2018-03-06T12:33:14Z</time>
      </trkpt>
      <trkpt lat="42.93873" lon="0.25108">
        <ele>1340.22</ele>
        <time>2018-03-06T12:33:15Z</time>
      </trkpt>
      <trkpt lat="42.93876" lon="0.25115">
        <ele>1339.73</ele>
        <time>2018-03-06T12:33:19Z</time>
      </trkpt>
      <trkpt lat="42.93877" lon="0.25116">
        <ele>1339.25</ele>
        <time>2018-03-06T12:33:20Z</time>
      </trkpt>
      <trkpt lat="42.93892" lon="0.25127">
        <ele>1336.85</ele>
        <time>2018-03-06T12:33:34Z</time>
      </trkpt>
      <trkpt lat="42.93897" lon="0.2513">
        <ele>1337.33</ele>
        <time>2018-03-06T12:33:38Z</time>
      </trkpt>
      <trkpt lat="42.93898" lon="0.25131">
        <ele>1336.85</ele>
        <time>2018-03-06T12:33:39Z</time>
      </trkpt>
      <trkpt lat="42.93899" lon="0.25132">
        <ele>1336.85</ele>
        <time>2018-03-06T12:33:40Z</time>
      </trkpt>
      <trkpt lat="42.939" lon="0.25133">
        <ele>1336.37</ele>
        <time>2018-03-06T12:33:41Z</time>
      </trkpt>
      <trkpt lat="42.93901" lon="0.25133">
        <ele>1336.85</ele>
        <time>2018-03-06T12:33:42Z</time>
      </trkpt>
      <trkpt lat="42.93902" lon="0.25134">
        <ele>1336.37</ele>
        <time>2018-03-06T12:33:43Z</time>
      </trkpt>
      <trkpt lat="42.93904" lon="0.25134">
        <ele>1336.85</ele>
        <time>2018-03-06T12:33:44Z</time>
      </trkpt>
      <trkpt lat="42.93905" lon="0.25134">
        <ele>1336.37</ele>
        <time>2018-03-06T12:33:45Z</time>
      </trkpt>
      <trkpt lat="42.93917" lon="0.25143">
        <ele>1337.33</ele>
        <time>2018-03-06T12:33:58Z</time>
      </trkpt>
      <trkpt lat="42.93919" lon="0.25147">
        <ele>1337.33</ele>
        <time>2018-03-06T12:34:02Z</time>
      </trkpt>
      <trkpt lat="42.93932" lon="0.2516">
        <ele>1336.37</ele>
        <time>2018-03-06T12:34:17Z</time>
      </trkpt>
      <trkpt lat="42.93933" lon="0.25161">
        <ele>1335.89</ele>
        <time>2018-03-06T12:34:18Z</time>
      </trkpt>
      <trkpt lat="42.93934" lon="0.25161">
        <ele>1335.89</ele>
        <time>2018-03-06T12:34:19Z</time>
      </trkpt>
      <trkpt lat="42.93935" lon="0.25162">
        <ele>1335.89</ele>
        <time>2018-03-06T12:34:20Z</time>
      </trkpt>
      <trkpt lat="42.93936" lon="0.25165">
        <ele>1335.89</ele>
        <time>2018-03-06T12:34:21Z</time>
      </trkpt>
      <trkpt lat="42.93937" lon="0.25166">
        <ele>1335.89</ele>
        <time>2018-03-06T12:34:22Z</time>
      </trkpt>
      <trkpt lat="42.93938" lon="0.25167">
        <ele>1335.41</ele>
        <time>2018-03-06T12:34:23Z</time>
      </trkpt>
      <trkpt lat="42.9394" lon="0.25168">
        <ele>1334.45</ele>
        <time>2018-03-06T12:34:24Z</time>
      </trkpt>
      <trkpt lat="42.93941" lon="0.25168">
        <ele>1334.45</ele>
        <time>2018-03-06T12:34:25Z</time>
      </trkpt>
      <trkpt lat="42.93942" lon="0.2517">
        <ele>1333.97</ele>
        <time>2018-03-06T12:34:26Z</time>
      </trkpt>
      <trkpt lat="42.93943" lon="0.25171">
        <ele>1334.45</ele>
        <time>2018-03-06T12:34:27Z</time>
      </trkpt>
      <trkpt lat="42.93944" lon="0.25172">
        <ele>1334.45</ele>
        <time>2018-03-06T12:34:28Z</time>
      </trkpt>
      <trkpt lat="42.93945" lon="0.25173">
        <ele>1333.97</ele>
        <time>2018-03-06T12:34:29Z</time>
      </trkpt>
      <trkpt lat="42.93945" lon="0.25174">
        <ele>1333.97</ele>
        <time>2018-03-06T12:34:30Z</time>
      </trkpt>
      <trkpt lat="42.93947" lon="0.25175">
        <ele>1333.49</ele>
        <time>2018-03-06T12:34:31Z</time>
      </trkpt>
      <trkpt lat="42.93948" lon="0.25176">
        <ele>1333.49</ele>
        <time>2018-03-06T12:34:32Z</time>
      </trkpt>
      <trkpt lat="42.93956" lon="0.25186">
        <ele>1332.52</ele>
        <time>2018-03-06T12:34:41Z</time>
      </trkpt>
      <trkpt lat="42.93956" lon="0.25188">
        <ele>1332.52</ele>
        <time>2018-03-06T12:34:42Z</time>
      </trkpt>
      <trkpt lat="42.93957" lon="0.25189">
        <ele>1332.52</ele>
        <time>2018-03-06T12:34:43Z</time>
      </trkpt>
      <trkpt lat="42.93958" lon="0.25191">
        <ele>1332.52</ele>
        <time>2018-03-06T12:34:44Z</time>
      </trkpt>
      <trkpt lat="42.93959" lon="0.25192">
        <ele>1332.04</ele>
        <time>2018-03-06T12:34:45Z</time>
      </trkpt>
      <trkpt lat="42.93965" lon="0.25196">
        <ele>1331.08</ele>
        <time>2018-03-06T12:34:50Z</time>
      </trkpt>
      <trkpt lat="42.93966" lon="0.25196">
        <ele>1331.56</ele>
        <time>2018-03-06T12:34:51Z</time>
      </trkpt>
      <trkpt lat="42.93978" lon="0.25204">
        <ele>1330.12</ele>
        <time>2018-03-06T12:35:01Z</time>
      </trkpt>
      <trkpt lat="42.9399" lon="0.25217">
        <ele>1328.68</ele>
        <time>2018-03-06T12:35:14Z</time>
      </trkpt>
      <trkpt lat="42.94003" lon="0.25238">
        <ele>1327.72</ele>
        <time>2018-03-06T12:35:30Z</time>
      </trkpt>
      <trkpt lat="42.94005" lon="0.25245">
        <ele>1327.72</ele>
        <time>2018-03-06T12:35:35Z</time>
      </trkpt>
      <trkpt lat="42.94006" lon="0.25246">
        <ele>1327.24</ele>
        <time>2018-03-06T12:35:36Z</time>
      </trkpt>
      <trkpt lat="42.94007" lon="0.25247">
        <ele>1327.24</ele>
        <time>2018-03-06T12:35:37Z</time>
      </trkpt>
      <trkpt lat="42.9401" lon="0.2525">
        <ele>1326.76</ele>
        <time>2018-03-06T12:35:40Z</time>
      </trkpt>
      <trkpt lat="42.9401" lon="0.25252">
        <ele>1326.28</ele>
        <time>2018-03-06T12:35:41Z</time>
      </trkpt>
      <trkpt lat="42.94011" lon="0.25253">
        <ele>1326.28</ele>
        <time>2018-03-06T12:35:42Z</time>
      </trkpt>
      <trkpt lat="42.94011" lon="0.25255">
        <ele>1326.28</ele>
        <time>2018-03-06T12:35:43Z</time>
      </trkpt>
      <trkpt lat="42.94012" lon="0.25256">
        <ele>1326.28</ele>
        <time>2018-03-06T12:35:44Z</time>
      </trkpt>
      <trkpt lat="42.94012" lon="0.25258">
        <ele>1325.8</ele>
        <time>2018-03-06T12:35:45Z</time>
      </trkpt>
      <trkpt lat="42.94013" lon="0.25259">
        <ele>1325.8</ele>
        <time>2018-03-06T12:35:46Z</time>
      </trkpt>
      <trkpt lat="42.94015" lon="0.25273">
        <ele>1324.35</ele>
        <time>2018-03-06T12:35:54Z</time>
      </trkpt>
      <trkpt lat="42.94017" lon="0.25274">
        <ele>1323.87</ele>
        <time>2018-03-06T12:35:55Z</time>
      </trkpt>
      <trkpt lat="42.94018" lon="0.25276">
        <ele>1323.39</ele>
        <time>2018-03-06T12:35:56Z</time>
      </trkpt>
      <trkpt lat="42.94018" lon="0.25277">
        <ele>1323.39</ele>
        <time>2018-03-06T12:35:57Z</time>
      </trkpt>
      <trkpt lat="42.94018" lon="0.25278">
        <ele>1322.91</ele>
        <time>2018-03-06T12:35:58Z</time>
      </trkpt>
      <trkpt lat="42.94019" lon="0.2528">
        <ele>1322.91</ele>
        <time>2018-03-06T12:35:59Z</time>
      </trkpt>
      <trkpt lat="42.94019" lon="0.25281">
        <ele>1322.43</ele>
        <time>2018-03-06T12:36:00Z</time>
      </trkpt>
      <trkpt lat="42.9402" lon="0.25283">
        <ele>1322.43</ele>
        <time>2018-03-06T12:36:01Z</time>
      </trkpt>
      <trkpt lat="42.9402" lon="0.25289">
        <ele>1320.99</ele>
        <time>2018-03-06T12:36:04Z</time>
      </trkpt>
      <trkpt lat="42.9402" lon="0.25292">
        <ele>1320.51</ele>
        <time>2018-03-06T12:36:05Z</time>
      </trkpt>
      <trkpt lat="42.94018" lon="0.25298">
        <ele>1319.55</ele>
        <time>2018-03-06T12:36:10Z</time>
      </trkpt>
      <trkpt lat="42.9402" lon="0.25309">
        <ele>1317.14</ele>
        <time>2018-03-06T12:36:17Z</time>
      </trkpt>
      <trkpt lat="42.94021" lon="0.2531">
        <ele>1316.66</ele>
        <time>2018-03-06T12:36:18Z</time>
      </trkpt>
      <trkpt lat="42.94023" lon="0.2531">
        <ele>1316.66</ele>
        <time>2018-03-06T12:36:19Z</time>
      </trkpt>
      <trkpt lat="42.94028" lon="0.2532">
        <ele>1315.7</ele>
        <time>2018-03-06T12:36:27Z</time>
      </trkpt>
      <trkpt lat="42.94038" lon="0.25338">
        <ele>1315.22</ele>
        <time>2018-03-06T12:36:43Z</time>
      </trkpt>
      <trkpt lat="42.94041" lon="0.25341">
        <ele>1316.66</ele>
        <time>2018-03-06T12:36:47Z</time>
      </trkpt>
      <trkpt lat="42.94042" lon="0.25342">
        <ele>1316.18</ele>
        <time>2018-03-06T12:36:48Z</time>
      </trkpt>
      <trkpt lat="42.94054" lon="0.25352">
        <ele>1317.62</ele>
        <time>2018-03-06T12:37:03Z</time>
      </trkpt>
      <trkpt lat="42.94056" lon="0.25355">
        <ele>1317.62</ele>
        <time>2018-03-06T12:37:06Z</time>
      </trkpt>
      <trkpt lat="42.94056" lon="0.25356">
        <ele>1317.62</ele>
        <time>2018-03-06T12:37:07Z</time>
      </trkpt>
      <trkpt lat="42.94056" lon="0.25358">
        <ele>1318.1</ele>
        <time>2018-03-06T12:37:08Z</time>
      </trkpt>
      <trkpt lat="42.94058" lon="0.25368">
        <ele>1318.1</ele>
        <time>2018-03-06T12:37:19Z</time>
      </trkpt>
      <trkpt lat="42.94059" lon="0.25369">
        <ele>1318.1</ele>
        <time>2018-03-06T12:37:20Z</time>
      </trkpt>
      <trkpt lat="42.9406" lon="0.2537">
        <ele>1318.1</ele>
        <time>2018-03-06T12:37:21Z</time>
      </trkpt>
      <trkpt lat="42.94071" lon="0.25386">
        <ele>1316.66</ele>
        <time>2018-03-06T12:37:34Z</time>
      </trkpt>
      <trkpt lat="42.94084" lon="0.254">
        <ele>1313.78</ele>
        <time>2018-03-06T12:37:49Z</time>
      </trkpt>
      <trkpt lat="42.9409" lon="0.2541">
        <ele>1310.9</ele>
        <time>2018-03-06T12:37:57Z</time>
      </trkpt>
      <trkpt lat="42.94093" lon="0.25417">
        <ele>1309.45</ele>
        <time>2018-03-06T12:38:02Z</time>
      </trkpt>
      <trkpt lat="42.94094" lon="0.25418">
        <ele>1308.97</ele>
        <time>2018-03-06T12:38:03Z</time>
      </trkpt>
      <trkpt lat="42.94095" lon="0.25418">
        <ele>1308.49</ele>
        <time>2018-03-06T12:38:04Z</time>
      </trkpt>
      <trkpt lat="42.94097" lon="0.25419">
        <ele>1308.49</ele>
        <time>2018-03-06T12:38:05Z</time>
      </trkpt>
      <trkpt lat="42.94098" lon="0.2542">
        <ele>1308.49</ele>
        <time>2018-03-06T12:38:06Z</time>
      </trkpt>
      <trkpt lat="42.94099" lon="0.25421">
        <ele>1308.49</ele>
        <time>2018-03-06T12:38:07Z</time>
      </trkpt>
      <trkpt lat="42.94099" lon="0.25423">
        <ele>1308.01</ele>
        <time>2018-03-06T12:38:08Z</time>
      </trkpt>
      <trkpt lat="42.94101" lon="0.2543">
        <ele>1307.05</ele>
        <time>2018-03-06T12:38:13Z</time>
      </trkpt>
      <trkpt lat="42.941" lon="0.25431">
        <ele>1306.57</ele>
        <time>2018-03-06T12:38:14Z</time>
      </trkpt>
      <trkpt lat="42.941" lon="0.25433">
        <ele>1306.09</ele>
        <time>2018-03-06T12:38:15Z</time>
      </trkpt>
      <trkpt lat="42.94101" lon="0.25436">
        <ele>1305.13</ele>
        <time>2018-03-06T12:38:17Z</time>
      </trkpt>
      <trkpt lat="42.94102" lon="0.25437">
        <ele>1305.13</ele>
        <time>2018-03-06T12:38:18Z</time>
      </trkpt>
      <trkpt lat="42.9411" lon="0.25448">
        <ele>1301.76</ele>
        <time>2018-03-06T12:38:26Z</time>
      </trkpt>
      <trkpt lat="42.94123" lon="0.25465">
        <ele>1299.36</ele>
        <time>2018-03-06T12:38:41Z</time>
      </trkpt>
      <trkpt lat="42.94139" lon="0.2548">
        <ele>1296.48</ele>
        <time>2018-03-06T12:38:56Z</time>
      </trkpt>
      <trkpt lat="42.94158" lon="0.25499">
        <ele>1294.55</ele>
        <time>2018-03-06T12:39:14Z</time>
      </trkpt>
      <trkpt lat="42.94172" lon="0.25512">
        <ele>1292.15</ele>
        <time>2018-03-06T12:39:28Z</time>
      </trkpt>
      <trkpt lat="42.94179" lon="0.25523">
        <ele>1289.75</ele>
        <time>2018-03-06T12:39:37Z</time>
      </trkpt>
      <trkpt lat="42.9419" lon="0.25543">
        <ele>1286.86</ele>
        <time>2018-03-06T12:39:50Z</time>
      </trkpt>
      <trkpt lat="42.94199" lon="0.25563">
        <ele>1283.5</ele>
        <time>2018-03-06T12:40:04Z</time>
      </trkpt>
      <trkpt lat="42.94205" lon="0.25591">
        <ele>1281.09</ele>
        <time>2018-03-06T12:40:20Z</time>
      </trkpt>
      <trkpt lat="42.94209" lon="0.25616">
        <ele>1279.65</ele>
        <time>2018-03-06T12:40:36Z</time>
      </trkpt>
      <trkpt lat="42.94208" lon="0.25619">
        <ele>1279.17</ele>
        <time>2018-03-06T12:40:38Z</time>
      </trkpt>
      <trkpt lat="42.94208" lon="0.25624">
        <ele>1279.65</ele>
        <time>2018-03-06T12:40:42Z</time>
      </trkpt>
      <trkpt lat="42.94196" lon="0.25638">
        <ele>1275.81</ele>
        <time>2018-03-06T12:40:55Z</time>
      </trkpt>
      <trkpt lat="42.94195" lon="0.25639">
        <ele>1275.33</ele>
        <time>2018-03-06T12:40:56Z</time>
      </trkpt>
      <trkpt lat="42.94193" lon="0.25641">
        <ele>1274.36</ele>
        <time>2018-03-06T12:40:58Z</time>
      </trkpt>
      <trkpt lat="42.94193" lon="0.25651">
        <ele>1273.4</ele>
        <time>2018-03-06T12:41:04Z</time>
      </trkpt>
      <trkpt lat="42.94196" lon="0.25672">
        <ele>1270.04</ele>
        <time>2018-03-06T12:41:18Z</time>
      </trkpt>
      <trkpt lat="42.94198" lon="0.25694">
        <ele>1266.67</ele>
        <time>2018-03-06T12:41:30Z</time>
      </trkpt>
      <trkpt lat="42.942" lon="0.25722">
        <ele>1264.27</ele>
        <time>2018-03-06T12:41:47Z</time>
      </trkpt>
      <trkpt lat="42.942" lon="0.25735">
        <ele>1263.31</ele>
        <time>2018-03-06T12:41:55Z</time>
      </trkpt>
      <trkpt lat="42.942" lon="0.25741">
        <ele>1262.83</ele>
        <time>2018-03-06T12:41:59Z</time>
      </trkpt>
      <trkpt lat="42.94202" lon="0.25752">
        <ele>1261.87</ele>
        <time>2018-03-06T12:42:06Z</time>
      </trkpt>
      <trkpt lat="42.94205" lon="0.25759">
        <ele>1261.87</ele>
        <time>2018-03-06T12:42:11Z</time>
      </trkpt>
      <trkpt lat="42.94209" lon="0.25781">
        <ele>1260.43</ele>
        <time>2018-03-06T12:42:28Z</time>
      </trkpt>
      <trkpt lat="42.94211" lon="0.25792">
        <ele>1259.46</ele>
        <time>2018-03-06T12:42:39Z</time>
      </trkpt>
      <trkpt lat="42.94213" lon="0.25798">
        <ele>1258.98</ele>
        <time>2018-03-06T12:42:46Z</time>
      </trkpt>
      <trkpt lat="42.94215" lon="0.25802">
        <ele>1258.5</ele>
        <time>2018-03-06T12:42:49Z</time>
      </trkpt>
      <trkpt lat="42.94223" lon="0.25826">
        <ele>1256.58</ele>
        <time>2018-03-06T12:43:07Z</time>
      </trkpt>
      <trkpt lat="42.94235" lon="0.25845">
        <ele>1255.62</ele>
        <time>2018-03-06T12:43:23Z</time>
      </trkpt>
      <trkpt lat="42.94238" lon="0.25853">
        <ele>1255.62</ele>
        <time>2018-03-06T12:43:29Z</time>
      </trkpt>
      <trkpt lat="42.94241" lon="0.25861">
        <ele>1255.14</ele>
        <time>2018-03-06T12:43:36Z</time>
      </trkpt>
      <trkpt lat="42.94246" lon="0.25866">
        <ele>1254.66</ele>
        <time>2018-03-06T12:43:43Z</time>
      </trkpt>
      <trkpt lat="42.94247" lon="0.25871">
        <ele>1254.66</ele>
        <time>2018-03-06T12:43:47Z</time>
      </trkpt>
      <trkpt lat="42.94247" lon="0.25889">
        <ele>1252.74</ele>
        <time>2018-03-06T12:44:03Z</time>
      </trkpt>
      <trkpt lat="42.9425" lon="0.25903">
        <ele>1250.81</ele>
        <time>2018-03-06T12:44:17Z</time>
      </trkpt>
      <trkpt lat="42.94255" lon="0.2592">
        <ele>1248.89</ele>
        <time>2018-03-06T12:44:32Z</time>
      </trkpt>
      <trkpt lat="42.9426" lon="0.25938">
        <ele>1247.93</ele>
        <time>2018-03-06T12:44:48Z</time>
      </trkpt>
      <trkpt lat="42.94263" lon="0.25954">
        <ele>1247.93</ele>
        <time>2018-03-06T12:45:03Z</time>
      </trkpt>
      <trkpt lat="42.94264" lon="0.25971">
        <ele>1247.45</ele>
        <time>2018-03-06T12:45:19Z</time>
      </trkpt>
      <trkpt lat="42.94265" lon="0.25975">
        <ele>1247.45</ele>
        <time>2018-03-06T12:45:22Z</time>
      </trkpt>
      <trkpt lat="42.94266" lon="0.25996">
        <ele>1246.97</ele>
        <time>2018-03-06T12:45:40Z</time>
      </trkpt>
      <trkpt lat="42.94267" lon="0.26016">
        <ele>1245.53</ele>
        <time>2018-03-06T12:45:57Z</time>
      </trkpt>
      <trkpt lat="42.94267" lon="0.26034">
        <ele>1245.04</ele>
        <time>2018-03-06T12:46:13Z</time>
      </trkpt>
      <trkpt lat="42.94265" lon="0.26053">
        <ele>1243.6</ele>
        <time>2018-03-06T12:46:27Z</time>
      </trkpt>
      <trkpt lat="42.94264" lon="0.26058">
        <ele>1243.12</ele>
        <time>2018-03-06T12:46:30Z</time>
      </trkpt>
      <trkpt lat="42.94264" lon="0.26066">
        <ele>1242.64</ele>
        <time>2018-03-06T12:46:35Z</time>
      </trkpt>
      <trkpt lat="42.9426" lon="0.26089">
        <ele>1241.2</ele>
        <time>2018-03-06T12:46:51Z</time>
      </trkpt>
      <trkpt lat="42.94256" lon="0.2611">
        <ele>1241.2</ele>
        <time>2018-03-06T12:47:06Z</time>
      </trkpt>
      <trkpt lat="42.94254" lon="0.26128">
        <ele>1240.72</ele>
        <time>2018-03-06T12:47:20Z</time>
      </trkpt>
      <trkpt lat="42.94251" lon="0.26144">
        <ele>1240.24</ele>
        <time>2018-03-06T12:47:34Z</time>
      </trkpt>
      <trkpt lat="42.94249" lon="0.26159">
        <ele>1240.24</ele>
        <time>2018-03-06T12:47:48Z</time>
      </trkpt>
      <trkpt lat="42.94246" lon="0.26165">
        <ele>1240.24</ele>
        <time>2018-03-06T12:48:01Z</time>
      </trkpt>
      <trkpt lat="42.94241" lon="0.26172">
        <ele>1240.24</ele>
        <time>2018-03-06T12:48:14Z</time>
      </trkpt>
      <trkpt lat="42.94242" lon="0.26175">
        <ele>1240.24</ele>
        <time>2018-03-06T12:48:19Z</time>
      </trkpt>
      <trkpt lat="42.94247" lon="0.26182">
        <ele>1239.28</ele>
        <time>2018-03-06T12:48:28Z</time>
      </trkpt>
      <trkpt lat="42.94249" lon="0.26184">
        <ele>1239.76</ele>
        <time>2018-03-06T12:48:30Z</time>
      </trkpt>
      <trkpt lat="42.94262" lon="0.26203">
        <ele>1238.32</ele>
        <time>2018-03-06T12:48:47Z</time>
      </trkpt>
      <trkpt lat="42.94266" lon="0.26211">
        <ele>1237.83</ele>
        <time>2018-03-06T12:48:53Z</time>
      </trkpt>
      <trkpt lat="42.9427" lon="0.26217">
        <ele>1237.35</ele>
        <time>2018-03-06T12:49:06Z</time>
      </trkpt>
      <trkpt lat="42.94288" lon="0.26234">
        <ele>1235.43</ele>
        <time>2018-03-06T12:49:27Z</time>
      </trkpt>
      <trkpt lat="42.94297" lon="0.26238">
        <ele>1233.99</ele>
        <time>2018-03-06T12:49:39Z</time>
      </trkpt>
      <trkpt lat="42.94318" lon="0.26242">
        <ele>1232.55</ele>
        <time>2018-03-06T12:49:57Z</time>
      </trkpt>
      <trkpt lat="42.94331" lon="0.2625">
        <ele>1232.07</ele>
        <time>2018-03-06T12:50:12Z</time>
      </trkpt>
      <trkpt lat="42.94339" lon="0.26258">
        <ele>1232.55</ele>
        <time>2018-03-06T12:50:24Z</time>
      </trkpt>
      <trkpt lat="42.94344" lon="0.2626">
        <ele>1232.07</ele>
        <time>2018-03-06T12:50:41Z</time>
      </trkpt>
      <trkpt lat="42.94351" lon="0.26265">
        <ele>1230.62</ele>
        <time>2018-03-06T12:50:56Z</time>
      </trkpt>
      <trkpt lat="42.94366" lon="0.26282">
        <ele>1227.26</ele>
        <time>2018-03-06T12:51:12Z</time>
      </trkpt>
      <trkpt lat="42.9437" lon="0.26287">
        <ele>1226.78</ele>
        <time>2018-03-06T12:51:16Z</time>
      </trkpt>
      <trkpt lat="42.94378" lon="0.26302">
        <ele>1225.34</ele>
        <time>2018-03-06T12:51:29Z</time>
      </trkpt>
      <trkpt lat="42.94393" lon="0.26325">
        <ele>1223.9</ele>
        <time>2018-03-06T12:51:46Z</time>
      </trkpt>
      <trkpt lat="42.944" lon="0.26346">
        <ele>1224.86</ele>
        <time>2018-03-06T12:52:01Z</time>
      </trkpt>
      <trkpt lat="42.94403" lon="0.26357">
        <ele>1224.86</ele>
        <time>2018-03-06T12:52:13Z</time>
      </trkpt>
      <trkpt lat="42.94407" lon="0.2637">
        <ele>1226.78</ele>
        <time>2018-03-06T12:52:25Z</time>
      </trkpt>
      <trkpt lat="42.94408" lon="0.26371">
        <ele>1226.78</ele>
        <time>2018-03-06T12:52:26Z</time>
      </trkpt>
      <trkpt lat="42.94409" lon="0.26374">
        <ele>1227.26</ele>
        <time>2018-03-06T12:52:28Z</time>
      </trkpt>
      <trkpt lat="42.94395" lon="0.26388">
        <ele>1225.82</ele>
        <time>2018-03-06T12:52:43Z</time>
      </trkpt>
      <trkpt lat="42.94375" lon="0.26383">
        <ele>1224.38</ele>
        <time>2018-03-06T12:52:58Z</time>
      </trkpt>
      <trkpt lat="42.94358" lon="0.26378">
        <ele>1223.42</ele>
        <time>2018-03-06T12:53:11Z</time>
      </trkpt>
      <trkpt lat="42.94337" lon="0.26378">
        <ele>1222.45</ele>
        <time>2018-03-06T12:53:26Z</time>
      </trkpt>
      <trkpt lat="42.9432" lon="0.2638">
        <ele>1220.53</ele>
        <time>2018-03-06T12:53:40Z</time>
      </trkpt>
      <trkpt lat="42.94319" lon="0.26379">
        <ele>1221.01</ele>
        <time>2018-03-06T12:53:41Z</time>
      </trkpt>
      <trkpt lat="42.94311" lon="0.26383">
        <ele>1219.57</ele>
        <time>2018-03-06T12:53:47Z</time>
      </trkpt>
      <trkpt lat="42.94294" lon="0.26401">
        <ele>1218.13</ele>
        <time>2018-03-06T12:54:04Z</time>
      </trkpt>
      <trkpt lat="42.94276" lon="0.26415">
        <ele>1217.17</ele>
        <time>2018-03-06T12:54:21Z</time>
      </trkpt>
      <trkpt lat="42.94259" lon="0.26429">
        <ele>1215.72</ele>
        <time>2018-03-06T12:54:37Z</time>
      </trkpt>
      <trkpt lat="42.9425" lon="0.26438">
        <ele>1215.24</ele>
        <time>2018-03-06T12:54:47Z</time>
      </trkpt>
      <trkpt lat="42.94246" lon="0.26441">
        <ele>1214.76</ele>
        <time>2018-03-06T12:54:51Z</time>
      </trkpt>
      <trkpt lat="42.9423" lon="0.26461">
        <ele>1213.8</ele>
        <time>2018-03-06T12:55:10Z</time>
      </trkpt>
      <trkpt lat="42.94218" lon="0.26474">
        <ele>1213.8</ele>
        <time>2018-03-06T12:55:25Z</time>
      </trkpt>
      <trkpt lat="42.94204" lon="0.26486">
        <ele>1213.8</ele>
        <time>2018-03-06T12:55:39Z</time>
      </trkpt>
      <trkpt lat="42.9419" lon="0.265">
        <ele>1213.8</ele>
        <time>2018-03-06T12:55:55Z</time>
      </trkpt>
      <trkpt lat="42.94174" lon="0.26516">
        <ele>1213.8</ele>
        <time>2018-03-06T12:56:13Z</time>
      </trkpt>
      <trkpt lat="42.94164" lon="0.26529">
        <ele>1214.76</ele>
        <time>2018-03-06T12:56:29Z</time>
      </trkpt>
      <trkpt lat="42.94153" lon="0.26537">
        <ele>1214.76</ele>
        <time>2018-03-06T12:56:44Z</time>
      </trkpt>
      <trkpt lat="42.94144" lon="0.26551">
        <ele>1214.76</ele>
        <time>2018-03-06T12:56:59Z</time>
      </trkpt>
      <trkpt lat="42.94141" lon="0.26554">
        <ele>1214.76</ele>
        <time>2018-03-06T12:57:03Z</time>
      </trkpt>
      <trkpt lat="42.94138" lon="0.26558">
        <ele>1214.76</ele>
        <time>2018-03-06T12:57:08Z</time>
      </trkpt>
      <trkpt lat="42.9413" lon="0.2657">
        <ele>1214.76</ele>
        <time>2018-03-06T12:57:22Z</time>
      </trkpt>
      <trkpt lat="42.9413" lon="0.26571">
        <ele>1214.76</ele>
        <time>2018-03-06T12:57:27Z</time>
      </trkpt>
      <trkpt lat="42.94126" lon="0.26579">
        <ele>1214.76</ele>
        <time>2018-03-06T12:57:34Z</time>
      </trkpt>
      <trkpt lat="42.94124" lon="0.26584">
        <ele>1215.72</ele>
        <time>2018-03-06T12:57:38Z</time>
      </trkpt>
      <trkpt lat="42.94119" lon="0.26591">
        <ele>1214.28</ele>
        <time>2018-03-06T12:57:45Z</time>
      </trkpt>
      <trkpt lat="42.94108" lon="0.26596">
        <ele>1213.32</ele>
        <time>2018-03-06T12:58:01Z</time>
      </trkpt>
      <trkpt lat="42.94108" lon="0.26596">
        <ele>1212.84</ele>
        <time>2018-03-06T12:58:12Z</time>
      </trkpt>
      <trkpt lat="42.94107" lon="0.26596">
        <ele>1212.36</ele>
        <time>2018-03-06T12:58:43Z</time>
      </trkpt>
      <trkpt lat="42.94107" lon="0.26595">
        <ele>1212.36</ele>
        <time>2018-03-06T12:59:15Z</time>
      </trkpt>
      <trkpt lat="42.94108" lon="0.26587">
        <ele>1212.36</ele>
        <time>2018-03-06T12:59:56Z</time>
      </trkpt>
      <trkpt lat="42.94106" lon="0.26584">
        <ele>1212.84</ele>
        <time>2018-03-06T13:00:34Z</time>
      </trkpt>
      <trkpt lat="42.94104" lon="0.26584">
        <ele>1212.84</ele>
        <time>2018-03-06T13:01:07Z</time>
      </trkpt>
      <trkpt lat="42.94102" lon="0.26583">
        <ele>1213.32</ele>
        <time>2018-03-06T13:01:43Z</time>
      </trkpt>
      <trkpt lat="42.94109" lon="0.26584">
        <ele>1214.28</ele>
        <time>2018-03-06T13:01:58Z</time>
      </trkpt>
      <trkpt lat="42.9411" lon="0.26584">
        <ele>1214.28</ele>
        <time>2018-03-06T13:02:16Z</time>
      </trkpt>
      <trkpt lat="42.94108" lon="0.2658">
        <ele>1213.8</ele>
        <time>2018-03-06T13:02:30Z</time>
      </trkpt>
      <trkpt lat="42.941" lon="0.26568">
        <ele>1213.32</ele>
        <time>2018-03-06T13:02:41Z</time>
      </trkpt>
      <trkpt lat="42.94094" lon="0.26548">
        <ele>1212.36</ele>
        <time>2018-03-06T13:02:57Z</time>
      </trkpt>
      <trkpt lat="42.94093" lon="0.26545">
        <ele>1211.88</ele>
        <time>2018-03-06T13:03:03Z</time>
      </trkpt>
      <trkpt lat="42.94084" lon="0.26514">
        <ele>1209</ele>
        <time>2018-03-06T13:03:20Z</time>
      </trkpt>
      <trkpt lat="42.94066" lon="0.265">
        <ele>1207.55</ele>
        <time>2018-03-06T13:03:36Z</time>
      </trkpt>
      <trkpt lat="42.94049" lon="0.26505">
        <ele>1206.11</ele>
        <time>2018-03-06T13:03:50Z</time>
      </trkpt>
      <trkpt lat="42.94035" lon="0.26502">
        <ele>1205.63</ele>
        <time>2018-03-06T13:04:05Z</time>
      </trkpt>
      <trkpt lat="42.94025" lon="0.26499">
        <ele>1204.67</ele>
        <time>2018-03-06T13:04:16Z</time>
      </trkpt>
      <trkpt lat="42.94006" lon="0.26489">
        <ele>1203.23</ele>
        <time>2018-03-06T13:04:34Z</time>
      </trkpt>
      <trkpt lat="42.94003" lon="0.26483">
        <ele>1203.23</ele>
        <time>2018-03-06T13:04:41Z</time>
      </trkpt>
      <trkpt lat="42.93991" lon="0.26459">
        <ele>1202.27</ele>
        <time>2018-03-06T13:04:56Z</time>
      </trkpt>
      <trkpt lat="42.93985" lon="0.26446">
        <ele>1201.79</ele>
        <time>2018-03-06T13:05:10Z</time>
      </trkpt>
      <trkpt lat="42.93975" lon="0.26435">
        <ele>1200.34</ele>
        <time>2018-03-06T13:05:23Z</time>
      </trkpt>
      <trkpt lat="42.93961" lon="0.26444">
        <ele>1199.38</ele>
        <time>2018-03-06T13:05:38Z</time>
      </trkpt>
      <trkpt lat="42.93949" lon="0.26463">
        <ele>1199.38</ele>
        <time>2018-03-06T13:05:54Z</time>
      </trkpt>
      <trkpt lat="42.9394" lon="0.26481">
        <ele>1199.38</ele>
        <time>2018-03-06T13:06:10Z</time>
      </trkpt>
      <trkpt lat="42.93939" lon="0.26486">
        <ele>1199.86</ele>
        <time>2018-03-06T13:06:15Z</time>
      </trkpt>
      <trkpt lat="42.9393" lon="0.26506">
        <ele>1198.42</ele>
        <time>2018-03-06T13:06:30Z</time>
      </trkpt>
      <trkpt lat="42.93917" lon="0.26525">
        <ele>1197.46</ele>
        <time>2018-03-06T13:06:45Z</time>
      </trkpt>
      <trkpt lat="42.93908" lon="0.26521">
        <ele>1196.02</ele>
        <time>2018-03-06T13:06:54Z</time>
      </trkpt>
      <trkpt lat="42.93897" lon="0.26499">
        <ele>1194.09</ele>
        <time>2018-03-06T13:07:11Z</time>
      </trkpt>
      <trkpt lat="42.93892" lon="0.26488">
        <ele>1193.13</ele>
        <time>2018-03-06T13:07:18Z</time>
      </trkpt>
      <trkpt lat="42.93891" lon="0.26485">
        <ele>1193.13</ele>
        <time>2018-03-06T13:07:20Z</time>
      </trkpt>
      <trkpt lat="42.93883" lon="0.26467">
        <ele>1193.13</ele>
        <time>2018-03-06T13:07:36Z</time>
      </trkpt>
      <trkpt lat="42.93873" lon="0.2645">
        <ele>1193.61</ele>
        <time>2018-03-06T13:07:51Z</time>
      </trkpt>
      <trkpt lat="42.93863" lon="0.26445">
        <ele>1193.61</ele>
        <time>2018-03-06T13:08:03Z</time>
      </trkpt>
      <trkpt lat="42.93859" lon="0.26446">
        <ele>1193.13</ele>
        <time>2018-03-06T13:08:14Z</time>
      </trkpt>
      <trkpt lat="42.9385" lon="0.26459">
        <ele>1194.09</ele>
        <time>2018-03-06T13:08:28Z</time>
      </trkpt>
      <trkpt lat="42.93847" lon="0.26472">
        <ele>1195.06</ele>
        <time>2018-03-06T13:08:38Z</time>
      </trkpt>
      <trkpt lat="42.93847" lon="0.26478">
        <ele>1195.54</ele>
        <time>2018-03-06T13:08:42Z</time>
      </trkpt>
      <trkpt lat="42.93839" lon="0.26507">
        <ele>1194.09</ele>
        <time>2018-03-06T13:09:01Z</time>
      </trkpt>
      <trkpt lat="42.93833" lon="0.26533">
        <ele>1193.13</ele>
        <time>2018-03-06T13:09:18Z</time>
      </trkpt>
      <trkpt lat="42.93832" lon="0.26535">
        <ele>1193.13</ele>
        <time>2018-03-06T13:09:20Z</time>
      </trkpt>
      <trkpt lat="42.9383" lon="0.26548">
        <ele>1192.65</ele>
        <time>2018-03-06T13:09:28Z</time>
      </trkpt>
      <trkpt lat="42.93825" lon="0.2657">
        <ele>1192.65</ele>
        <time>2018-03-06T13:09:43Z</time>
      </trkpt>
      <trkpt lat="42.93821" lon="0.2659">
        <ele>1193.13</ele>
        <time>2018-03-06T13:09:58Z</time>
      </trkpt>
      <trkpt lat="42.93812" lon="0.26618">
        <ele>1192.17</ele>
        <time>2018-03-06T13:10:18Z</time>
      </trkpt>
      <trkpt lat="42.93806" lon="0.2663">
        <ele>1192.17</ele>
        <time>2018-03-06T13:10:29Z</time>
      </trkpt>
      <trkpt lat="42.93787" lon="0.26631">
        <ele>1191.21</ele>
        <time>2018-03-06T13:10:47Z</time>
      </trkpt>
      <trkpt lat="42.93784" lon="0.2663">
        <ele>1190.73</ele>
        <time>2018-03-06T13:11:01Z</time>
      </trkpt>
      <trkpt lat="42.93784" lon="0.26631">
        <ele>1190.73</ele>
        <time>2018-03-06T13:11:09Z</time>
      </trkpt>
      <trkpt lat="42.93779" lon="0.26635">
        <ele>1189.29</ele>
        <time>2018-03-06T13:11:14Z</time>
      </trkpt>
      <trkpt lat="42.93774" lon="0.26637">
        <ele>1188.81</ele>
        <time>2018-03-06T13:11:26Z</time>
      </trkpt>
      <trkpt lat="42.93766" lon="0.26645">
        <ele>1187.37</ele>
        <time>2018-03-06T13:11:42Z</time>
      </trkpt>
      <trkpt lat="42.93757" lon="0.26653">
        <ele>1184</ele>
        <time>2018-03-06T13:11:55Z</time>
      </trkpt>
      <trkpt lat="42.9375" lon="0.26664">
        <ele>1182.56</ele>
        <time>2018-03-06T13:12:08Z</time>
      </trkpt>
      <trkpt lat="42.9375" lon="0.26673">
        <ele>1181.12</ele>
        <time>2018-03-06T13:12:15Z</time>
      </trkpt>
      <trkpt lat="42.93741" lon="0.26692">
        <ele>1179.67</ele>
        <time>2018-03-06T13:12:29Z</time>
      </trkpt>
      <trkpt lat="42.93736" lon="0.267">
        <ele>1179.19</ele>
        <time>2018-03-06T13:12:36Z</time>
      </trkpt>
      <trkpt lat="42.93727" lon="0.26725">
        <ele>1176.31</ele>
        <time>2018-03-06T13:12:53Z</time>
      </trkpt>
      <trkpt lat="42.93724" lon="0.26748">
        <ele>1174.87</ele>
        <time>2018-03-06T13:13:09Z</time>
      </trkpt>
      <trkpt lat="42.93718" lon="0.26767">
        <ele>1173.91</ele>
        <time>2018-03-06T13:13:24Z</time>
      </trkpt>
      <trkpt lat="42.93718" lon="0.26774">
        <ele>1173.43</ele>
        <time>2018-03-06T13:13:36Z</time>
      </trkpt>
      <trkpt lat="42.93716" lon="0.26782">
        <ele>1173.43</ele>
        <time>2018-03-06T13:13:48Z</time>
      </trkpt>
      <trkpt lat="42.93713" lon="0.26792">
        <ele>1172.95</ele>
        <time>2018-03-06T13:14:00Z</time>
      </trkpt>
      <trkpt lat="42.93713" lon="0.26793">
        <ele>1172.95</ele>
        <time>2018-03-06T13:14:01Z</time>
      </trkpt>
      <trkpt lat="42.93709" lon="0.26812">
        <ele>1171.98</ele>
        <time>2018-03-06T13:14:16Z</time>
      </trkpt>
      <trkpt lat="42.93704" lon="0.26825">
        <ele>1171.5</ele>
        <time>2018-03-06T13:14:31Z</time>
      </trkpt>
      <trkpt lat="42.93703" lon="0.26829">
        <ele>1171.02</ele>
        <time>2018-03-06T13:14:49Z</time>
      </trkpt>
      <trkpt lat="42.93698" lon="0.26849">
        <ele>1170.54</ele>
        <time>2018-03-06T13:15:05Z</time>
      </trkpt>
      <trkpt lat="42.93695" lon="0.26864">
        <ele>1170.06</ele>
        <time>2018-03-06T13:15:19Z</time>
      </trkpt>
      <trkpt lat="42.93691" lon="0.2688">
        <ele>1170.06</ele>
        <time>2018-03-06T13:15:33Z</time>
      </trkpt>
      <trkpt lat="42.93688" lon="0.26898">
        <ele>1171.02</ele>
        <time>2018-03-06T13:15:48Z</time>
      </trkpt>
      <trkpt lat="42.93686" lon="0.26908">
        <ele>1171.02</ele>
        <time>2018-03-06T13:15:59Z</time>
      </trkpt>
      <trkpt lat="42.93684" lon="0.26922">
        <ele>1171.5</ele>
        <time>2018-03-06T13:16:10Z</time>
      </trkpt>
      <trkpt lat="42.93685" lon="0.26945">
        <ele>1169.58</ele>
        <time>2018-03-06T13:16:24Z</time>
      </trkpt>
      <trkpt lat="42.93686" lon="0.26975">
        <ele>1169.1</ele>
        <time>2018-03-06T13:16:45Z</time>
      </trkpt>
      <trkpt lat="42.93687" lon="0.26998">
        <ele>1169.1</ele>
        <time>2018-03-06T13:17:01Z</time>
      </trkpt>
      <trkpt lat="42.93695" lon="0.2702">
        <ele>1169.1</ele>
        <time>2018-03-06T13:17:19Z</time>
      </trkpt>
      <trkpt lat="42.93698" lon="0.27031">
        <ele>1169.1</ele>
        <time>2018-03-06T13:17:30Z</time>
      </trkpt>
      <trkpt lat="42.93711" lon="0.27059">
        <ele>1168.62</ele>
        <time>2018-03-06T13:17:51Z</time>
      </trkpt>
      <trkpt lat="42.93724" lon="0.27084">
        <ele>1168.14</ele>
        <time>2018-03-06T13:18:10Z</time>
      </trkpt>
      <trkpt lat="42.93727" lon="0.27087">
        <ele>1168.14</ele>
        <time>2018-03-06T13:18:14Z</time>
      </trkpt>
      <trkpt lat="42.93737" lon="0.27108">
        <ele>1168.14</ele>
        <time>2018-03-06T13:18:31Z</time>
      </trkpt>
      <trkpt lat="42.93749" lon="0.27128">
        <ele>1168.14</ele>
        <time>2018-03-06T13:18:48Z</time>
      </trkpt>
      <trkpt lat="42.93763" lon="0.27148">
        <ele>1167.66</ele>
        <time>2018-03-06T13:19:06Z</time>
      </trkpt>
      <trkpt lat="42.93778" lon="0.27166">
        <ele>1166.22</ele>
        <time>2018-03-06T13:19:24Z</time>
      </trkpt>
      <trkpt lat="42.93789" lon="0.27179">
        <ele>1165.26</ele>
        <time>2018-03-06T13:19:37Z</time>
      </trkpt>
      <trkpt lat="42.93808" lon="0.27199">
        <ele>1162.37</ele>
        <time>2018-03-06T13:19:58Z</time>
      </trkpt>
      <trkpt lat="42.93827" lon="0.27212">
        <ele>1159.97</ele>
        <time>2018-03-06T13:20:15Z</time>
      </trkpt>
      <trkpt lat="42.93836" lon="0.27215">
        <ele>1158.53</ele>
        <time>2018-03-06T13:20:31Z</time>
      </trkpt>
      <trkpt lat="42.93844" lon="0.27218">
        <ele>1158.05</ele>
        <time>2018-03-06T13:20:51Z</time>
      </trkpt>
      <trkpt lat="42.93863" lon="0.27229">
        <ele>1155.64</ele>
        <time>2018-03-06T13:21:08Z</time>
      </trkpt>
      <trkpt lat="42.93882" lon="0.27237">
        <ele>1153.72</ele>
        <time>2018-03-06T13:21:25Z</time>
      </trkpt>
      <trkpt lat="42.93901" lon="0.27244">
        <ele>1150.35</ele>
        <time>2018-03-06T13:21:41Z</time>
      </trkpt>
      <trkpt lat="42.93921" lon="0.2725">
        <ele>1147.47</ele>
        <time>2018-03-06T13:21:57Z</time>
      </trkpt>
      <trkpt lat="42.93934" lon="0.27254">
        <ele>1144.11</ele>
        <time>2018-03-06T13:22:07Z</time>
      </trkpt>
      <trkpt lat="42.93937" lon="0.27254">
        <ele>1144.11</ele>
        <time>2018-03-06T13:22:09Z</time>
      </trkpt>
      <trkpt lat="42.93958" lon="0.27258">
        <ele>1141.22</ele>
        <time>2018-03-06T13:22:26Z</time>
      </trkpt>
      <trkpt lat="42.93975" lon="0.27263">
        <ele>1138.34</ele>
        <time>2018-03-06T13:22:40Z</time>
      </trkpt>
      <trkpt lat="42.93984" lon="0.27266">
        <ele>1136.9</ele>
        <time>2018-03-06T13:22:48Z</time>
      </trkpt>
      <trkpt lat="42.94005" lon="0.27274">
        <ele>1133.53</ele>
        <time>2018-03-06T13:23:03Z</time>
      </trkpt>
      <trkpt lat="42.94019" lon="0.27288">
        <ele>1130.17</ele>
        <time>2018-03-06T13:23:15Z</time>
      </trkpt>
      <trkpt lat="42.94029" lon="0.27296">
        <ele>1128.73</ele>
        <time>2018-03-06T13:23:29Z</time>
      </trkpt>
      <trkpt lat="42.94048" lon="0.2731">
        <ele>1125.36</ele>
        <time>2018-03-06T13:23:47Z</time>
      </trkpt>
      <trkpt lat="42.94067" lon="0.27325">
        <ele>1122.96</ele>
        <time>2018-03-06T13:24:04Z</time>
      </trkpt>
      <trkpt lat="42.94079" lon="0.27346">
        <ele>1120.55</ele>
        <time>2018-03-06T13:24:20Z</time>
      </trkpt>
      <trkpt lat="42.94081" lon="0.27386">
        <ele>1117.67</ele>
        <time>2018-03-06T13:24:41Z</time>
      </trkpt>
      <trkpt lat="42.94081" lon="0.27389">
        <ele>1117.67</ele>
        <time>2018-03-06T13:24:43Z</time>
      </trkpt>
      <trkpt lat="42.94079" lon="0.27402">
        <ele>1117.19</ele>
        <time>2018-03-06T13:24:51Z</time>
      </trkpt>
      <trkpt lat="42.94076" lon="0.27411">
        <ele>1116.71</ele>
        <time>2018-03-06T13:24:57Z</time>
      </trkpt>
      <trkpt lat="42.94074" lon="0.27426">
        <ele>1116.23</ele>
        <time>2018-03-06T13:25:10Z</time>
      </trkpt>
      <trkpt lat="42.94074" lon="0.27452">
        <ele>1114.79</ele>
        <time>2018-03-06T13:25:27Z</time>
      </trkpt>
      <trkpt lat="42.94076" lon="0.27475">
        <ele>1113.82</ele>
        <time>2018-03-06T13:25:42Z</time>
      </trkpt>
      <trkpt lat="42.94079" lon="0.27501">
        <ele>1112.38</ele>
        <time>2018-03-06T13:25:59Z</time>
      </trkpt>
      <trkpt lat="42.94081" lon="0.27527">
        <ele>1111.9</ele>
        <time>2018-03-06T13:26:16Z</time>
      </trkpt>
      <trkpt lat="42.94081" lon="0.27533">
        <ele>1111.42</ele>
        <time>2018-03-06T13:26:21Z</time>
      </trkpt>
      <trkpt lat="42.94082" lon="0.27538">
        <ele>1111.42</ele>
        <time>2018-03-06T13:26:25Z</time>
      </trkpt>
      <trkpt lat="42.94085" lon="0.27562">
        <ele>1110.46</ele>
        <time>2018-03-06T13:26:41Z</time>
      </trkpt>
      <trkpt lat="42.94086" lon="0.27577">
        <ele>1109.02</ele>
        <time>2018-03-06T13:26:57Z</time>
      </trkpt>
      <trkpt lat="42.94087" lon="0.27582">
        <ele>1109.02</ele>
        <time>2018-03-06T13:27:11Z</time>
      </trkpt>
      <trkpt lat="42.94086" lon="0.27588">
        <ele>1108.54</ele>
        <time>2018-03-06T13:27:19Z</time>
      </trkpt>
      <trkpt lat="42.94086" lon="0.27596">
        <ele>1108.06</ele>
        <time>2018-03-06T13:27:24Z</time>
      </trkpt>
      <trkpt lat="42.94091" lon="0.2763">
        <ele>1107.1</ele>
        <time>2018-03-06T13:27:43Z</time>
      </trkpt>
      <trkpt lat="42.94097" lon="0.27662">
        <ele>1106.61</ele>
        <time>2018-03-06T13:28:01Z</time>
      </trkpt>
      <trkpt lat="42.94102" lon="0.27699">
        <ele>1105.17</ele>
        <time>2018-03-06T13:28:21Z</time>
      </trkpt>
      <trkpt lat="42.94105" lon="0.27736">
        <ele>1104.21</ele>
        <time>2018-03-06T13:28:41Z</time>
      </trkpt>
      <trkpt lat="42.94108" lon="0.27768">
        <ele>1103.73</ele>
        <time>2018-03-06T13:28:58Z</time>
      </trkpt>
      <trkpt lat="42.94118" lon="0.27802">
        <ele>1103.25</ele>
        <time>2018-03-06T13:29:18Z</time>
      </trkpt>
      <trkpt lat="42.94133" lon="0.27836">
        <ele>1102.29</ele>
        <time>2018-03-06T13:29:38Z</time>
      </trkpt>
      <trkpt lat="42.94153" lon="0.2786">
        <ele>1101.81</ele>
        <time>2018-03-06T13:29:58Z</time>
      </trkpt>
      <trkpt lat="42.94177" lon="0.27877">
        <ele>1100.37</ele>
        <time>2018-03-06T13:30:18Z</time>
      </trkpt>
      <trkpt lat="42.94195" lon="0.27885">
        <ele>1100.37</ele>
        <time>2018-03-06T13:30:38Z</time>
      </trkpt>
      <trkpt lat="42.94199" lon="0.27882">
        <ele>1099.89</ele>
        <time>2018-03-06T13:30:52Z</time>
      </trkpt>
      <trkpt lat="42.94197" lon="0.27883">
        <ele>1099.89</ele>
        <time>2018-03-06T13:31:13Z</time>
      </trkpt>
      <trkpt lat="42.94195" lon="0.27886">
        <ele>1100.37</ele>
        <time>2018-03-06T13:31:30Z</time>
      </trkpt>
      <trkpt lat="42.94198" lon="0.27889">
        <ele>1099.89</ele>
        <time>2018-03-06T13:31:50Z</time>
      </trkpt>
      <trkpt lat="42.94212" lon="0.27903">
        <ele>1099.4</ele>
        <time>2018-03-06T13:32:06Z</time>
      </trkpt>
      <trkpt lat="42.94218" lon="0.27927">
        <ele>1097.48</ele>
        <time>2018-03-06T13:32:22Z</time>
      </trkpt>
      <trkpt lat="42.94217" lon="0.27954">
        <ele>1095.08</ele>
        <time>2018-03-06T13:32:39Z</time>
      </trkpt>
      <trkpt lat="42.94222" lon="0.27976">
        <ele>1093.64</ele>
        <time>2018-03-06T13:32:55Z</time>
      </trkpt>
      <trkpt lat="42.94224" lon="0.2799">
        <ele>1093.16</ele>
        <time>2018-03-06T13:33:04Z</time>
      </trkpt>
      <trkpt lat="42.9423" lon="0.28019">
        <ele>1092.2</ele>
        <time>2018-03-06T13:33:21Z</time>
      </trkpt>
      <trkpt lat="42.94228" lon="0.28025">
        <ele>1092.2</ele>
        <time>2018-03-06T13:33:25Z</time>
      </trkpt>
      <trkpt lat="42.94232" lon="0.28052">
        <ele>1091.23</ele>
        <time>2018-03-06T13:33:42Z</time>
      </trkpt>
      <trkpt lat="42.94232" lon="0.28067">
        <ele>1091.23</ele>
        <time>2018-03-06T13:33:52Z</time>
      </trkpt>
      <trkpt lat="42.9423" lon="0.28094">
        <ele>1090.75</ele>
        <time>2018-03-06T13:34:08Z</time>
      </trkpt>
      <trkpt lat="42.9423" lon="0.28123">
        <ele>1090.75</ele>
        <time>2018-03-06T13:34:25Z</time>
      </trkpt>
      <trkpt lat="42.94229" lon="0.28147">
        <ele>1091.23</ele>
        <time>2018-03-06T13:34:40Z</time>
      </trkpt>
      <trkpt lat="42.94228" lon="0.28173">
        <ele>1090.75</ele>
        <time>2018-03-06T13:34:56Z</time>
      </trkpt>
      <trkpt lat="42.9423" lon="0.28198">
        <ele>1090.75</ele>
        <time>2018-03-06T13:35:11Z</time>
      </trkpt>
      <trkpt lat="42.94232" lon="0.2822">
        <ele>1090.75</ele>
        <time>2018-03-06T13:35:25Z</time>
      </trkpt>
      <trkpt lat="42.94232" lon="0.28243">
        <ele>1090.75</ele>
        <time>2018-03-06T13:35:41Z</time>
      </trkpt>
      <trkpt lat="42.94229" lon="0.28253">
        <ele>1091.23</ele>
        <time>2018-03-06T13:35:47Z</time>
      </trkpt>
      <trkpt lat="42.94228" lon="0.28257">
        <ele>1090.75</ele>
        <time>2018-03-06T13:35:50Z</time>
      </trkpt>
      <trkpt lat="42.94224" lon="0.28278">
        <ele>1091.71</ele>
        <time>2018-03-06T13:36:05Z</time>
      </trkpt>
      <trkpt lat="42.94223" lon="0.28288">
        <ele>1091.23</ele>
        <time>2018-03-06T13:36:11Z</time>
      </trkpt>
      <trkpt lat="42.94222" lon="0.283">
        <ele>1091.23</ele>
        <time>2018-03-06T13:36:19Z</time>
      </trkpt>
      <trkpt lat="42.94216" lon="0.28328">
        <ele>1092.2</ele>
        <time>2018-03-06T13:36:37Z</time>
      </trkpt>
      <trkpt lat="42.94215" lon="0.28333">
        <ele>1092.68</ele>
        <time>2018-03-06T13:36:49Z</time>
      </trkpt>
      <trkpt lat="42.9421" lon="0.28356">
        <ele>1092.68</ele>
        <time>2018-03-06T13:37:02Z</time>
      </trkpt>
      <trkpt lat="42.94204" lon="0.28371">
        <ele>1092.68</ele>
        <time>2018-03-06T13:37:12Z</time>
      </trkpt>
      <trkpt lat="42.94212" lon="0.28392">
        <ele>1092.2</ele>
        <time>2018-03-06T13:37:28Z</time>
      </trkpt>
      <trkpt lat="42.9422" lon="0.28403">
        <ele>1093.16</ele>
        <time>2018-03-06T13:37:38Z</time>
      </trkpt>
      <trkpt lat="42.94235" lon="0.28435">
        <ele>1092.68</ele>
        <time>2018-03-06T13:37:59Z</time>
      </trkpt>
      <trkpt lat="42.94245" lon="0.28453">
        <ele>1093.64</ele>
        <time>2018-03-06T13:38:13Z</time>
      </trkpt>
      <trkpt lat="42.94246" lon="0.28454">
        <ele>1093.64</ele>
        <time>2018-03-06T13:38:15Z</time>
      </trkpt>
      <trkpt lat="42.94255" lon="0.28453">
        <ele>1094.6</ele>
        <time>2018-03-06T13:38:24Z</time>
      </trkpt>
      <trkpt lat="42.94257" lon="0.28451">
        <ele>1092.68</ele>
        <time>2018-03-06T13:38:27Z</time>
      </trkpt>
      <trkpt lat="42.94268" lon="0.28434">
        <ele>1093.16</ele>
        <time>2018-03-06T13:38:39Z</time>
      </trkpt>
      <trkpt lat="42.94273" lon="0.28406">
        <ele>1093.16</ele>
        <time>2018-03-06T13:38:56Z</time>
      </trkpt>
      <trkpt lat="42.94276" lon="0.28379">
        <ele>1093.64</ele>
        <time>2018-03-06T13:39:11Z</time>
      </trkpt>
      <trkpt lat="42.94276" lon="0.2835">
        <ele>1091.71</ele>
        <time>2018-03-06T13:39:27Z</time>
      </trkpt>
      <trkpt lat="42.94276" lon="0.28345">
        <ele>1091.71</ele>
        <time>2018-03-06T13:39:30Z</time>
      </trkpt>
      <trkpt lat="42.94269" lon="0.28322">
        <ele>1091.23</ele>
        <time>2018-03-06T13:39:47Z</time>
      </trkpt>
      <trkpt lat="42.94265" lon="0.28324">
        <ele>1090.75</ele>
        <time>2018-03-06T13:40:00Z</time>
      </trkpt>
      <trkpt lat="42.94262" lon="0.28327">
        <ele>1090.75</ele>
        <time>2018-03-06T13:40:14Z</time>
      </trkpt>
      <trkpt lat="42.94261" lon="0.28327">
        <ele>1090.75</ele>
        <time>2018-03-06T13:40:26Z</time>
      </trkpt>
      <trkpt lat="42.94262" lon="0.28328">
        <ele>1091.23</ele>
        <time>2018-03-06T13:42:42Z</time>
      </trkpt>
      <trkpt lat="42.94262" lon="0.28328">
        <ele>1091.71</ele>
        <time>2018-03-06T13:42:48Z</time>
      </trkpt>
    </trkseg>
  </trk>
</gpx>